<?xml version='1.0' encoding='UTF-8'?><gpx version="1.1" creator="JPX - https://github.com/jenetics/jpx" xmlns="http://www.topografix.com/GPX/1/1"><trk><trkseg><trkpt lat="43.8743787" lon="11.1357879"><ele>374.6666666666667</ele><time>2026-04-16T13:57:57.725Z</time></trkpt><trkpt lat="43.8742935" lon="11.1353237"><ele>374.33333333333337</ele><time>2026-04-16T14:00:18.299Z</time></trkpt><trkpt lat="43.8742755" lon="11.1352341"><ele>374.0</ele><time>2026-04-16T14:00:24.292Z</time></trkpt><trkpt lat="43.8742765" lon="11.1351462"><ele>374.7142857142857</ele><time>2026-04-16T14:00:29.305Z</time></trkpt><trkpt lat="43.8742523" lon="11.1350594"><ele>375.42857142857144</ele><time>2026-04-16T14:00:35.303Z</time></trkpt><trkpt lat="43.8742298" lon="11.1349714"><ele>376.14285714285717</ele><time>2026-04-16T14:00:41.264Z</time></trkpt><trkpt lat="43.874215" lon="11.1348682"><ele>376.8571428571429</ele><time>2026-04-16T14:00:46.282Z</time></trkpt><trkpt lat="43.8742117" lon="11.1347717"><ele>377.57142857142856</ele><time>2026-04-16T14:00:52.304Z</time></trkpt><trkpt lat="43.8742179" lon="11.1346669"><ele>378.28571428571433</ele><time>2026-04-16T14:00:58.275Z</time></trkpt><trkpt lat="43.8742024" lon="11.1345781"><ele>379.0</ele><time>2026-04-16T14:01:06.296Z</time></trkpt><trkpt lat="43.8742092" lon="11.1344879"><ele>377.7142857142857</ele><time>2026-04-16T14:01:13.279Z</time></trkpt><trkpt lat="43.8742325" lon="11.1344055"><ele>376.42857142857144</ele><time>2026-04-16T14:01:19.304Z</time></trkpt><trkpt lat="43.8742834" lon="11.1343401"><ele>375.1428571428571</ele><time>2026-04-16T14:01:26.312Z</time></trkpt><trkpt lat="43.8743393" lon="11.1342845"><ele>373.8571428571429</ele><time>2026-04-16T14:01:33.238Z</time></trkpt><trkpt lat="43.8743466" lon="11.1341927"><ele>372.57142857142856</ele><time>2026-04-16T14:01:39.296Z</time></trkpt><trkpt lat="43.874394" lon="11.1341285"><ele>371.2857142857143</ele><time>2026-04-16T14:01:48.297Z</time></trkpt><trkpt lat="43.8744532" lon="11.1340808"><ele>370.0</ele><time>2026-04-16T14:01:53.256Z</time></trkpt><trkpt lat="43.8745006" lon="11.1340204"><ele>369.99999999999994</ele><time>2026-04-16T14:01:58.299Z</time></trkpt><trkpt lat="43.8745599" lon="11.1339703"><ele>370.0</ele><time>2026-04-16T14:02:03.29Z</time></trkpt><trkpt lat="43.8746118" lon="11.133908"><ele>370.0</ele><time>2026-04-16T14:02:09.231Z</time></trkpt><trkpt lat="43.8746628" lon="11.1338535"><ele>370.0</ele><time>2026-04-16T14:02:15.28Z</time></trkpt><trkpt lat="43.8747372" lon="11.1338279"><ele>370.0</ele><time>2026-04-16T14:02:21.195Z</time></trkpt><trkpt lat="43.8748036" lon="11.1337853"><ele>369.99999999999994</ele><time>2026-04-16T14:02:25.28Z</time></trkpt><trkpt lat="43.8748624" lon="11.1337508"><ele>370.0</ele><time>2026-04-16T14:02:31.295Z</time></trkpt><trkpt lat="43.874919" lon="11.1337123"><ele>369.99999999999994</ele><time>2026-04-16T14:02:39.3Z</time></trkpt><trkpt lat="43.8749979" lon="11.1337328"><ele>370.0</ele><time>2026-04-16T14:02:44.295Z</time></trkpt><trkpt lat="43.8750589" lon="11.1337668"><ele>370.0</ele><time>2026-04-16T14:02:49.3Z</time></trkpt><trkpt lat="43.8750912" lon="11.1336861"><ele>370.0</ele><time>2026-04-16T14:03:46.305Z</time></trkpt><trkpt lat="43.8751542" lon="11.1336568"><ele>370.0</ele><time>2026-04-16T14:03:53.3Z</time></trkpt><trkpt lat="43.8752193" lon="11.1336509"><ele>369.99999999999994</ele><time>2026-04-16T14:03:59.302Z</time></trkpt><trkpt lat="43.8752884" lon="11.1336504"><ele>370.0</ele><time>2026-04-16T14:04:05.305Z</time></trkpt><trkpt lat="43.875355" lon="11.133665"><ele>370.71428571428567</ele><time>2026-04-16T14:04:12.311Z</time></trkpt><trkpt lat="43.8754278" lon="11.1336794"><ele>371.42857142857144</ele><time>2026-04-16T14:04:18.308Z</time></trkpt><trkpt lat="43.875498" lon="11.1337127"><ele>372.1428571428571</ele><time>2026-04-16T14:04:24.302Z</time></trkpt><trkpt lat="43.8755692" lon="11.1337391"><ele>372.85714285714283</ele><time>2026-04-16T14:04:30.26Z</time></trkpt><trkpt lat="43.8756346" lon="11.1337531"><ele>373.57142857142856</ele><time>2026-04-16T14:04:36.303Z</time></trkpt><trkpt lat="43.8757055" lon="11.1337462"><ele>374.2857142857143</ele><time>2026-04-16T14:04:42.296Z</time></trkpt><trkpt lat="43.8757742" lon="11.1337324"><ele>375.0</ele><time>2026-04-16T14:04:48.259Z</time></trkpt><trkpt lat="43.8758385" lon="11.1337275"><ele>375.0</ele><time>2026-04-16T14:04:53.304Z</time></trkpt><trkpt lat="43.8759063" lon="11.1337586"><ele>375.0</ele><time>2026-04-16T14:04:59.306Z</time></trkpt><trkpt lat="43.8759749" lon="11.1337464"><ele>375.0</ele><time>2026-04-16T14:05:06.302Z</time></trkpt><trkpt lat="43.8760279" lon="11.133695"><ele>375.0</ele><time>2026-04-16T14:05:12.3Z</time></trkpt><trkpt lat="43.8760964" lon="11.1336672"><ele>375.0</ele><time>2026-04-16T14:05:18.309Z</time></trkpt><trkpt lat="43.8761609" lon="11.1336373"><ele>375.0</ele><time>2026-04-16T14:05:26.157Z</time></trkpt><trkpt lat="43.87622" lon="11.1335725"><ele>375.0</ele><time>2026-04-16T14:05:31.295Z</time></trkpt><trkpt lat="43.876281" lon="11.1335159"><ele>375.14285714285717</ele><time>2026-04-16T14:05:36.328Z</time></trkpt><trkpt lat="43.8763395" lon="11.1334517"><ele>375.2857142857143</ele><time>2026-04-16T14:05:42.26Z</time></trkpt><trkpt lat="43.8764026" lon="11.1334043"><ele>375.42857142857144</ele><time>2026-04-16T14:05:47.302Z</time></trkpt><trkpt lat="43.8764699" lon="11.1333675"><ele>375.57142857142856</ele><time>2026-04-16T14:05:54.3Z</time></trkpt><trkpt lat="43.8765161" lon="11.133299"><ele>375.71428571428567</ele><time>2026-04-16T14:05:59.302Z</time></trkpt><trkpt lat="43.8765715" lon="11.1332259"><ele>375.85714285714283</ele><time>2026-04-16T14:06:04.305Z</time></trkpt><trkpt lat="43.8766266" lon="11.1331833"><ele>376.0</ele><time>2026-04-16T14:06:09.304Z</time></trkpt><trkpt lat="43.8766912" lon="11.1330859"><ele>375.5</ele><time>2026-04-16T14:06:13.293Z</time></trkpt><trkpt lat="43.8767545" lon="11.1330317"><ele>375.0</ele><time>2026-04-16T14:06:18.277Z</time></trkpt><trkpt lat="43.8767904" lon="11.1329579"><ele>374.5</ele><time>2026-04-16T14:06:24.282Z</time></trkpt><trkpt lat="43.8768698" lon="11.1328802"><ele>374.0</ele><time>2026-04-16T14:06:37.284Z</time></trkpt><trkpt lat="43.8768937" lon="11.1327866"><ele>373.5</ele><time>2026-04-16T14:06:43.29Z</time></trkpt><trkpt lat="43.8768944" lon="11.1326847"><ele>373.0</ele><time>2026-04-16T14:06:48.297Z</time></trkpt><trkpt lat="43.8768971" lon="11.1325767"><ele>374.42857142857144</ele><time>2026-04-16T14:06:53.295Z</time></trkpt><trkpt lat="43.8769088" lon="11.1324717"><ele>375.8571428571429</ele><time>2026-04-16T14:06:58.302Z</time></trkpt><trkpt lat="43.8769353" lon="11.132381"><ele>377.2857142857143</ele><time>2026-04-16T14:07:04.296Z</time></trkpt><trkpt lat="43.8769516" lon="11.1322824"><ele>378.7142857142857</ele><time>2026-04-16T14:07:10.3Z</time></trkpt><trkpt lat="43.8769797" lon="11.1321883"><ele>380.1428571428571</ele><time>2026-04-16T14:07:16.204Z</time></trkpt><trkpt lat="43.8770059" lon="11.132091"><ele>381.57142857142856</ele><time>2026-04-16T14:07:22.298Z</time></trkpt><trkpt lat="43.8770443" lon="11.1320071"><ele>383.0</ele><time>2026-04-16T14:07:27.303Z</time></trkpt><trkpt lat="43.8771003" lon="11.1319619"><ele>383.0</ele><time>2026-04-16T14:07:32.294Z</time></trkpt><trkpt lat="43.8771617" lon="11.1319222"><ele>383.0</ele><time>2026-04-16T14:07:39.298Z</time></trkpt><trkpt lat="43.8772308" lon="11.1319124"><ele>383.0</ele><time>2026-04-16T14:07:48.298Z</time></trkpt><trkpt lat="43.8773031" lon="11.1319018"><ele>383.0</ele><time>2026-04-16T14:07:56.298Z</time></trkpt><trkpt lat="43.8773599" lon="11.1318618"><ele>383.0</ele><time>2026-04-16T14:08:02.295Z</time></trkpt><trkpt lat="43.8774234" lon="11.1318206"><ele>383.0</ele><time>2026-04-16T14:08:10.294Z</time></trkpt><trkpt lat="43.8774798" lon="11.131763"><ele>383.0</ele><time>2026-04-16T14:08:20.299Z</time></trkpt><trkpt lat="43.8774985" lon="11.1316713"><ele>383.0</ele><time>2026-04-16T14:08:29.254Z</time></trkpt><trkpt lat="43.8775077" lon="11.1315761"><ele>383.0</ele><time>2026-04-16T14:08:38.296Z</time></trkpt><trkpt lat="43.8775396" lon="11.13149"><ele>383.0</ele><time>2026-04-16T14:08:47.296Z</time></trkpt><trkpt lat="43.8775775" lon="11.1314149"><ele>383.0</ele><time>2026-04-16T14:08:56.301Z</time></trkpt><trkpt lat="43.8776358" lon="11.1313795"><ele>383.0</ele><time>2026-04-16T14:09:03.276Z</time></trkpt><trkpt lat="43.8776899" lon="11.1313168"><ele>383.0</ele><time>2026-04-16T14:09:10.293Z</time></trkpt><trkpt lat="43.8777521" lon="11.1312746"><ele>383.0</ele><time>2026-04-16T14:09:15.299Z</time></trkpt><trkpt lat="43.8777727" lon="11.1311876"><ele>383.57142857142856</ele><time>2026-04-16T14:09:24.302Z</time></trkpt><trkpt lat="43.8778078" lon="11.1311143"><ele>384.1428571428571</ele><time>2026-04-16T14:09:33.295Z</time></trkpt><trkpt lat="43.8778797" lon="11.1310721"><ele>384.7142857142857</ele><time>2026-04-16T14:09:39.297Z</time></trkpt><trkpt lat="43.8779521" lon="11.1310593"><ele>385.2857142857143</ele><time>2026-04-16T14:09:45.238Z</time></trkpt><trkpt lat="43.8780141" lon="11.131011"><ele>385.8571428571429</ele><time>2026-04-16T14:09:56.299Z</time></trkpt><trkpt lat="43.8780654" lon="11.1309529"><ele>386.42857142857144</ele><time>2026-04-16T14:09:59.296Z</time></trkpt><trkpt lat="43.8781064" lon="11.1308853"><ele>387.0</ele><time>2026-04-16T14:10:03.298Z</time></trkpt><trkpt lat="43.8781149" lon="11.1307983"><ele>386.0</ele><time>2026-04-16T14:10:09.222Z</time></trkpt><trkpt lat="43.8781729" lon="11.1307132"><ele>385.0</ele><time>2026-04-16T14:10:11.234Z</time></trkpt><trkpt lat="43.878222" lon="11.1306381"><ele>384.0</ele><time>2026-04-16T14:10:15.318Z</time></trkpt><trkpt lat="43.878259" lon="11.1305542"><ele>383.0</ele><time>2026-04-16T14:10:21.298Z</time></trkpt><trkpt lat="43.8782783" lon="11.1304631"><ele>382.0</ele><time>2026-04-16T14:10:28.302Z</time></trkpt><trkpt lat="43.8783242" lon="11.1303843"><ele>381.0</ele><time>2026-04-16T14:10:34.299Z</time></trkpt><trkpt lat="43.8783806" lon="11.1303362"><ele>380.0</ele><time>2026-04-16T14:10:42.112Z</time></trkpt><trkpt lat="43.8784303" lon="11.1302777"><ele>380.0</ele><time>2026-04-16T14:10:49.297Z</time></trkpt><trkpt lat="43.8784703" lon="11.1302093"><ele>380.0</ele><time>2026-04-16T14:10:59.3Z</time></trkpt><trkpt lat="43.8785124" lon="11.1301425"><ele>380.0</ele><time>2026-04-16T14:11:06.303Z</time></trkpt><trkpt lat="43.8785706" lon="11.1301071"><ele>380.0</ele><time>2026-04-16T14:11:13.213Z</time></trkpt><trkpt lat="43.8786262" lon="11.1300499"><ele>380.0</ele><time>2026-04-16T14:11:20.241Z</time></trkpt><trkpt lat="43.8786578" lon="11.1299737"><ele>380.0</ele><time>2026-04-16T14:11:27.293Z</time></trkpt><trkpt lat="43.8786797" lon="11.1298888"><ele>380.0</ele><time>2026-04-16T14:11:34.301Z</time></trkpt><trkpt lat="43.8787432" lon="11.1298595"><ele>380.0</ele><time>2026-04-16T14:11:51.298Z</time></trkpt><trkpt lat="43.8788016" lon="11.1297661"><ele>380.0</ele><time>2026-04-16T14:11:58.277Z</time></trkpt><trkpt lat="43.8788382" lon="11.1296931"><ele>380.0</ele><time>2026-04-16T14:12:03.294Z</time></trkpt><trkpt lat="43.8788835" lon="11.1296318"><ele>380.0</ele><time>2026-04-16T14:12:10.259Z</time></trkpt><trkpt lat="43.8789505" lon="11.1295962"><ele>380.0</ele><time>2026-04-16T14:12:19.26Z</time></trkpt><trkpt lat="43.8790131" lon="11.1295467"><ele>380.0</ele><time>2026-04-16T14:12:25.175Z</time></trkpt><trkpt lat="43.8790551" lon="11.1294774"><ele>380.0</ele><time>2026-04-16T14:12:32.301Z</time></trkpt><trkpt lat="43.8791126" lon="11.129413"><ele>380.0</ele><time>2026-04-16T14:12:39.299Z</time></trkpt><trkpt lat="43.879161" lon="11.1293487"><ele>380.0</ele><time>2026-04-16T14:12:47.294Z</time></trkpt><trkpt lat="43.8792051" lon="11.1292736"><ele>380.0</ele><time>2026-04-16T14:12:52.303Z</time></trkpt><trkpt lat="43.8792493" lon="11.1292036"><ele>380.0</ele><time>2026-04-16T14:12:57.304Z</time></trkpt><trkpt lat="43.8793076" lon="11.129155"><ele>380.0</ele><time>2026-04-16T14:13:04.306Z</time></trkpt><trkpt lat="43.8793562" lon="11.1290864"><ele>380.0</ele><time>2026-04-16T14:13:10.291Z</time></trkpt><trkpt lat="43.879406" lon="11.1290215"><ele>380.0</ele><time>2026-04-16T14:13:16.298Z</time></trkpt><trkpt lat="43.8794561" lon="11.1289614"><ele>378.42857142857144</ele><time>2026-04-16T14:13:25.291Z</time></trkpt><trkpt lat="43.879518" lon="11.1289398"><ele>376.8571428571429</ele><time>2026-04-16T14:13:34.289Z</time></trkpt><trkpt lat="43.8795752" lon="11.128884"><ele>375.2857142857143</ele><time>2026-04-16T14:13:41.295Z</time></trkpt><trkpt lat="43.8796373" lon="11.1288463"><ele>373.7142857142857</ele><time>2026-04-16T14:13:48.295Z</time></trkpt><trkpt lat="43.8796992" lon="11.1288034"><ele>372.1428571428571</ele><time>2026-04-16T14:13:54.297Z</time></trkpt><trkpt lat="43.8797503" lon="11.1287516"><ele>370.57142857142856</ele><time>2026-04-16T14:14:00.305Z</time></trkpt><trkpt lat="43.8798214" lon="11.128722"><ele>369.0</ele><time>2026-04-16T14:14:07.301Z</time></trkpt><trkpt lat="43.8798854" lon="11.1286921"><ele>369.0</ele><time>2026-04-16T14:14:13.293Z</time></trkpt><trkpt lat="43.8799492" lon="11.128668"><ele>369.0</ele><time>2026-04-16T14:14:20.298Z</time></trkpt><trkpt lat="43.8800186" lon="11.1286485"><ele>369.0</ele><time>2026-04-16T14:14:27.296Z</time></trkpt><trkpt lat="43.880078" lon="11.1285982"><ele>369.0</ele><time>2026-04-16T14:14:32.291Z</time></trkpt><trkpt lat="43.8801431" lon="11.1285676"><ele>369.0</ele><time>2026-04-16T14:14:39.283Z</time></trkpt><trkpt lat="43.8802144" lon="11.1285695"><ele>369.0</ele><time>2026-04-16T14:14:46.293Z</time></trkpt><trkpt lat="43.8802777" lon="11.1285883"><ele>369.0</ele><time>2026-04-16T14:14:53.288Z</time></trkpt><trkpt lat="43.8803375" lon="11.1285424"><ele>368.57142857142856</ele><time>2026-04-16T14:15:02.268Z</time></trkpt><trkpt lat="43.8803947" lon="11.1284989"><ele>368.1428571428571</ele><time>2026-04-16T14:15:09.264Z</time></trkpt><trkpt lat="43.8804514" lon="11.1284362"><ele>367.7142857142857</ele><time>2026-04-16T14:15:17.266Z</time></trkpt><trkpt lat="43.8804928" lon="11.1283651"><ele>367.2857142857143</ele><time>2026-04-16T14:15:21.266Z</time></trkpt><trkpt lat="43.8805556" lon="11.128307"><ele>366.8571428571429</ele><time>2026-04-16T14:15:28.262Z</time></trkpt><trkpt lat="43.8805938" lon="11.1282325"><ele>366.42857142857144</ele><time>2026-04-16T14:15:32.268Z</time></trkpt><trkpt lat="43.8806571" lon="11.1281723"><ele>366.0</ele><time>2026-04-16T14:15:42.267Z</time></trkpt><trkpt lat="43.8807191" lon="11.1281354"><ele>366.0</ele><time>2026-04-16T14:15:45.27Z</time></trkpt><trkpt lat="43.8807811" lon="11.128111"><ele>366.0</ele><time>2026-04-16T14:15:49.274Z</time></trkpt><trkpt lat="43.8808358" lon="11.128052"><ele>366.0</ele><time>2026-04-16T14:15:59.234Z</time></trkpt><trkpt lat="43.8809106" lon="11.1280258"><ele>366.0</ele><time>2026-04-16T14:16:04.274Z</time></trkpt><trkpt lat="43.8809723" lon="11.1279754"><ele>366.0</ele><time>2026-04-16T14:16:08.275Z</time></trkpt><trkpt lat="43.8810364" lon="11.1279483"><ele>366.0</ele><time>2026-04-16T14:16:13.197Z</time></trkpt><trkpt lat="43.8810782" lon="11.1278756"><ele>366.0</ele><time>2026-04-16T14:16:18.267Z</time></trkpt><trkpt lat="43.8811022" lon="11.1277905"><ele>366.7142857142857</ele><time>2026-04-16T14:16:25.258Z</time></trkpt><trkpt lat="43.8811679" lon="11.1277609"><ele>367.42857142857144</ele><time>2026-04-16T14:16:36.259Z</time></trkpt><trkpt lat="43.8812398" lon="11.1277464"><ele>368.1428571428571</ele><time>2026-04-16T14:16:41.233Z</time></trkpt><trkpt lat="43.8813002" lon="11.1277089"><ele>368.8571428571429</ele><time>2026-04-16T14:16:46.27Z</time></trkpt><trkpt lat="43.8813663" lon="11.1276686"><ele>369.57142857142856</ele><time>2026-04-16T14:16:51.265Z</time></trkpt><trkpt lat="43.8814323" lon="11.1276937"><ele>370.2857142857143</ele><time>2026-04-16T14:16:58.268Z</time></trkpt><trkpt lat="43.8814967" lon="11.1276832"><ele>371.0</ele><time>2026-04-16T14:17:04.264Z</time></trkpt><trkpt lat="43.8815603" lon="11.1276894"><ele>371.0</ele><time>2026-04-16T14:17:11.275Z</time></trkpt><trkpt lat="43.8816202" lon="11.1277227"><ele>371.0</ele><time>2026-04-16T14:17:16.274Z</time></trkpt><trkpt lat="43.8816901" lon="11.1277173"><ele>371.0</ele><time>2026-04-16T14:17:22.274Z</time></trkpt><trkpt lat="43.8817551" lon="11.1277073"><ele>371.0</ele><time>2026-04-16T14:17:26.277Z</time></trkpt><trkpt lat="43.8818275" lon="11.1277155"><ele>371.0</ele><time>2026-04-16T14:17:32.272Z</time></trkpt><trkpt lat="43.8818968" lon="11.1277142"><ele>371.0</ele><time>2026-04-16T14:17:39.274Z</time></trkpt><trkpt lat="43.8819598" lon="11.1277122"><ele>371.0</ele><time>2026-04-16T14:17:45.273Z</time></trkpt><trkpt lat="43.8820247" lon="11.1277246"><ele>371.42857142857144</ele><time>2026-04-16T14:17:52.234Z</time></trkpt><trkpt lat="43.8820895" lon="11.1277137"><ele>371.8571428571429</ele><time>2026-04-16T14:17:58.265Z</time></trkpt><trkpt lat="43.8821546" lon="11.1277044"><ele>372.2857142857143</ele><time>2026-04-16T14:18:04.27Z</time></trkpt><trkpt lat="43.8822199" lon="11.1277413"><ele>372.7142857142857</ele><time>2026-04-16T14:18:14.114Z</time></trkpt><trkpt lat="43.8822871" lon="11.1277805"><ele>373.14285714285717</ele><time>2026-04-16T14:18:23.263Z</time></trkpt><trkpt lat="43.8823418" lon="11.1278289"><ele>373.57142857142856</ele><time>2026-04-16T14:18:28.261Z</time></trkpt><trkpt lat="43.882406" lon="11.1278115"><ele>374.0</ele><time>2026-04-16T14:18:37.267Z</time></trkpt><trkpt lat="43.8824704" lon="11.1277687"><ele>374.0</ele><time>2026-04-16T14:18:45.265Z</time></trkpt><trkpt lat="43.882515" lon="11.127692"><ele>374.0</ele><time>2026-04-16T14:18:52.265Z</time></trkpt><trkpt lat="43.8825637" lon="11.1276196"><ele>374.0</ele><time>2026-04-16T14:18:57.264Z</time></trkpt><trkpt lat="43.882628" lon="11.127572"><ele>374.0</ele><time>2026-04-16T14:19:02.262Z</time></trkpt><trkpt lat="43.8826922" lon="11.127555"><ele>374.0</ele><time>2026-04-16T14:19:07.177Z</time></trkpt><trkpt lat="43.8827604" lon="11.1275709"><ele>374.0</ele><time>2026-04-16T14:19:12.264Z</time></trkpt><trkpt lat="43.882829" lon="11.1275577"><ele>374.0</ele><time>2026-04-16T14:19:18.263Z</time></trkpt><trkpt lat="43.8828923" lon="11.1275169"><ele>375.4285714285714</ele><time>2026-04-16T14:19:25.267Z</time></trkpt><trkpt lat="43.8829424" lon="11.1274554"><ele>376.8571428571429</ele><time>2026-04-16T14:19:31.265Z</time></trkpt><trkpt lat="43.8830101" lon="11.1274326"><ele>378.2857142857143</ele><time>2026-04-16T14:19:38.269Z</time></trkpt><trkpt lat="43.8830746" lon="11.1274539"><ele>379.71428571428567</ele><time>2026-04-16T14:19:47.266Z</time></trkpt><trkpt lat="43.8831436" lon="11.1274433"><ele>381.1428571428571</ele><time>2026-04-16T14:19:53.268Z</time></trkpt><trkpt lat="43.8832112" lon="11.1274242"><ele>382.57142857142856</ele><time>2026-04-16T14:19:58.265Z</time></trkpt><trkpt lat="43.8832638" lon="11.1273528"><ele>384.0</ele><time>2026-04-16T14:20:05.253Z</time></trkpt><trkpt lat="43.8833248" lon="11.1273003"><ele>383.1428571428571</ele><time>2026-04-16T14:20:11.26Z</time></trkpt><trkpt lat="43.8833859" lon="11.127254"><ele>382.2857142857143</ele><time>2026-04-16T14:20:17.268Z</time></trkpt><trkpt lat="43.8834501" lon="11.1272124"><ele>381.42857142857144</ele><time>2026-04-16T14:20:23.267Z</time></trkpt><trkpt lat="43.8834912" lon="11.127146"><ele>380.57142857142856</ele><time>2026-04-16T14:20:30.217Z</time></trkpt><trkpt lat="43.8835571" lon="11.1270974"><ele>379.7142857142857</ele><time>2026-04-16T14:20:36.261Z</time></trkpt><trkpt lat="43.8836226" lon="11.1270899"><ele>378.85714285714283</ele><time>2026-04-16T14:20:41.254Z</time></trkpt><trkpt lat="43.8836629" lon="11.1270221"><ele>378.0</ele><time>2026-04-16T14:20:48.256Z</time></trkpt><trkpt lat="43.8837319" lon="11.1269881"><ele>378.0</ele><time>2026-04-16T14:20:54.258Z</time></trkpt><trkpt lat="43.8837991" lon="11.1269672"><ele>378.0</ele><time>2026-04-16T14:21:00.258Z</time></trkpt><trkpt lat="43.8838573" lon="11.1269315"><ele>378.0</ele><time>2026-04-16T14:21:08.255Z</time></trkpt><trkpt lat="43.8839073" lon="11.126875"><ele>378.0</ele><time>2026-04-16T14:21:23.178Z</time></trkpt><trkpt lat="43.8839382" lon="11.1267857"><ele>378.0</ele><time>2026-04-16T14:21:31.257Z</time></trkpt><trkpt lat="43.883951" lon="11.1266954"><ele>378.0</ele><time>2026-04-16T14:21:42.259Z</time></trkpt><trkpt lat="43.8839525" lon="11.1265981"><ele>378.0</ele><time>2026-04-16T14:21:51.267Z</time></trkpt><trkpt lat="43.8839599" lon="11.1265104"><ele>377.2857142857143</ele><time>2026-04-16T14:21:59.272Z</time></trkpt><trkpt lat="43.8840172" lon="11.1264549"><ele>376.57142857142856</ele><time>2026-04-16T14:22:05.276Z</time></trkpt><trkpt lat="43.8840884" lon="11.1264267"><ele>375.8571428571429</ele><time>2026-04-16T14:22:06.266Z</time></trkpt><trkpt lat="43.8841451" lon="11.126367"><ele>375.1428571428571</ele><time>2026-04-16T14:22:11.235Z</time></trkpt><trkpt lat="43.8841913" lon="11.1263031"><ele>374.42857142857144</ele><time>2026-04-16T14:22:15.267Z</time></trkpt><trkpt lat="43.8842542" lon="11.1262582"><ele>373.7142857142857</ele><time>2026-04-16T14:22:22.279Z</time></trkpt><trkpt lat="43.8843107" lon="11.1261841"><ele>373.0</ele><time>2026-04-16T14:22:39.271Z</time></trkpt><trkpt lat="43.8843551" lon="11.1261141"><ele>373.0</ele><time>2026-04-16T14:22:42.267Z</time></trkpt><trkpt lat="43.884411" lon="11.1260634"><ele>373.0</ele><time>2026-04-16T14:22:48.266Z</time></trkpt><trkpt lat="43.8844615" lon="11.1260008"><ele>373.0</ele><time>2026-04-16T14:22:53.273Z</time></trkpt><trkpt lat="43.8845303" lon="11.1259779"><ele>373.0</ele><time>2026-04-16T14:23:00.271Z</time></trkpt><trkpt lat="43.8845934" lon="11.1259538"><ele>373.0</ele><time>2026-04-16T14:23:05.277Z</time></trkpt><trkpt lat="43.8846529" lon="11.1259222"><ele>373.0</ele><time>2026-04-16T14:23:11.274Z</time></trkpt><trkpt lat="43.8847253" lon="11.1258998"><ele>373.0</ele><time>2026-04-16T14:23:16.275Z</time></trkpt><trkpt lat="43.8847901" lon="11.1258724"><ele>373.0</ele><time>2026-04-16T14:23:23.264Z</time></trkpt><trkpt lat="43.8848459" lon="11.1258291"><ele>373.0</ele><time>2026-04-16T14:23:32.267Z</time></trkpt><trkpt lat="43.8849161" lon="11.1258514"><ele>373.0</ele><time>2026-04-16T14:23:38.16Z</time></trkpt><trkpt lat="43.8849865" lon="11.1258198"><ele>373.0</ele><time>2026-04-16T14:23:43.254Z</time></trkpt><trkpt lat="43.8850451" lon="11.1257769"><ele>373.0</ele><time>2026-04-16T14:23:49.266Z</time></trkpt><trkpt lat="43.8851146" lon="11.1257635"><ele>373.0</ele><time>2026-04-16T14:23:56.271Z</time></trkpt><trkpt lat="43.8851839" lon="11.1257529"><ele>373.0</ele><time>2026-04-16T14:24:03.263Z</time></trkpt><trkpt lat="43.8852531" lon="11.125781"><ele>373.8571428571429</ele><time>2026-04-16T14:24:08.181Z</time></trkpt><trkpt lat="43.8853256" lon="11.1257878"><ele>374.7142857142857</ele><time>2026-04-16T14:24:13.135Z</time></trkpt><trkpt lat="43.8853894" lon="11.1257938"><ele>375.57142857142856</ele><time>2026-04-16T14:24:22.253Z</time></trkpt><trkpt lat="43.8854572" lon="11.125798"><ele>376.42857142857144</ele><time>2026-04-16T14:24:36.266Z</time></trkpt><trkpt lat="43.8855203" lon="11.1257663"><ele>377.2857142857143</ele><time>2026-04-16T14:24:41.287Z</time></trkpt><trkpt lat="43.8855818" lon="11.1257462"><ele>378.14285714285717</ele><time>2026-04-16T14:24:46.262Z</time></trkpt><trkpt lat="43.8856395" lon="11.1257044"><ele>379.0</ele><time>2026-04-16T14:24:54.236Z</time></trkpt><trkpt lat="43.8856904" lon="11.1256407"><ele>376.14285714285717</ele><time>2026-04-16T14:25:01.268Z</time></trkpt><trkpt lat="43.8857516" lon="11.1256028"><ele>373.2857142857143</ele><time>2026-04-16T14:25:10.265Z</time></trkpt><trkpt lat="43.8857818" lon="11.1255207"><ele>370.42857142857144</ele><time>2026-04-16T14:25:18.272Z</time></trkpt><trkpt lat="43.8858241" lon="11.1254375"><ele>367.57142857142856</ele><time>2026-04-16T14:25:26.272Z</time></trkpt><trkpt lat="43.8858569" lon="11.1253572"><ele>364.7142857142857</ele><time>2026-04-16T14:25:33.266Z</time></trkpt><trkpt lat="43.8859128" lon="11.1253"><ele>361.8571428571429</ele><time>2026-04-16T14:25:39.265Z</time></trkpt><trkpt lat="43.885967" lon="11.125239"><ele>359.0</ele><time>2026-04-16T14:25:45.265Z</time></trkpt><trkpt lat="43.8860083" lon="11.1251674"><ele>359.0</ele><time>2026-04-16T14:25:54.263Z</time></trkpt><trkpt lat="43.8860603" lon="11.1251029"><ele>359.0</ele><time>2026-04-16T14:26:02.142Z</time></trkpt><trkpt lat="43.8861026" lon="11.1250271"><ele>359.0</ele><time>2026-04-16T14:26:10.266Z</time></trkpt><trkpt lat="43.8861262" lon="11.1249378"><ele>359.0</ele><time>2026-04-16T14:26:16.279Z</time></trkpt><trkpt lat="43.8861765" lon="11.1248704"><ele>359.0</ele><time>2026-04-16T14:26:21.266Z</time></trkpt><trkpt lat="43.8862343" lon="11.1248321"><ele>359.0</ele><time>2026-04-16T14:26:26.271Z</time></trkpt><trkpt lat="43.886295" lon="11.1247939"><ele>359.0</ele><time>2026-04-16T14:26:31.269Z</time></trkpt><trkpt lat="43.8863566" lon="11.1247281"><ele>357.14285714285717</ele><time>2026-04-16T14:26:37.264Z</time></trkpt><trkpt lat="43.8863979" lon="11.1246488"><ele>355.28571428571433</ele><time>2026-04-16T14:26:39.268Z</time></trkpt><trkpt lat="43.8864496" lon="11.1245834"><ele>353.42857142857144</ele><time>2026-04-16T14:26:43.267Z</time></trkpt><trkpt lat="43.886494" lon="11.1244931"><ele>351.57142857142856</ele><time>2026-04-16T14:26:48.158Z</time></trkpt><trkpt lat="43.886567" lon="11.1244913"><ele>349.7142857142857</ele><time>2026-04-16T14:27:01.275Z</time></trkpt><trkpt lat="43.8866389" lon="11.1245071"><ele>347.85714285714283</ele><time>2026-04-16T14:27:07.274Z</time></trkpt><trkpt lat="43.8867094" lon="11.1244977"><ele>346.0</ele><time>2026-04-16T14:27:13.271Z</time></trkpt><trkpt lat="43.8867864" lon="11.1244959"><ele>345.0</ele><time>2026-04-16T14:27:22.276Z</time></trkpt><trkpt lat="43.8868508" lon="11.1244882"><ele>344.0</ele><time>2026-04-16T14:27:28.27Z</time></trkpt><trkpt lat="43.8869133" lon="11.1244468"><ele>343.0</ele><time>2026-04-16T14:27:35.276Z</time></trkpt><trkpt lat="43.8869615" lon="11.1243862"><ele>342.0</ele><time>2026-04-16T14:27:41.277Z</time></trkpt><trkpt lat="43.8870254" lon="11.1243232"><ele>341.0</ele><time>2026-04-16T14:27:47.294Z</time></trkpt><trkpt lat="43.8870841" lon="11.1242823"><ele>340.0</ele><time>2026-04-16T14:27:53.18Z</time></trkpt><trkpt lat="43.8871475" lon="11.1242604"><ele>339.0</ele><time>2026-04-16T14:27:58.254Z</time></trkpt><trkpt lat="43.8872116" lon="11.1242851"><ele>339.0</ele><time>2026-04-16T14:28:02.258Z</time></trkpt><trkpt lat="43.8872817" lon="11.1243288"><ele>339.0</ele><time>2026-04-16T14:28:07.274Z</time></trkpt><trkpt lat="43.8873448" lon="11.1243791"><ele>339.0</ele><time>2026-04-16T14:28:12.178Z</time></trkpt><trkpt lat="43.8873921" lon="11.12444"><ele>339.0</ele><time>2026-04-16T14:28:19.267Z</time></trkpt><trkpt lat="43.8874168" lon="11.1245323"><ele>339.0</ele><time>2026-04-16T14:28:29.268Z</time></trkpt><trkpt lat="43.8873868" lon="11.1246186"><ele>339.0</ele><time>2026-04-16T14:28:38.267Z</time></trkpt><trkpt lat="43.8873787" lon="11.1247122"><ele>339.0</ele><time>2026-04-16T14:28:43.217Z</time></trkpt><trkpt lat="43.887378" lon="11.124812"><ele>339.7142857142857</ele><time>2026-04-16T14:28:48.274Z</time></trkpt><trkpt lat="43.8873663" lon="11.1249"><ele>340.42857142857144</ele><time>2026-04-16T14:28:53.273Z</time></trkpt><trkpt lat="43.8873579" lon="11.1249956"><ele>341.14285714285717</ele><time>2026-04-16T14:28:59.271Z</time></trkpt><trkpt lat="43.8873922" lon="11.1250821"><ele>341.8571428571429</ele><time>2026-04-16T14:29:04.273Z</time></trkpt><trkpt lat="43.8874019" lon="11.1251689"><ele>342.57142857142856</ele><time>2026-04-16T14:29:12.273Z</time></trkpt><trkpt lat="43.8874183" lon="11.1252544"><ele>343.28571428571433</ele><time>2026-04-16T14:29:18.269Z</time></trkpt><trkpt lat="43.887402" lon="11.1253411"><ele>344.0</ele><time>2026-04-16T14:29:30.267Z</time></trkpt><trkpt lat="43.8874021" lon="11.1254566"><ele>344.00000000000006</ele><time>2026-04-16T14:29:41.272Z</time></trkpt><trkpt lat="43.8874656" lon="11.125504"><ele>344.0</ele><time>2026-04-16T14:29:53.259Z</time></trkpt><trkpt lat="43.8874738" lon="11.1255982"><ele>344.0</ele><time>2026-04-16T14:30:00.273Z</time></trkpt><trkpt lat="43.8874984" lon="11.1256935"><ele>344.0</ele><time>2026-04-16T14:30:05.26Z</time></trkpt><trkpt lat="43.8875167" lon="11.1257937"><ele>344.0</ele><time>2026-04-16T14:30:11.257Z</time></trkpt><trkpt lat="43.8875294" lon="11.1258851"><ele>344.00000000000006</ele><time>2026-04-16T14:30:17.252Z</time></trkpt><trkpt lat="43.887535" lon="11.1259728"><ele>344.0</ele><time>2026-04-16T14:30:22.279Z</time></trkpt><trkpt lat="43.8875592" lon="11.1260568"><ele>344.14285714285717</ele><time>2026-04-16T14:30:27.255Z</time></trkpt><trkpt lat="43.8876056" lon="11.1261333"><ele>344.2857142857143</ele><time>2026-04-16T14:30:34.256Z</time></trkpt><trkpt lat="43.8876369" lon="11.1262131"><ele>344.42857142857144</ele><time>2026-04-16T14:30:39.221Z</time></trkpt><trkpt lat="43.8876679" lon="11.126124"><ele>344.57142857142856</ele><time>2026-04-16T14:31:04.263Z</time></trkpt><trkpt lat="43.8876969" lon="11.126036"><ele>344.7142857142857</ele><time>2026-04-16T14:31:10.263Z</time></trkpt><trkpt lat="43.887738" lon="11.1259636"><ele>344.8571428571429</ele><time>2026-04-16T14:31:16.264Z</time></trkpt><trkpt lat="43.8877888" lon="11.1258903"><ele>345.0</ele><time>2026-04-16T14:31:22.273Z</time></trkpt><trkpt lat="43.8878524" lon="11.1258593"><ele>345.0</ele><time>2026-04-16T14:31:29.263Z</time></trkpt><trkpt lat="43.8879117" lon="11.125799"><ele>345.0</ele><time>2026-04-16T14:31:36.258Z</time></trkpt><trkpt lat="43.8879594" lon="11.1257251"><ele>345.0</ele><time>2026-04-16T14:31:42.252Z</time></trkpt><trkpt lat="43.8880146" lon="11.1256569"><ele>345.0</ele><time>2026-04-16T14:31:48.268Z</time></trkpt><trkpt lat="43.8880711" lon="11.1256039"><ele>345.0</ele><time>2026-04-16T14:31:53.265Z</time></trkpt><trkpt lat="43.8881379" lon="11.125573"><ele>345.0</ele><time>2026-04-16T14:31:58.2Z</time></trkpt><trkpt lat="43.888211" lon="11.1255611"><ele>345.0</ele><time>2026-04-16T14:32:05.262Z</time></trkpt><trkpt lat="43.8882863" lon="11.1255607"><ele>343.0</ele><time>2026-04-16T14:32:11.265Z</time></trkpt><trkpt lat="43.888355" lon="11.125588"><ele>341.0</ele><time>2026-04-16T14:32:16.272Z</time></trkpt><trkpt lat="43.888416" lon="11.1256304"><ele>339.0</ele><time>2026-04-16T14:32:21.268Z</time></trkpt><trkpt lat="43.888481" lon="11.1256375"><ele>337.0</ele><time>2026-04-16T14:32:27.262Z</time></trkpt><trkpt lat="43.8885514" lon="11.1256571"><ele>335.0</ele><time>2026-04-16T14:32:32.264Z</time></trkpt><trkpt lat="43.8886216" lon="11.1256353"><ele>333.0</ele><time>2026-04-16T14:32:38.271Z</time></trkpt><trkpt lat="43.8886916" lon="11.1255999"><ele>331.0</ele><time>2026-04-16T14:32:44.268Z</time></trkpt><trkpt lat="43.8887534" lon="11.1255801"><ele>331.0</ele><time>2026-04-16T14:32:52.201Z</time></trkpt><trkpt lat="43.8888195" lon="11.1255947"><ele>331.0</ele><time>2026-04-16T14:32:57.177Z</time></trkpt><trkpt lat="43.8888839" lon="11.1255975"><ele>331.0</ele><time>2026-04-16T14:33:01.268Z</time></trkpt><trkpt lat="43.8889478" lon="11.1256016"><ele>331.0</ele><time>2026-04-16T14:33:05.264Z</time></trkpt><trkpt lat="43.8890144" lon="11.1255952"><ele>331.0</ele><time>2026-04-16T14:33:11.26Z</time></trkpt><trkpt lat="43.8890755" lon="11.1256296"><ele>331.0</ele><time>2026-04-16T14:33:19.177Z</time></trkpt><trkpt lat="43.8891371" lon="11.1256004"><ele>331.0</ele><time>2026-04-16T14:33:31.264Z</time></trkpt><trkpt lat="43.889204" lon="11.1255949"><ele>330.8571428571429</ele><time>2026-04-16T14:33:39.274Z</time></trkpt><trkpt lat="43.8892741" lon="11.1256182"><ele>330.7142857142857</ele><time>2026-04-16T14:33:43.241Z</time></trkpt><trkpt lat="43.889334" lon="11.1256657"><ele>330.57142857142856</ele><time>2026-04-16T14:33:49.236Z</time></trkpt><trkpt lat="43.8894047" lon="11.1256679"><ele>330.42857142857144</ele><time>2026-04-16T14:33:54.276Z</time></trkpt><trkpt lat="43.8894709" lon="11.1256557"><ele>330.2857142857143</ele><time>2026-04-16T14:33:59.237Z</time></trkpt><trkpt lat="43.8895386" lon="11.1256681"><ele>330.14285714285717</ele><time>2026-04-16T14:34:05.274Z</time></trkpt><trkpt lat="43.8896091" lon="11.1257051"><ele>330.0</ele><time>2026-04-16T14:34:12.267Z</time></trkpt><trkpt lat="43.8896779" lon="11.1257339"><ele>333.28571428571433</ele><time>2026-04-16T14:34:18.263Z</time></trkpt><trkpt lat="43.8897465" lon="11.1257723"><ele>336.57142857142856</ele><time>2026-04-16T14:34:24.258Z</time></trkpt><trkpt lat="43.8898081" lon="11.1258165"><ele>339.8571428571429</ele><time>2026-04-16T14:34:30.263Z</time></trkpt><trkpt lat="43.8898571" lon="11.1258919"><ele>343.14285714285717</ele><time>2026-04-16T14:34:36.262Z</time></trkpt><trkpt lat="43.8899186" lon="11.1259545"><ele>346.42857142857144</ele><time>2026-04-16T14:34:42.255Z</time></trkpt><trkpt lat="43.8899686" lon="11.1260101"><ele>349.7142857142857</ele><time>2026-04-16T14:34:47.215Z</time></trkpt><trkpt lat="43.8899997" lon="11.1260914"><ele>353.0</ele><time>2026-04-16T14:34:52.268Z</time></trkpt><trkpt lat="43.890031" lon="11.1261762"><ele>353.0</ele><time>2026-04-16T14:34:58.258Z</time></trkpt><trkpt lat="43.8900837" lon="11.1262281"><ele>353.0</ele><time>2026-04-16T14:35:05.2Z</time></trkpt><trkpt lat="43.8901428" lon="11.1262727"><ele>353.0</ele><time>2026-04-16T14:35:14.257Z</time></trkpt><trkpt lat="43.8902098" lon="11.1262758"><ele>353.0</ele><time>2026-04-16T14:35:22.26Z</time></trkpt><trkpt lat="43.890274" lon="11.1263178"><ele>353.0</ele><time>2026-04-16T14:35:27.242Z</time></trkpt><trkpt lat="43.8903296" lon="11.1263678"><ele>353.0</ele><time>2026-04-16T14:35:32.197Z</time></trkpt><trkpt lat="43.8903937" lon="11.1264225"><ele>353.0</ele><time>2026-04-16T14:35:39.255Z</time></trkpt><trkpt lat="43.8904377" lon="11.1264869"><ele>353.85714285714283</ele><time>2026-04-16T14:35:43.259Z</time></trkpt><trkpt lat="43.8905051" lon="11.1265173"><ele>354.7142857142857</ele><time>2026-04-16T14:35:50.256Z</time></trkpt><trkpt lat="43.8905787" lon="11.1265135"><ele>355.57142857142856</ele><time>2026-04-16T14:35:56.265Z</time></trkpt><trkpt lat="43.8906406" lon="11.1265371"><ele>356.42857142857144</ele><time>2026-04-16T14:36:01.26Z</time></trkpt><trkpt lat="43.8907066" lon="11.1265643"><ele>357.28571428571433</ele><time>2026-04-16T14:36:06.26Z</time></trkpt><trkpt lat="43.8907683" lon="11.1266191"><ele>358.14285714285717</ele><time>2026-04-16T14:36:11.256Z</time></trkpt><trkpt lat="43.8908221" lon="11.1266773"><ele>359.0</ele><time>2026-04-16T14:36:17.263Z</time></trkpt><trkpt lat="43.8908592" lon="11.1267501"><ele>359.0</ele><time>2026-04-16T14:36:23.255Z</time></trkpt><trkpt lat="43.89091" lon="11.1268206"><ele>359.0</ele><time>2026-04-16T14:36:31.259Z</time></trkpt><trkpt lat="43.8909403" lon="11.1269096"><ele>359.0</ele><time>2026-04-16T14:36:37.259Z</time></trkpt><trkpt lat="43.8909511" lon="11.1270088"><ele>359.0</ele><time>2026-04-16T14:36:47.265Z</time></trkpt><trkpt lat="43.8909905" lon="11.127078"><ele>359.0</ele><time>2026-04-16T14:37:16.265Z</time></trkpt><trkpt lat="43.8909506" lon="11.1271491"><ele>359.0</ele><time>2026-04-16T14:37:25.262Z</time></trkpt><trkpt lat="43.8910004" lon="11.127213"><ele>359.0</ele><time>2026-04-16T14:37:45.261Z</time></trkpt><trkpt lat="43.8910454" lon="11.1272941"><ele>359.42857142857144</ele><time>2026-04-16T14:37:51.257Z</time></trkpt><trkpt lat="43.8910587" lon="11.1273819"><ele>359.8571428571429</ele><time>2026-04-16T14:37:58.263Z</time></trkpt><trkpt lat="43.8910655" lon="11.1274707"><ele>360.2857142857143</ele><time>2026-04-16T14:38:10.255Z</time></trkpt><trkpt lat="43.8911122" lon="11.1275305"><ele>360.7142857142857</ele><time>2026-04-16T14:38:20.26Z</time></trkpt><trkpt lat="43.8911651" lon="11.1275869"><ele>361.1428571428571</ele><time>2026-04-16T14:38:31.264Z</time></trkpt><trkpt lat="43.8912236" lon="11.1275448"><ele>361.57142857142856</ele><time>2026-04-16T14:38:38.268Z</time></trkpt><trkpt lat="43.8912854" lon="11.1275065"><ele>362.0</ele><time>2026-04-16T14:38:52.267Z</time></trkpt><trkpt lat="43.8913488" lon="11.1274979"><ele>362.0</ele><time>2026-04-16T14:38:59.219Z</time></trkpt><trkpt lat="43.8914023" lon="11.1274463"><ele>362.0</ele><time>2026-04-16T14:39:04.261Z</time></trkpt><trkpt lat="43.8914667" lon="11.1274515"><ele>362.0</ele><time>2026-04-16T14:39:12.267Z</time></trkpt><trkpt lat="43.89153" lon="11.1274503"><ele>362.0</ele><time>2026-04-16T14:39:22.258Z</time></trkpt><trkpt lat="43.8915922" lon="11.127435"><ele>362.0</ele><time>2026-04-16T14:39:28.259Z</time></trkpt><trkpt lat="43.8916578" lon="11.1274139"><ele>362.0</ele><time>2026-04-16T14:39:32.202Z</time></trkpt><trkpt lat="43.8917109" lon="11.1273612"><ele>362.0</ele><time>2026-04-16T14:39:38.243Z</time></trkpt><trkpt lat="43.8917834" lon="11.1273842"><ele>365.57142857142856</ele><time>2026-04-16T14:39:45.229Z</time></trkpt><trkpt lat="43.8918478" lon="11.1273738"><ele>369.1428571428571</ele><time>2026-04-16T14:39:52.243Z</time></trkpt><trkpt lat="43.8918963" lon="11.1273138"><ele>372.7142857142857</ele><time>2026-04-16T14:40:03.248Z</time></trkpt><trkpt lat="43.8919293" lon="11.1272343"><ele>376.2857142857143</ele><time>2026-04-16T14:40:12.258Z</time></trkpt><trkpt lat="43.8919784" lon="11.1271738"><ele>379.8571428571429</ele><time>2026-04-16T14:40:19.256Z</time></trkpt><trkpt lat="43.8920331" lon="11.1271042"><ele>383.42857142857144</ele><time>2026-04-16T14:40:26.26Z</time></trkpt><trkpt lat="43.8920867" lon="11.1270456"><ele>387.0</ele><time>2026-04-16T14:40:32.257Z</time></trkpt><trkpt lat="43.8921331" lon="11.1269817"><ele>387.0</ele><time>2026-04-16T14:40:41.266Z</time></trkpt><trkpt lat="43.8921852" lon="11.1269248"><ele>387.0</ele><time>2026-04-16T14:40:49.246Z</time></trkpt><trkpt lat="43.8922365" lon="11.1268588"><ele>387.0</ele><time>2026-04-16T14:40:59.254Z</time></trkpt><trkpt lat="43.892275" lon="11.1267776"><ele>387.0</ele><time>2026-04-16T14:41:05.872Z</time></trkpt><trkpt lat="43.8923186" lon="11.1267029"><ele>387.0</ele><time>2026-04-16T14:41:10.25Z</time></trkpt><trkpt lat="43.8923657" lon="11.126628"><ele>387.0</ele><time>2026-04-16T14:41:14.256Z</time></trkpt><trkpt lat="43.8924062" lon="11.1265604"><ele>387.0</ele><time>2026-04-16T14:41:18.255Z</time></trkpt><trkpt lat="43.892453" lon="11.1264975"><ele>388.42857142857144</ele><time>2026-04-16T14:41:23.254Z</time></trkpt><trkpt lat="43.8924924" lon="11.1264241"><ele>389.8571428571429</ele><time>2026-04-16T14:41:28.248Z</time></trkpt><trkpt lat="43.8925459" lon="11.1263624"><ele>391.2857142857143</ele><time>2026-04-16T14:41:33.251Z</time></trkpt><trkpt lat="43.8925954" lon="11.1262949"><ele>392.7142857142857</ele><time>2026-04-16T14:41:38.247Z</time></trkpt><trkpt lat="43.8926464" lon="11.126221"><ele>394.1428571428571</ele><time>2026-04-16T14:41:44.247Z</time></trkpt><trkpt lat="43.8927004" lon="11.1261679"><ele>395.57142857142856</ele><time>2026-04-16T14:41:51.255Z</time></trkpt><trkpt lat="43.8927632" lon="11.1261313"><ele>397.0</ele><time>2026-04-16T14:41:56.983Z</time></trkpt><trkpt lat="43.8928224" lon="11.1260751"><ele>397.0</ele><time>2026-04-16T14:42:03.245Z</time></trkpt><trkpt lat="43.8928813" lon="11.1260262"><ele>397.0</ele><time>2026-04-16T14:42:10.235Z</time></trkpt><trkpt lat="43.8929228" lon="11.1259452"><ele>397.0</ele><time>2026-04-16T14:42:18.249Z</time></trkpt><trkpt lat="43.8929759" lon="11.1258817"><ele>397.0</ele><time>2026-04-16T14:42:24.259Z</time></trkpt><trkpt lat="43.8930364" lon="11.1258477"><ele>397.0</ele><time>2026-04-16T14:42:30.246Z</time></trkpt><trkpt lat="43.8931007" lon="11.1258046"><ele>397.0</ele><time>2026-04-16T14:42:37.223Z</time></trkpt><trkpt lat="43.8931618" lon="11.1257749"><ele>397.0</ele><time>2026-04-16T14:42:45.258Z</time></trkpt><trkpt lat="43.8932309" lon="11.1257487"><ele>396.1428571428571</ele><time>2026-04-16T14:42:52.262Z</time></trkpt><trkpt lat="43.8932913" lon="11.1257102"><ele>395.2857142857143</ele><time>2026-04-16T14:42:59.262Z</time></trkpt><trkpt lat="43.8933435" lon="11.1256585"><ele>394.42857142857144</ele><time>2026-04-16T14:43:04.179Z</time></trkpt><trkpt lat="43.8933981" lon="11.1256104"><ele>393.57142857142856</ele><time>2026-04-16T14:43:09.26Z</time></trkpt><trkpt lat="43.8934521" lon="11.1255612"><ele>392.7142857142857</ele><time>2026-04-16T14:43:14.262Z</time></trkpt><trkpt lat="43.893514" lon="11.1255049"><ele>391.85714285714283</ele><time>2026-04-16T14:43:19.259Z</time></trkpt><trkpt lat="43.8935772" lon="11.1254755"><ele>391.0</ele><time>2026-04-16T14:43:24.265Z</time></trkpt><trkpt lat="43.8936415" lon="11.1254746"><ele>390.99999999999994</ele><time>2026-04-16T14:43:29.263Z</time></trkpt><trkpt lat="43.8937071" lon="11.1254815"><ele>391.0</ele><time>2026-04-16T14:43:34.274Z</time></trkpt><trkpt lat="43.8937777" lon="11.1255019"><ele>391.0</ele><time>2026-04-16T14:43:39.182Z</time></trkpt><trkpt lat="43.8938478" lon="11.1255065"><ele>391.0</ele><time>2026-04-16T14:43:44.269Z</time></trkpt><trkpt lat="43.8939158" lon="11.1254907"><ele>391.0</ele><time>2026-04-16T14:43:50.269Z</time></trkpt><trkpt lat="43.8939835" lon="11.1255304"><ele>390.99999999999994</ele><time>2026-04-16T14:43:56.198Z</time></trkpt><trkpt lat="43.8940371" lon="11.1255879"><ele>391.0</ele><time>2026-04-16T14:44:01.26Z</time></trkpt><trkpt lat="43.8941019" lon="11.1256297"><ele>390.99999999999994</ele><time>2026-04-16T14:44:06.259Z</time></trkpt><trkpt lat="43.8941634" lon="11.1256491"><ele>391.0</ele><time>2026-04-16T14:44:13.262Z</time></trkpt><trkpt lat="43.8942262" lon="11.1256709"><ele>391.0</ele><time>2026-04-16T14:44:19.241Z</time></trkpt><trkpt lat="43.8943075" lon="11.1256825"><ele>391.0</ele><time>2026-04-16T14:44:31.263Z</time></trkpt><trkpt lat="43.8943543" lon="11.1257453"><ele>391.0</ele><time>2026-04-16T14:44:43.263Z</time></trkpt><trkpt lat="43.8943669" lon="11.1258366"><ele>390.99999999999994</ele><time>2026-04-16T14:44:50.264Z</time></trkpt><trkpt lat="43.8944309" lon="11.1258265"><ele>391.0</ele><time>2026-04-16T14:45:18.251Z</time></trkpt><trkpt lat="43.8944972" lon="11.125854"><ele>391.71428571428567</ele><time>2026-04-16T14:45:23.247Z</time></trkpt><trkpt lat="43.894555" lon="11.1258947"><ele>392.42857142857144</ele><time>2026-04-16T14:45:28.239Z</time></trkpt><trkpt lat="43.8946115" lon="11.125934"><ele>393.1428571428571</ele><time>2026-04-16T14:45:33.238Z</time></trkpt><trkpt lat="43.8946708" lon="11.1259648"><ele>393.85714285714283</ele><time>2026-04-16T14:45:40.242Z</time></trkpt><trkpt lat="43.894712" lon="11.1260422"><ele>394.57142857142856</ele><time>2026-04-16T14:45:47.237Z</time></trkpt><trkpt lat="43.8947774" lon="11.126092"><ele>395.2857142857143</ele><time>2026-04-16T14:45:53.233Z</time></trkpt><trkpt lat="43.8948429" lon="11.1261238"><ele>396.0</ele><time>2026-04-16T14:45:58.243Z</time></trkpt><trkpt lat="43.8949084" lon="11.1261452"><ele>396.0</ele><time>2026-04-16T14:46:04.192Z</time></trkpt><trkpt lat="43.8949557" lon="11.1262205"><ele>396.0</ele><time>2026-04-16T14:46:11.239Z</time></trkpt><trkpt lat="43.8950149" lon="11.1262713"><ele>396.0</ele><time>2026-04-16T14:46:16.244Z</time></trkpt><trkpt lat="43.8950674" lon="11.1263294"><ele>396.0</ele><time>2026-04-16T14:46:21.161Z</time></trkpt><trkpt lat="43.8951082" lon="11.1263987"><ele>396.0</ele><time>2026-04-16T14:46:26.242Z</time></trkpt><trkpt lat="43.8951518" lon="11.1264698"><ele>396.0</ele><time>2026-04-16T14:46:32.236Z</time></trkpt><trkpt lat="43.8951969" lon="11.126535"><ele>396.0</ele><time>2026-04-16T14:46:43.241Z</time></trkpt><trkpt lat="43.8952468" lon="11.1265924"><ele>396.7142857142857</ele><time>2026-04-16T14:46:49.234Z</time></trkpt><trkpt lat="43.8952989" lon="11.1266572"><ele>397.4285714285714</ele><time>2026-04-16T14:46:56.242Z</time></trkpt><trkpt lat="43.895358" lon="11.1267053"><ele>398.1428571428571</ele><time>2026-04-16T14:47:03.241Z</time></trkpt><trkpt lat="43.8954235" lon="11.1267279"><ele>398.8571428571429</ele><time>2026-04-16T14:47:09.238Z</time></trkpt><trkpt lat="43.8954917" lon="11.1267587"><ele>399.57142857142856</ele><time>2026-04-16T14:47:15.213Z</time></trkpt><trkpt lat="43.8955631" lon="11.1267924"><ele>400.2857142857143</ele><time>2026-04-16T14:47:21.23Z</time></trkpt><trkpt lat="43.8956119" lon="11.1268589"><ele>401.0</ele><time>2026-04-16T14:47:26.234Z</time></trkpt><trkpt lat="43.8956628" lon="11.1269298"><ele>401.0</ele><time>2026-04-16T14:47:33.232Z</time></trkpt><trkpt lat="43.8957308" lon="11.1269704"><ele>401.0</ele><time>2026-04-16T14:47:39.176Z</time></trkpt><trkpt lat="43.8957968" lon="11.1270079"><ele>401.0</ele><time>2026-04-16T14:47:45.229Z</time></trkpt><trkpt lat="43.8958579" lon="11.1270483"><ele>401.0</ele><time>2026-04-16T14:47:52.237Z</time></trkpt><trkpt lat="43.8959181" lon="11.1270784"><ele>401.0</ele><time>2026-04-16T14:47:57.174Z</time></trkpt><trkpt lat="43.8959853" lon="11.1271123"><ele>401.0</ele><time>2026-04-16T14:48:02.238Z</time></trkpt><trkpt lat="43.8960509" lon="11.1271403"><ele>401.0</ele><time>2026-04-16T14:48:08.238Z</time></trkpt><trkpt lat="43.8961174" lon="11.1271654"><ele>399.8571428571429</ele><time>2026-04-16T14:48:13.233Z</time></trkpt><trkpt lat="43.8961803" lon="11.1272037"><ele>398.7142857142857</ele><time>2026-04-16T14:48:19.232Z</time></trkpt><trkpt lat="43.896249" lon="11.1272347"><ele>397.57142857142856</ele><time>2026-04-16T14:48:27.174Z</time></trkpt><trkpt lat="43.8963176" lon="11.1272505"><ele>396.42857142857144</ele><time>2026-04-16T14:48:32.235Z</time></trkpt><trkpt lat="43.8963874" lon="11.1272502"><ele>395.2857142857143</ele><time>2026-04-16T14:48:36.236Z</time></trkpt><trkpt lat="43.896452" lon="11.1272616"><ele>394.14285714285717</ele><time>2026-04-16T14:48:41.237Z</time></trkpt><trkpt lat="43.8965268" lon="11.1272917"><ele>393.0</ele><time>2026-04-16T14:48:47.235Z</time></trkpt><trkpt lat="43.8965842" lon="11.1273284"><ele>393.00000000000006</ele><time>2026-04-16T14:48:52.244Z</time></trkpt><trkpt lat="43.8966392" lon="11.1273744"><ele>393.0</ele><time>2026-04-16T14:48:57.242Z</time></trkpt><trkpt lat="43.8967042" lon="11.1274152"><ele>393.0</ele><time>2026-04-16T14:49:04.234Z</time></trkpt><trkpt lat="43.8967674" lon="11.1274595"><ele>393.0</ele><time>2026-04-16T14:49:12.158Z</time></trkpt><trkpt lat="43.8968254" lon="11.1275216"><ele>393.0</ele><time>2026-04-16T14:49:18.234Z</time></trkpt><trkpt lat="43.8968746" lon="11.127597"><ele>393.00000000000006</ele><time>2026-04-16T14:49:23.235Z</time></trkpt><trkpt lat="43.8969335" lon="11.1276437"><ele>393.0</ele><time>2026-04-16T14:49:31.238Z</time></trkpt><trkpt lat="43.897005" lon="11.1276463"><ele>395.42857142857144</ele><time>2026-04-16T14:49:40.234Z</time></trkpt><trkpt lat="43.8970761" lon="11.1276619"><ele>397.8571428571429</ele><time>2026-04-16T14:49:46.236Z</time></trkpt><trkpt lat="43.8971428" lon="11.1276656"><ele>400.28571428571433</ele><time>2026-04-16T14:49:51.236Z</time></trkpt><trkpt lat="43.8972112" lon="11.1276883"><ele>402.7142857142857</ele><time>2026-04-16T14:50:01.235Z</time></trkpt><trkpt lat="43.8972828" lon="11.1277059"><ele>405.1428571428571</ele><time>2026-04-16T14:50:06.235Z</time></trkpt><trkpt lat="43.8973575" lon="11.1277316"><ele>407.5714285714286</ele><time>2026-04-16T14:50:12.236Z</time></trkpt><trkpt lat="43.8974255" lon="11.1277693"><ele>410.0</ele><time>2026-04-16T14:50:17.237Z</time></trkpt><trkpt lat="43.8974944" lon="11.1278119"><ele>410.0</ele><time>2026-04-16T14:50:23.243Z</time></trkpt><trkpt lat="43.8975608" lon="11.1278454"><ele>410.0</ele><time>2026-04-16T14:50:29.274Z</time></trkpt><trkpt lat="43.8976346" lon="11.1279622"><ele>410.0</ele><time>2026-04-16T14:50:37.243Z</time></trkpt><trkpt lat="43.8976712" lon="11.1280444"><ele>410.0</ele><time>2026-04-16T14:50:40.239Z</time></trkpt><trkpt lat="43.8977193" lon="11.128106"><ele>410.0</ele><time>2026-04-16T14:50:44.23Z</time></trkpt><trkpt lat="43.8977826" lon="11.1281325"><ele>410.0</ele><time>2026-04-16T14:50:49.228Z</time></trkpt><trkpt lat="43.8978348" lon="11.1281839"><ele>410.0</ele><time>2026-04-16T14:50:54.237Z</time></trkpt><trkpt lat="43.8978632" lon="11.1282649"><ele>411.5714285714286</ele><time>2026-04-16T14:51:03.24Z</time></trkpt><trkpt lat="43.8979321" lon="11.1282418"><ele>413.1428571428571</ele><time>2026-04-16T14:51:10.232Z</time></trkpt><trkpt lat="43.8980061" lon="11.1282566"><ele>414.7142857142857</ele><time>2026-04-16T14:51:18.24Z</time></trkpt><trkpt lat="43.8980652" lon="11.1283087"><ele>416.28571428571433</ele><time>2026-04-16T14:51:24.239Z</time></trkpt><trkpt lat="43.898121" lon="11.1283581"><ele>417.8571428571429</ele><time>2026-04-16T14:51:31.236Z</time></trkpt><trkpt lat="43.8981882" lon="11.1283398"><ele>419.42857142857144</ele><time>2026-04-16T14:51:37.242Z</time></trkpt><trkpt lat="43.8982519" lon="11.1283591"><ele>421.0</ele><time>2026-04-16T14:51:42.236Z</time></trkpt><trkpt lat="43.8983194" lon="11.1283871"><ele>421.00000000000006</ele><time>2026-04-16T14:51:47.16Z</time></trkpt><trkpt lat="43.898381" lon="11.128428"><ele>421.0</ele><time>2026-04-16T14:51:51.239Z</time></trkpt><trkpt lat="43.898439" lon="11.1284732"><ele>421.0</ele><time>2026-04-16T14:51:55.156Z</time></trkpt><trkpt lat="43.8984996" lon="11.1285245"><ele>421.0</ele><time>2026-04-16T14:52:02.232Z</time></trkpt><trkpt lat="43.8985537" lon="11.1285742"><ele>421.0</ele><time>2026-04-16T14:52:07.234Z</time></trkpt><trkpt lat="43.8986141" lon="11.128604"><ele>421.00000000000006</ele><time>2026-04-16T14:52:16.242Z</time></trkpt><trkpt lat="43.8986845" lon="11.1286293"><ele>421.0</ele><time>2026-04-16T14:52:25.231Z</time></trkpt><trkpt lat="43.8987569" lon="11.1286392"><ele>419.7142857142857</ele><time>2026-04-16T14:52:31.233Z</time></trkpt><trkpt lat="43.8988303" lon="11.1286464"><ele>418.42857142857144</ele><time>2026-04-16T14:52:36.227Z</time></trkpt><trkpt lat="43.8989093" lon="11.1286564"><ele>417.1428571428571</ele><time>2026-04-16T14:52:41.232Z</time></trkpt><trkpt lat="43.898976" lon="11.1286571"><ele>415.8571428571429</ele><time>2026-04-16T14:52:46.196Z</time></trkpt><trkpt lat="43.8990393" lon="11.1286797"><ele>414.57142857142856</ele><time>2026-04-16T14:52:50.202Z</time></trkpt><trkpt lat="43.8991004" lon="11.1287074"><ele>413.2857142857143</ele><time>2026-04-16T14:52:55.246Z</time></trkpt><trkpt lat="43.8991583" lon="11.1287653"><ele>412.0</ele><time>2026-04-16T14:53:01.234Z</time></trkpt><trkpt lat="43.8992207" lon="11.1288011"><ele>411.85714285714283</ele><time>2026-04-16T14:53:08.233Z</time></trkpt><trkpt lat="43.8992869" lon="11.1288151"><ele>411.7142857142857</ele><time>2026-04-16T14:53:16.23Z</time></trkpt><trkpt lat="43.8993607" lon="11.1288119"><ele>411.57142857142856</ele><time>2026-04-16T14:53:22.242Z</time></trkpt><trkpt lat="43.8994311" lon="11.1288182"><ele>411.42857142857144</ele><time>2026-04-16T14:53:28.234Z</time></trkpt><trkpt lat="43.8994985" lon="11.1288429"><ele>411.2857142857143</ele><time>2026-04-16T14:53:34.251Z</time></trkpt><trkpt lat="43.8995597" lon="11.1288769"><ele>411.1428571428571</ele><time>2026-04-16T14:53:39.234Z</time></trkpt><trkpt lat="43.8996188" lon="11.1289252"><ele>411.0</ele><time>2026-04-16T14:53:45.234Z</time></trkpt><trkpt lat="43.8996692" lon="11.1289842"><ele>411.0</ele><time>2026-04-16T14:53:52.235Z</time></trkpt><trkpt lat="43.899735" lon="11.1290314"><ele>411.0</ele><time>2026-04-16T14:54:00.23Z</time></trkpt><trkpt lat="43.8997999" lon="11.129056"><ele>411.0</ele><time>2026-04-16T14:54:06.195Z</time></trkpt><trkpt lat="43.8998643" lon="11.1290628"><ele>411.0</ele><time>2026-04-16T14:54:12.161Z</time></trkpt><trkpt lat="43.8999202" lon="11.1291049"><ele>411.0</ele><time>2026-04-16T14:54:17.194Z</time></trkpt><trkpt lat="43.8999751" lon="11.1291493"><ele>411.0</ele><time>2026-04-16T14:54:24.233Z</time></trkpt><trkpt lat="43.9000429" lon="11.1291838"><ele>411.0</ele><time>2026-04-16T14:54:30.177Z</time></trkpt><trkpt lat="43.9001127" lon="11.1291951"><ele>412.7142857142857</ele><time>2026-04-16T14:54:37.231Z</time></trkpt><trkpt lat="43.9001851" lon="11.1292122"><ele>414.42857142857144</ele><time>2026-04-16T14:54:43.235Z</time></trkpt><trkpt lat="43.9002521" lon="11.1292437"><ele>416.1428571428571</ele><time>2026-04-16T14:54:49.196Z</time></trkpt><trkpt lat="43.9003056" lon="11.1293108"><ele>417.8571428571429</ele><time>2026-04-16T14:54:54.162Z</time></trkpt><trkpt lat="43.9003624" lon="11.1293691"><ele>419.5714285714286</ele><time>2026-04-16T14:55:01.179Z</time></trkpt><trkpt lat="43.9004248" lon="11.1294134"><ele>421.2857142857143</ele><time>2026-04-16T14:55:07.254Z</time></trkpt><trkpt lat="43.9004694" lon="11.129486"><ele>423.0</ele><time>2026-04-16T14:55:14.238Z</time></trkpt><trkpt lat="43.9005291" lon="11.1295398"><ele>423.0</ele><time>2026-04-16T14:55:21.244Z</time></trkpt><trkpt lat="43.9005847" lon="11.1296078"><ele>423.0</ele><time>2026-04-16T14:55:28.237Z</time></trkpt><trkpt lat="43.9006262" lon="11.1296871"><ele>423.0</ele><time>2026-04-16T14:55:34.236Z</time></trkpt><trkpt lat="43.900664" lon="11.1297612"><ele>423.0</ele><time>2026-04-16T14:55:42.228Z</time></trkpt><trkpt lat="43.9007023" lon="11.1298414"><ele>423.0</ele><time>2026-04-16T14:55:49.23Z</time></trkpt><trkpt lat="43.9007453" lon="11.1299134"><ele>423.0</ele><time>2026-04-16T14:55:54.232Z</time></trkpt><trkpt lat="43.9007986" lon="11.1299849"><ele>423.0</ele><time>2026-04-16T14:56:01.229Z</time></trkpt><trkpt lat="43.9008365" lon="11.1300607"><ele>422.85714285714283</ele><time>2026-04-16T14:56:08.228Z</time></trkpt><trkpt lat="43.9008713" lon="11.1301454"><ele>422.7142857142857</ele><time>2026-04-16T14:56:14.232Z</time></trkpt><trkpt lat="43.9009012" lon="11.1302252"><ele>422.57142857142856</ele><time>2026-04-16T14:56:21.157Z</time></trkpt><trkpt lat="43.9009407" lon="11.1303028"><ele>422.42857142857144</ele><time>2026-04-16T14:56:28.239Z</time></trkpt><trkpt lat="43.9009933" lon="11.1303596"><ele>422.28571428571433</ele><time>2026-04-16T14:56:35.226Z</time></trkpt><trkpt lat="43.90104" lon="11.1304642"><ele>422.14285714285717</ele><time>2026-04-16T14:56:44.231Z</time></trkpt><trkpt lat="43.9010353" lon="11.1305623"><ele>422.0</ele><time>2026-04-16T14:56:46.231Z</time></trkpt><trkpt lat="43.9010785" lon="11.1306434"><ele>422.0</ele><time>2026-04-16T14:56:58.232Z</time></trkpt><trkpt lat="43.90112" lon="11.1307197"><ele>422.0</ele><time>2026-04-16T14:57:04.228Z</time></trkpt><trkpt lat="43.9011264" lon="11.1308079"><ele>422.0</ele><time>2026-04-16T14:57:10.23Z</time></trkpt><trkpt lat="43.9011679" lon="11.1308872"><ele>422.0</ele><time>2026-04-16T14:57:38.14Z</time></trkpt><trkpt lat="43.9012157" lon="11.1309627"><ele>422.0</ele><time>2026-04-16T14:57:47.229Z</time></trkpt><trkpt lat="43.9012754" lon="11.1310179"><ele>422.0</ele><time>2026-04-16T14:57:54.229Z</time></trkpt><trkpt lat="43.9013019" lon="11.1311002"><ele>422.0</ele><time>2026-04-16T14:57:58.235Z</time></trkpt><trkpt lat="43.901321" lon="11.1311858"><ele>425.49999999999994</ele><time>2026-04-16T14:58:03.227Z</time></trkpt><trkpt lat="43.9013642" lon="11.1312548"><ele>429.0</ele><time>2026-04-16T14:58:11.134Z</time></trkpt><trkpt lat="43.9014242" lon="11.1312825"><ele>432.5</ele><time>2026-04-16T14:58:30.24Z</time></trkpt><trkpt lat="43.9014918" lon="11.1312788"><ele>436.0</ele><time>2026-04-16T14:58:41.236Z</time></trkpt><trkpt lat="43.9015932" lon="11.1313766"><ele>439.49999999999994</ele><time>2026-04-16T14:58:55.238Z</time></trkpt><trkpt lat="43.9016536" lon="11.131425"><ele>443.0</ele><time>2026-04-16T14:59:01.244Z</time></trkpt><trkpt lat="43.901715" lon="11.1314593"><ele>442.42857142857144</ele><time>2026-04-16T14:59:08.243Z</time></trkpt><trkpt lat="43.9017827" lon="11.1314812"><ele>441.8571428571429</ele><time>2026-04-16T14:59:18.238Z</time></trkpt><trkpt lat="43.9018375" lon="11.1315398"><ele>441.2857142857143</ele><time>2026-04-16T14:59:24.247Z</time></trkpt><trkpt lat="43.9019042" lon="11.131557"><ele>440.7142857142857</ele><time>2026-04-16T14:59:32.251Z</time></trkpt><trkpt lat="43.9019615" lon="11.1316075"><ele>440.1428571428571</ele><time>2026-04-16T14:59:40.255Z</time></trkpt><trkpt lat="43.9020189" lon="11.1316639"><ele>439.57142857142856</ele><time>2026-04-16T14:59:48.252Z</time></trkpt><trkpt lat="43.902067" lon="11.1317233"><ele>439.0</ele><time>2026-04-16T14:59:58.237Z</time></trkpt><trkpt lat="43.9021262" lon="11.1317535"><ele>443.1428571428571</ele><time>2026-04-16T15:00:06.156Z</time></trkpt><trkpt lat="43.9021902" lon="11.1317821"><ele>447.2857142857143</ele><time>2026-04-16T15:00:14.235Z</time></trkpt><trkpt lat="43.9022676" lon="11.1317611"><ele>451.42857142857144</ele><time>2026-04-16T15:00:39.234Z</time></trkpt><trkpt lat="43.9022154" lon="11.1318164"><ele>455.57142857142856</ele><time>2026-04-16T15:08:26.25Z</time></trkpt><trkpt lat="43.9021547" lon="11.1318592"><ele>459.7142857142858</ele><time>2026-04-16T15:08:33.237Z</time></trkpt><trkpt lat="43.9020998" lon="11.131914"><ele>463.8571428571429</ele><time>2026-04-16T15:08:40.254Z</time></trkpt><trkpt lat="43.9020556" lon="11.1319818"><ele>468.0</ele><time>2026-04-16T15:08:49.246Z</time></trkpt><trkpt lat="43.902082" lon="11.1320617"><ele>468.0</ele><time>2026-04-16T15:08:57.246Z</time></trkpt><trkpt lat="43.9020357" lon="11.132123"><ele>468.00000000000006</ele><time>2026-04-16T15:09:09.235Z</time></trkpt><trkpt lat="43.9019743" lon="11.1321514"><ele>468.0</ele><time>2026-04-16T15:09:26.262Z</time></trkpt><trkpt lat="43.9019125" lon="11.132169"><ele>468.0</ele><time>2026-04-16T15:09:36.162Z</time></trkpt><trkpt lat="43.9018518" lon="11.1322161"><ele>468.00000000000006</ele><time>2026-04-16T15:09:43.257Z</time></trkpt><trkpt lat="43.9017887" lon="11.1322507"><ele>468.0</ele><time>2026-04-16T15:09:48.256Z</time></trkpt><trkpt lat="43.9017372" lon="11.1323086"><ele>468.0</ele><time>2026-04-16T15:09:55.257Z</time></trkpt><trkpt lat="43.9016687" lon="11.132345"><ele>468.5714285714286</ele><time>2026-04-16T15:10:02.258Z</time></trkpt><trkpt lat="43.9015961" lon="11.132375"><ele>469.1428571428572</ele><time>2026-04-16T15:10:08.25Z</time></trkpt><trkpt lat="43.9015223" lon="11.1323976"><ele>469.7142857142857</ele><time>2026-04-16T15:10:14.249Z</time></trkpt><trkpt lat="43.9014585" lon="11.1324185"><ele>470.28571428571433</ele><time>2026-04-16T15:10:20.154Z</time></trkpt><trkpt lat="43.9013924" lon="11.1324304"><ele>470.8571428571429</ele><time>2026-04-16T15:10:25.24Z</time></trkpt><trkpt lat="43.9013219" lon="11.1324373"><ele>471.42857142857144</ele><time>2026-04-16T15:10:30.215Z</time></trkpt><trkpt lat="43.9012491" lon="11.1324324"><ele>472.0</ele><time>2026-04-16T15:10:35.253Z</time></trkpt><trkpt lat="43.9011805" lon="11.1324269"><ele>472.0</ele><time>2026-04-16T15:10:39.246Z</time></trkpt><trkpt lat="43.901117" lon="11.132421"><ele>472.0</ele><time>2026-04-16T15:10:43.248Z</time></trkpt><trkpt lat="43.9010489" lon="11.1323857"><ele>472.0</ele><time>2026-04-16T15:10:49.246Z</time></trkpt><trkpt lat="43.9009866" lon="11.1323451"><ele>472.0</ele><time>2026-04-16T15:10:54.198Z</time></trkpt><trkpt lat="43.9009229" lon="11.1323119"><ele>472.0</ele><time>2026-04-16T15:10:59.248Z</time></trkpt><trkpt lat="43.900852" lon="11.1322907"><ele>472.0</ele><time>2026-04-16T15:11:04.246Z</time></trkpt><trkpt lat="43.9007915" lon="11.1322637"><ele>472.0</ele><time>2026-04-16T15:11:09.239Z</time></trkpt><trkpt lat="43.9007291" lon="11.1322358"><ele>473.57142857142856</ele><time>2026-04-16T15:11:14.251Z</time></trkpt><trkpt lat="43.9006716" lon="11.1321994"><ele>475.14285714285717</ele><time>2026-04-16T15:11:20.249Z</time></trkpt><trkpt lat="43.9005975" lon="11.1321831"><ele>476.7142857142857</ele><time>2026-04-16T15:11:28.182Z</time></trkpt><trkpt lat="43.9005282" lon="11.1322118"><ele>478.2857142857143</ele><time>2026-04-16T15:11:34.246Z</time></trkpt><trkpt lat="43.9004532" lon="11.1322228"><ele>479.8571428571429</ele><time>2026-04-16T15:11:40.249Z</time></trkpt><trkpt lat="43.9003974" lon="11.1322646"><ele>481.42857142857144</ele><time>2026-04-16T15:11:45.245Z</time></trkpt><trkpt lat="43.9003313" lon="11.1323004"><ele>483.0</ele><time>2026-04-16T15:11:50.24Z</time></trkpt><trkpt lat="43.9002905" lon="11.1323745"><ele>486.1428571428571</ele><time>2026-04-16T15:11:57.248Z</time></trkpt><trkpt lat="43.9002618" lon="11.132458"><ele>489.2857142857143</ele><time>2026-04-16T15:12:03.195Z</time></trkpt><trkpt lat="43.9002486" lon="11.1325462"><ele>492.42857142857144</ele><time>2026-04-16T15:12:11.248Z</time></trkpt><trkpt lat="43.900225" lon="11.1326334"><ele>495.57142857142856</ele><time>2026-04-16T15:12:22.247Z</time></trkpt><trkpt lat="43.9002228" lon="11.1327216"><ele>498.71428571428567</ele><time>2026-04-16T15:12:29.248Z</time></trkpt><trkpt lat="43.9002018" lon="11.1328046"><ele>501.85714285714283</ele><time>2026-04-16T15:12:38.243Z</time></trkpt><trkpt lat="43.900216" lon="11.1328933"><ele>505.0</ele><time>2026-04-16T15:12:46.248Z</time></trkpt><trkpt lat="43.9002539" lon="11.1329775"><ele>505.0</ele><time>2026-04-16T15:12:53.244Z</time></trkpt><trkpt lat="43.900275" lon="11.1330624"><ele>504.99999999999994</ele><time>2026-04-16T15:13:00.243Z</time></trkpt><trkpt lat="43.9002605" lon="11.1331516"><ele>505.0</ele><time>2026-04-16T15:13:08.244Z</time></trkpt><trkpt lat="43.9002467" lon="11.1332416"><ele>505.0</ele><time>2026-04-16T15:13:13.251Z</time></trkpt><trkpt lat="43.9002151" lon="11.1333244"><ele>504.99999999999994</ele><time>2026-04-16T15:13:21.248Z</time></trkpt><trkpt lat="43.9001639" lon="11.1333906"><ele>505.0</ele><time>2026-04-16T15:13:29.249Z</time></trkpt><trkpt lat="43.9001112" lon="11.1334525"><ele>505.0</ele><time>2026-04-16T15:13:36.239Z</time></trkpt><trkpt lat="43.9000481" lon="11.1334824"><ele>507.71428571428567</ele><time>2026-04-16T15:13:46.254Z</time></trkpt><trkpt lat="43.8999847" lon="11.1334535"><ele>510.4285714285714</ele><time>2026-04-16T15:13:54.245Z</time></trkpt><trkpt lat="43.8999137" lon="11.1334429"><ele>513.1428571428571</ele><time>2026-04-16T15:14:02.245Z</time></trkpt><trkpt lat="43.8998541" lon="11.1334833"><ele>515.8571428571429</ele><time>2026-04-16T15:14:10.245Z</time></trkpt><trkpt lat="43.8998525" lon="11.1335784"><ele>518.5714285714287</ele><time>2026-04-16T15:14:21.251Z</time></trkpt><trkpt lat="43.8998747" lon="11.1336676"><ele>521.2857142857143</ele><time>2026-04-16T15:14:29.25Z</time></trkpt><trkpt lat="43.8998753" lon="11.1337657"><ele>524.0</ele><time>2026-04-16T15:14:35.247Z</time></trkpt><trkpt lat="43.8998802" lon="11.1338599"><ele>524.0</ele><time>2026-04-16T15:14:44.254Z</time></trkpt><trkpt lat="43.8998682" lon="11.1339458"><ele>524.0</ele><time>2026-04-16T15:14:51.25Z</time></trkpt><trkpt lat="43.899874" lon="11.1340381"><ele>524.0</ele><time>2026-04-16T15:14:59.241Z</time></trkpt><trkpt lat="43.8998625" lon="11.1341304"><ele>524.0</ele><time>2026-04-16T15:15:06.243Z</time></trkpt><trkpt lat="43.8998467" lon="11.1342255"><ele>524.0</ele><time>2026-04-16T15:15:13.246Z</time></trkpt><trkpt lat="43.8998353" lon="11.1343164"><ele>524.0</ele><time>2026-04-16T15:15:21.243Z</time></trkpt><trkpt lat="43.8998261" lon="11.1344064"><ele>524.0</ele><time>2026-04-16T15:15:28.246Z</time></trkpt><trkpt lat="43.8998119" lon="11.1344998"><ele>526.2857142857143</ele><time>2026-04-16T15:15:37.153Z</time></trkpt><trkpt lat="43.8997877" lon="11.1345867"><ele>528.5714285714287</ele><time>2026-04-16T15:15:46.248Z</time></trkpt><trkpt lat="43.899775" lon="11.1346725"><ele>530.8571428571429</ele><time>2026-04-16T15:16:01.158Z</time></trkpt><trkpt lat="43.8997636" lon="11.1347585"><ele>533.1428571428571</ele><time>2026-04-16T15:16:11.24Z</time></trkpt><trkpt lat="43.89972" lon="11.1348981"><ele>535.4285714285713</ele><time>2026-04-16T15:16:20.248Z</time></trkpt><trkpt lat="43.8997214" lon="11.1349905"><ele>537.7142857142857</ele><time>2026-04-16T15:16:24.232Z</time></trkpt><trkpt lat="43.8996541" lon="11.1350164"><ele>540.0</ele><time>2026-04-16T15:16:35.237Z</time></trkpt><trkpt lat="43.8995914" lon="11.1350085"><ele>541.2857142857142</ele><time>2026-04-16T15:16:44.242Z</time></trkpt><trkpt lat="43.8995242" lon="11.1350203"><ele>542.5714285714286</ele><time>2026-04-16T15:17:02.241Z</time></trkpt><trkpt lat="43.8994534" lon="11.1350321"><ele>543.8571428571429</ele><time>2026-04-16T15:17:09.24Z</time></trkpt><trkpt lat="43.8993745" lon="11.1350352"><ele>545.1428571428571</ele><time>2026-04-16T15:17:31.229Z</time></trkpt><trkpt lat="43.8993084" lon="11.1350149"><ele>546.4285714285714</ele><time>2026-04-16T15:17:38.239Z</time></trkpt><trkpt lat="43.8992468" lon="11.1349861"><ele>547.7142857142857</ele><time>2026-04-16T15:17:45.235Z</time></trkpt><trkpt lat="43.8991835" lon="11.1349809"><ele>549.0</ele><time>2026-04-16T15:17:53.197Z</time></trkpt><trkpt lat="43.899142" lon="11.1349149"><ele>548.8571428571429</ele><time>2026-04-16T15:18:05.231Z</time></trkpt><trkpt lat="43.8991229" lon="11.1348194"><ele>548.7142857142858</ele><time>2026-04-16T15:18:10.252Z</time></trkpt><trkpt lat="43.8990841" lon="11.1347495"><ele>548.5714285714287</ele><time>2026-04-16T15:18:16.219Z</time></trkpt><trkpt lat="43.8990342" lon="11.1346837"><ele>548.4285714285714</ele><time>2026-04-16T15:18:22.26Z</time></trkpt><trkpt lat="43.8989842" lon="11.1346203"><ele>548.2857142857143</ele><time>2026-04-16T15:18:27.253Z</time></trkpt><trkpt lat="43.8989248" lon="11.1345821"><ele>548.1428571428572</ele><time>2026-04-16T15:18:32.175Z</time></trkpt><trkpt lat="43.8988717" lon="11.1345345"><ele>548.0</ele><time>2026-04-16T15:18:38.257Z</time></trkpt><trkpt lat="43.898822" lon="11.1344789"><ele>548.0000000000001</ele><time>2026-04-16T15:18:43.174Z</time></trkpt><trkpt lat="43.8987737" lon="11.1344193"><ele>548.0</ele><time>2026-04-16T15:18:48.257Z</time></trkpt><trkpt lat="43.8987225" lon="11.1343649"><ele>548.0</ele><time>2026-04-16T15:18:53.255Z</time></trkpt><trkpt lat="43.8986599" lon="11.1343353"><ele>548.0</ele><time>2026-04-16T15:18:59.262Z</time></trkpt><trkpt lat="43.8985927" lon="11.1343456"><ele>548.0</ele><time>2026-04-16T15:19:13.234Z</time></trkpt><trkpt lat="43.8985288" lon="11.134321"><ele>548.0000000000001</ele><time>2026-04-16T15:19:18.238Z</time></trkpt><trkpt lat="43.8985929" lon="11.1342834"><ele>548.0</ele><time>2026-04-16T15:19:26.244Z</time></trkpt><trkpt lat="43.8986581" lon="11.1342979"><ele>548.0000000000001</ele><time>2026-04-16T15:19:32.25Z</time></trkpt><trkpt lat="43.8987198" lon="11.1343494"><ele>548.0</ele><time>2026-04-16T15:19:38.251Z</time></trkpt><trkpt lat="43.8987722" lon="11.1343987"><ele>548.0</ele><time>2026-04-16T15:19:42.251Z</time></trkpt><trkpt lat="43.8988098" lon="11.134472"><ele>548.0</ele><time>2026-04-16T15:19:47.254Z</time></trkpt><trkpt lat="43.8988593" lon="11.1345393"><ele>548.0</ele><time>2026-04-16T15:19:52.255Z</time></trkpt><trkpt lat="43.8989101" lon="11.134593"><ele>548.0000000000001</ele><time>2026-04-16T15:19:57.216Z</time></trkpt><trkpt lat="43.8989663" lon="11.1346404"><ele>548.0</ele><time>2026-04-16T15:20:03.245Z</time></trkpt><trkpt lat="43.8990242" lon="11.1346902"><ele>548.0000000000001</ele><time>2026-04-16T15:20:09.252Z</time></trkpt><trkpt lat="43.8990706" lon="11.1347499"><ele>548.0</ele><time>2026-04-16T15:20:15.25Z</time></trkpt><trkpt lat="43.8991073" lon="11.1348226"><ele>548.0</ele><time>2026-04-16T15:20:20.258Z</time></trkpt><trkpt lat="43.8991347" lon="11.1349049"><ele>548.0</ele><time>2026-04-16T15:20:26.254Z</time></trkpt><trkpt lat="43.8991868" lon="11.1349578"><ele>548.0</ele><time>2026-04-16T15:20:53.261Z</time></trkpt><trkpt lat="43.8992509" lon="11.1349933"><ele>548.0000000000001</ele><time>2026-04-16T15:21:00.261Z</time></trkpt><trkpt lat="43.8993163" lon="11.1349923"><ele>548.0</ele><time>2026-04-16T15:21:07.259Z</time></trkpt><trkpt lat="43.8993892" lon="11.1350114"><ele>548.4285714285714</ele><time>2026-04-16T15:21:13.262Z</time></trkpt><trkpt lat="43.8994597" lon="11.1350401"><ele>548.8571428571429</ele><time>2026-04-16T15:21:19.262Z</time></trkpt><trkpt lat="43.8995229" lon="11.1350512"><ele>549.2857142857142</ele><time>2026-04-16T15:21:24.257Z</time></trkpt><trkpt lat="43.8995876" lon="11.1350227"><ele>549.7142857142858</ele><time>2026-04-16T15:21:29.264Z</time></trkpt><trkpt lat="43.8996561" lon="11.1350087"><ele>550.1428571428571</ele><time>2026-04-16T15:21:35.256Z</time></trkpt><trkpt lat="43.8997269" lon="11.1350217"><ele>550.5714285714286</ele><time>2026-04-16T15:21:41.254Z</time></trkpt><trkpt lat="43.8997876" lon="11.1349946"><ele>551.0</ele><time>2026-04-16T15:21:47.25Z</time></trkpt><trkpt lat="43.8998541" lon="11.1349761"><ele>550.9999999999999</ele><time>2026-04-16T15:21:53.251Z</time></trkpt><trkpt lat="43.8999178" lon="11.1349443"><ele>551.0</ele><time>2026-04-16T15:21:59.257Z</time></trkpt><trkpt lat="43.8999691" lon="11.1348799"><ele>551.0</ele><time>2026-04-16T15:22:07.233Z</time></trkpt><trkpt lat="43.9000326" lon="11.1348502"><ele>551.0</ele><time>2026-04-16T15:22:15.248Z</time></trkpt><trkpt lat="43.9000918" lon="11.1348016"><ele>551.0</ele><time>2026-04-16T15:22:31.251Z</time></trkpt><trkpt lat="43.9001709" lon="11.134756"><ele>550.9999999999999</ele><time>2026-04-16T15:22:42.26Z</time></trkpt><trkpt lat="43.9002379" lon="11.1347832"><ele>551.0</ele><time>2026-04-16T15:22:47.259Z</time></trkpt><trkpt lat="43.9003006" lon="11.1347912"><ele>551.4285714285713</ele><time>2026-04-16T15:22:56.182Z</time></trkpt><trkpt lat="43.9003536" lon="11.1347281"><ele>551.8571428571429</ele><time>2026-04-16T15:23:05.253Z</time></trkpt><trkpt lat="43.9004064" lon="11.1346541"><ele>552.2857142857142</ele><time>2026-04-16T15:23:29.264Z</time></trkpt><trkpt lat="43.9003818" lon="11.1347402"><ele>552.7142857142857</ele><time>2026-04-16T15:23:40.25Z</time></trkpt><trkpt lat="43.9004487" lon="11.134732"><ele>553.1428571428571</ele><time>2026-04-16T15:24:06.256Z</time></trkpt><trkpt lat="43.9004893" lon="11.1348043"><ele>553.5714285714286</ele><time>2026-04-16T15:24:16.259Z</time></trkpt><trkpt lat="43.9005506" lon="11.1348807"><ele>554.0</ele><time>2026-04-16T15:24:35.27Z</time></trkpt><trkpt lat="43.9006174" lon="11.1348748"><ele>554.0</ele><time>2026-04-16T15:24:45.263Z</time></trkpt><trkpt lat="43.9006657" lon="11.1348086"><ele>554.0</ele><time>2026-04-16T15:24:55.275Z</time></trkpt><trkpt lat="43.900735" lon="11.1348011"><ele>554.0</ele><time>2026-04-16T15:25:06.273Z</time></trkpt><trkpt lat="43.9008004" lon="11.1347938"><ele>554.0</ele><time>2026-04-16T15:25:14.264Z</time></trkpt><trkpt lat="43.9008603" lon="11.1348404"><ele>554.0</ele><time>2026-04-16T15:25:24.258Z</time></trkpt><trkpt lat="43.9008977" lon="11.1349179"><ele>554.0</ele><time>2026-04-16T15:25:36.27Z</time></trkpt><trkpt lat="43.900947" lon="11.1349739"><ele>554.0</ele><time>2026-04-16T15:25:46.264Z</time></trkpt><trkpt lat="43.90101" lon="11.1349974"><ele>559.0</ele><time>2026-04-16T15:25:55.266Z</time></trkpt><trkpt lat="43.9010751" lon="11.1350071"><ele>564.0</ele><time>2026-04-16T15:26:08.259Z</time></trkpt><trkpt lat="43.901115" lon="11.1350874"><ele>569.0</ele><time>2026-04-16T15:26:31.262Z</time></trkpt><trkpt lat="43.9011911" lon="11.1350831"><ele>574.0</ele><time>2026-04-16T15:26:48.257Z</time></trkpt><trkpt lat="43.9012332" lon="11.1351621"><ele>579.0</ele><time>2026-04-16T15:27:02.269Z</time></trkpt><trkpt lat="43.9012566" lon="11.1352482"><ele>584.0</ele><time>2026-04-16T15:27:09.269Z</time></trkpt><trkpt lat="43.9012976" lon="11.1353161"><ele>589.0</ele><time>2026-04-16T15:27:20.265Z</time></trkpt><trkpt lat="43.9013578" lon="11.1353545"><ele>589.0</ele><time>2026-04-16T15:27:30.267Z</time></trkpt><trkpt lat="43.901411" lon="11.1354256"><ele>589.0</ele><time>2026-04-16T15:27:47.262Z</time></trkpt><trkpt lat="43.9014671" lon="11.1354705"><ele>589.0</ele><time>2026-04-16T15:27:54.263Z</time></trkpt><trkpt lat="43.9015078" lon="11.1355444"><ele>589.0</ele><time>2026-04-16T15:28:01.18Z</time></trkpt><trkpt lat="43.9015406" lon="11.1356319"><ele>589.0</ele><time>2026-04-16T15:28:09.259Z</time></trkpt><trkpt lat="43.9015777" lon="11.1357085"><ele>589.0</ele><time>2026-04-16T15:28:18.261Z</time></trkpt><trkpt lat="43.9016304" lon="11.1357672"><ele>589.0</ele><time>2026-04-16T15:28:27.259Z</time></trkpt><trkpt lat="43.9016923" lon="11.1358068"><ele>591.4285714285714</ele><time>2026-04-16T15:28:34.258Z</time></trkpt><trkpt lat="43.9017344" lon="11.1358767"><ele>593.8571428571428</ele><time>2026-04-16T15:28:41.257Z</time></trkpt><trkpt lat="43.9017619" lon="11.1359729"><ele>596.2857142857142</ele><time>2026-04-16T15:29:21.265Z</time></trkpt><trkpt lat="43.9018147" lon="11.135919"><ele>598.7142857142857</ele><time>2026-04-16T15:30:21.261Z</time></trkpt><trkpt lat="43.9018144" lon="11.13601"><ele>601.1428571428571</ele><time>2026-04-16T15:30:48.257Z</time></trkpt><trkpt lat="43.9018324" lon="11.1360943"><ele>603.5714285714286</ele><time>2026-04-16T15:30:55.258Z</time></trkpt><trkpt lat="43.9018728" lon="11.1361717"><ele>606.0</ele><time>2026-04-16T15:31:04.258Z</time></trkpt><trkpt lat="43.9019364" lon="11.1362203"><ele>607.0</ele><time>2026-04-16T15:31:11.256Z</time></trkpt><trkpt lat="43.9019858" lon="11.1362839"><ele>608.0</ele><time>2026-04-16T15:31:18.041Z</time></trkpt><trkpt lat="43.9020204" lon="11.1363573"><ele>609.0</ele><time>2026-04-16T15:31:24.259Z</time></trkpt><trkpt lat="43.9020657" lon="11.1364292"><ele>610.0</ele><time>2026-04-16T15:31:33.25Z</time></trkpt><trkpt lat="43.9021217" lon="11.1364839"><ele>611.0</ele><time>2026-04-16T15:31:41.252Z</time></trkpt><trkpt lat="43.9021687" lon="11.1365564"><ele>612.0</ele><time>2026-04-16T15:31:50.252Z</time></trkpt><trkpt lat="43.9022076" lon="11.1366268"><ele>613.0</ele><time>2026-04-16T15:31:58.257Z</time></trkpt><trkpt lat="43.9022654" lon="11.1366759"><ele>615.5714285714286</ele><time>2026-04-16T15:32:05.246Z</time></trkpt><trkpt lat="43.9023145" lon="11.13674"><ele>618.1428571428571</ele><time>2026-04-16T15:32:13.256Z</time></trkpt><trkpt lat="43.9023211" lon="11.1368388"><ele>620.7142857142858</ele><time>2026-04-16T15:32:49.243Z</time></trkpt><trkpt lat="43.9023794" lon="11.136794"><ele>623.2857142857142</ele><time>2026-04-16T15:33:01.251Z</time></trkpt><trkpt lat="43.9024458" lon="11.1368118"><ele>625.8571428571428</ele><time>2026-04-16T15:33:09.239Z</time></trkpt><trkpt lat="43.9025084" lon="11.1368583"><ele>628.4285714285714</ele><time>2026-04-16T15:33:16.156Z</time></trkpt><trkpt lat="43.9025676" lon="11.1369008"><ele>631.0</ele><time>2026-04-16T15:33:22.163Z</time></trkpt><trkpt lat="43.9026266" lon="11.1369478"><ele>631.2857142857143</ele><time>2026-04-16T15:33:30.246Z</time></trkpt><trkpt lat="43.9026876" lon="11.136975"><ele>631.5714285714286</ele><time>2026-04-16T15:33:37.254Z</time></trkpt><trkpt lat="43.9027544" lon="11.1370061"><ele>631.8571428571429</ele><time>2026-04-16T15:33:45.235Z</time></trkpt><trkpt lat="43.9028141" lon="11.1370482"><ele>632.1428571428571</ele><time>2026-04-16T15:33:53.243Z</time></trkpt><trkpt lat="43.9028679" lon="11.137105"><ele>632.4285714285714</ele><time>2026-04-16T15:34:01.242Z</time></trkpt><trkpt lat="43.9029173" lon="11.137178"><ele>632.7142857142857</ele><time>2026-04-16T15:34:16.242Z</time></trkpt><trkpt lat="43.9029778" lon="11.1372127"><ele>633.0</ele><time>2026-04-16T15:34:23.243Z</time></trkpt><trkpt lat="43.9030219" lon="11.1372772"><ele>633.0</ele><time>2026-04-16T15:34:30.242Z</time></trkpt><trkpt lat="43.9030719" lon="11.1373321"><ele>633.0</ele><time>2026-04-16T15:34:40.24Z</time></trkpt><trkpt lat="43.9031299" lon="11.1373772"><ele>633.0</ele><time>2026-04-16T15:34:49.248Z</time></trkpt><trkpt lat="43.9031543" lon="11.1374601"><ele>633.0</ele><time>2026-04-16T15:34:56.238Z</time></trkpt><trkpt lat="43.9031897" lon="11.1375444"><ele>633.0</ele><time>2026-04-16T15:35:11.249Z</time></trkpt><trkpt lat="43.9032457" lon="11.137593"><ele>633.0</ele><time>2026-04-16T15:35:19.246Z</time></trkpt><trkpt lat="43.9032909" lon="11.1376588"><ele>633.0</ele><time>2026-04-16T15:35:30.25Z</time></trkpt><trkpt lat="43.9033554" lon="11.1376822"><ele>636.7142857142857</ele><time>2026-04-16T15:35:52.252Z</time></trkpt><trkpt lat="43.9034145" lon="11.1377276"><ele>640.4285714285714</ele><time>2026-04-16T15:36:01.252Z</time></trkpt><trkpt lat="43.903474" lon="11.1377648"><ele>644.1428571428571</ele><time>2026-04-16T15:36:07.251Z</time></trkpt><trkpt lat="43.9035318" lon="11.1378114"><ele>647.8571428571429</ele><time>2026-04-16T15:36:14.252Z</time></trkpt><trkpt lat="43.9035591" lon="11.1378919"><ele>651.5714285714286</ele><time>2026-04-16T15:36:23.2Z</time></trkpt><trkpt lat="43.9036152" lon="11.1379386"><ele>655.2857142857143</ele><time>2026-04-16T15:36:31.255Z</time></trkpt><trkpt lat="43.9036559" lon="11.1380077"><ele>659.0</ele><time>2026-04-16T15:36:40.256Z</time></trkpt><trkpt lat="43.9036846" lon="11.1380909"><ele>659.0</ele><time>2026-04-16T15:36:50.257Z</time></trkpt><trkpt lat="43.9037431" lon="11.1381308"><ele>659.0</ele><time>2026-04-16T15:37:00.253Z</time></trkpt><trkpt lat="43.9038082" lon="11.1381715"><ele>659.0</ele><time>2026-04-16T15:37:08.256Z</time></trkpt><trkpt lat="43.9038709" lon="11.1382193"><ele>659.0</ele><time>2026-04-16T15:37:16.239Z</time></trkpt><trkpt lat="43.9039423" lon="11.1382462"><ele>659.0</ele><time>2026-04-16T15:37:24.22Z</time></trkpt><trkpt lat="43.9040055" lon="11.1382642"><ele>659.0</ele><time>2026-04-16T15:37:31.253Z</time></trkpt><trkpt lat="43.9040599" lon="11.1383185"><ele>659.0</ele><time>2026-04-16T15:37:40.255Z</time></trkpt><trkpt lat="43.9041004" lon="11.138392"><ele>661.7142857142858</ele><time>2026-04-16T15:37:48.251Z</time></trkpt><trkpt lat="43.9041399" lon="11.1384716"><ele>664.4285714285713</ele><time>2026-04-16T15:37:57.26Z</time></trkpt><trkpt lat="43.9041931" lon="11.1385266"><ele>667.1428571428571</ele><time>2026-04-16T15:38:04.262Z</time></trkpt><trkpt lat="43.9042513" lon="11.1385666"><ele>669.8571428571429</ele><time>2026-04-16T15:38:12.258Z</time></trkpt><trkpt lat="43.9043044" lon="11.1386201"><ele>672.5714285714287</ele><time>2026-04-16T15:38:23.241Z</time></trkpt><trkpt lat="43.9043505" lon="11.1386958"><ele>675.2857142857142</ele><time>2026-04-16T15:40:17.246Z</time></trkpt><trkpt lat="43.9044138" lon="11.1387421"><ele>678.0</ele><time>2026-04-16T15:40:24.244Z</time></trkpt><trkpt lat="43.9044644" lon="11.1387998"><ele>678.7142857142857</ele><time>2026-04-16T15:40:31.249Z</time></trkpt><trkpt lat="43.9045248" lon="11.1388315"><ele>679.4285714285714</ele><time>2026-04-16T15:40:40.246Z</time></trkpt><trkpt lat="43.9045784" lon="11.138888"><ele>680.1428571428571</ele><time>2026-04-16T15:40:48.242Z</time></trkpt><trkpt lat="43.9046406" lon="11.1389317"><ele>680.8571428571429</ele><time>2026-04-16T15:40:59.249Z</time></trkpt><trkpt lat="43.9046903" lon="11.1389961"><ele>681.5714285714286</ele><time>2026-04-16T15:41:08.241Z</time></trkpt><trkpt lat="43.9047484" lon="11.1390375"><ele>682.2857142857143</ele><time>2026-04-16T15:41:17.246Z</time></trkpt><trkpt lat="43.9048156" lon="11.1390554"><ele>683.0</ele><time>2026-04-16T15:41:26.252Z</time></trkpt><trkpt lat="43.9048681" lon="11.1391153"><ele>685.8571428571429</ele><time>2026-04-16T15:41:38.245Z</time></trkpt><trkpt lat="43.9049346" lon="11.1391261"><ele>688.7142857142857</ele><time>2026-04-16T15:42:16.155Z</time></trkpt><trkpt lat="43.9049784" lon="11.1391916"><ele>691.5714285714286</ele><time>2026-04-16T15:42:24.161Z</time></trkpt><trkpt lat="43.9050109" lon="11.1392672"><ele>694.4285714285714</ele><time>2026-04-16T15:42:32.219Z</time></trkpt><trkpt lat="43.9050649" lon="11.1393151"><ele>697.2857142857143</ele><time>2026-04-16T15:42:40.253Z</time></trkpt><trkpt lat="43.9051266" lon="11.1393566"><ele>700.1428571428571</ele><time>2026-04-16T15:42:48.248Z</time></trkpt><trkpt lat="43.9051847" lon="11.1394069"><ele>703.0</ele><time>2026-04-16T15:42:56.248Z</time></trkpt><trkpt lat="43.9052513" lon="11.139424"><ele>704.4285714285714</ele><time>2026-04-16T15:43:05.241Z</time></trkpt><trkpt lat="43.905316" lon="11.1394423"><ele>705.8571428571429</ele><time>2026-04-16T15:43:14.244Z</time></trkpt><trkpt lat="43.9053687" lon="11.1394993"><ele>707.2857142857142</ele><time>2026-04-16T15:43:23.246Z</time></trkpt><trkpt lat="43.9054274" lon="11.1395397"><ele>708.7142857142858</ele><time>2026-04-16T15:43:32.24Z</time></trkpt><trkpt lat="43.9054948" lon="11.1395679"><ele>710.1428571428572</ele><time>2026-04-16T15:43:40.251Z</time></trkpt><trkpt lat="43.9055597" lon="11.1395816"><ele>711.5714285714286</ele><time>2026-04-16T15:43:48.248Z</time></trkpt><trkpt lat="43.905626" lon="11.1396195"><ele>713.0</ele><time>2026-04-16T15:43:56.249Z</time></trkpt><trkpt lat="43.905692" lon="11.1396389"><ele>713.0</ele><time>2026-04-16T15:44:04.219Z</time></trkpt><trkpt lat="43.9057539" lon="11.1396617"><ele>713.0</ele><time>2026-04-16T15:44:28.183Z</time></trkpt><trkpt lat="43.9058144" lon="11.1396974"><ele>713.0</ele><time>2026-04-16T15:44:37.248Z</time></trkpt><trkpt lat="43.9058819" lon="11.1397087"><ele>713.0</ele><time>2026-04-16T15:44:48.243Z</time></trkpt><trkpt lat="43.9059377" lon="11.1397497"><ele>713.0</ele><time>2026-04-16T15:45:03.177Z</time></trkpt><trkpt lat="43.9060007" lon="11.1397518"><ele>713.0</ele><time>2026-04-16T15:45:10.23Z</time></trkpt><trkpt lat="43.9060617" lon="11.1397764"><ele>713.0</ele><time>2026-04-16T15:45:18.233Z</time></trkpt><trkpt lat="43.9061253" lon="11.1398067"><ele>712.4285714285714</ele><time>2026-04-16T15:45:26.233Z</time></trkpt><trkpt lat="43.9061866" lon="11.1398345"><ele>711.8571428571429</ele><time>2026-04-16T15:45:34.232Z</time></trkpt><trkpt lat="43.9062528" lon="11.1398507"><ele>711.2857142857143</ele><time>2026-04-16T15:45:43.232Z</time></trkpt><trkpt lat="43.9063152" lon="11.1398774"><ele>710.7142857142858</ele><time>2026-04-16T15:45:52.175Z</time></trkpt><trkpt lat="43.9063808" lon="11.1399076"><ele>710.1428571428571</ele><time>2026-04-16T15:46:01.234Z</time></trkpt><trkpt lat="43.9064272" lon="11.1399792"><ele>709.5714285714287</ele><time>2026-04-16T15:46:21.163Z</time></trkpt><trkpt lat="43.90648" lon="11.1400338"><ele>709.0</ele><time>2026-04-16T15:46:30.202Z</time></trkpt><trkpt lat="43.9065301" lon="11.1400952"><ele>710.1428571428572</ele><time>2026-04-16T15:46:40.229Z</time></trkpt><trkpt lat="43.9065693" lon="11.1401662"><ele>711.2857142857143</ele><time>2026-04-16T15:46:53.227Z</time></trkpt><trkpt lat="43.9066089" lon="11.1402362"><ele>712.4285714285714</ele><time>2026-04-16T15:47:09.239Z</time></trkpt><trkpt lat="43.9066471" lon="11.1403126"><ele>713.5714285714287</ele><time>2026-04-16T15:47:19.232Z</time></trkpt><trkpt lat="43.9067072" lon="11.1404124"><ele>714.7142857142857</ele><time>2026-04-16T15:48:55.223Z</time></trkpt><trkpt lat="43.9067547" lon="11.1403542"><ele>715.8571428571429</ele><time>2026-04-16T15:55:03.215Z</time></trkpt><trkpt lat="43.906695" lon="11.1404053"><ele>717.0</ele><time>2026-04-16T15:55:45.237Z</time></trkpt><trkpt lat="43.9066946" lon="11.140309"><ele>717.0</ele><time>2026-04-16T16:00:03.25Z</time></trkpt><trkpt lat="43.9066864" lon="11.140406"><ele>717.0</ele><time>2026-04-16T16:03:44.266Z</time></trkpt><trkpt lat="43.9067386" lon="11.1404698"><ele>717.0</ele><time>2026-04-16T16:03:53.26Z</time></trkpt><trkpt lat="43.9067843" lon="11.14054"><ele>717.0</ele><time>2026-04-16T16:03:58.274Z</time></trkpt><trkpt lat="43.9068247" lon="11.1406126"><ele>717.0</ele><time>2026-04-16T16:04:04.268Z</time></trkpt><trkpt lat="43.9068637" lon="11.1406939"><ele>717.0</ele><time>2026-04-16T16:04:11.279Z</time></trkpt><trkpt lat="43.9069" lon="11.1407829"><ele>717.0</ele><time>2026-04-16T16:04:19.269Z</time></trkpt><trkpt lat="43.9069289" lon="11.1408645"><ele>720.1428571428571</ele><time>2026-04-16T16:04:27.268Z</time></trkpt><trkpt lat="43.9069566" lon="11.1409473"><ele>723.2857142857142</ele><time>2026-04-16T16:04:35.269Z</time></trkpt><trkpt lat="43.9069989" lon="11.141029"><ele>726.4285714285714</ele><time>2026-04-16T16:04:42.261Z</time></trkpt><trkpt lat="43.9070406" lon="11.1410956"><ele>729.5714285714286</ele><time>2026-04-16T16:04:48.255Z</time></trkpt><trkpt lat="43.9070835" lon="11.1411705"><ele>732.7142857142858</ele><time>2026-04-16T16:04:56.258Z</time></trkpt><trkpt lat="43.9071135" lon="11.141253"><ele>735.8571428571429</ele><time>2026-04-16T16:05:03.258Z</time></trkpt><trkpt lat="43.9071243" lon="11.141349"><ele>739.0</ele><time>2026-04-16T16:05:08.26Z</time></trkpt><trkpt lat="43.907137" lon="11.1414518"><ele>739.0</ele><time>2026-04-16T16:05:15.257Z</time></trkpt><trkpt lat="43.9071575" lon="11.141542"><ele>739.0</ele><time>2026-04-16T16:05:23.258Z</time></trkpt><trkpt lat="43.9071711" lon="11.1416282"><ele>739.0</ele><time>2026-04-16T16:05:29.259Z</time></trkpt><trkpt lat="43.9072053" lon="11.141704"><ele>739.0</ele><time>2026-04-16T16:07:23.256Z</time></trkpt><trkpt lat="43.9071803" lon="11.1417846"><ele>739.0</ele><time>2026-04-16T16:08:28.246Z</time></trkpt><trkpt lat="43.9071971" lon="11.1416786"><ele>739.0</ele><time>2026-04-16T16:11:17.25Z</time></trkpt><trkpt lat="43.9071526" lon="11.1416155"><ele>739.0</ele><time>2026-04-16T16:12:17.264Z</time></trkpt><trkpt lat="43.9071414" lon="11.1415285"><ele>739.0</ele><time>2026-04-16T16:12:21.265Z</time></trkpt><trkpt lat="43.9071236" lon="11.1414434"><ele>739.0</ele><time>2026-04-16T16:12:28.26Z</time></trkpt><trkpt lat="43.9071134" lon="11.1413534"><ele>739.0</ele><time>2026-04-16T16:12:35.261Z</time></trkpt><trkpt lat="43.9071201" lon="11.1412665"><ele>739.0</ele><time>2026-04-16T16:12:46.261Z</time></trkpt><trkpt lat="43.9070729" lon="11.1412044"><ele>739.0</ele><time>2026-04-16T16:13:05.26Z</time></trkpt><trkpt lat="43.9070262" lon="11.1411316"><ele>739.0</ele><time>2026-04-16T16:13:13.258Z</time></trkpt><trkpt lat="43.9069947" lon="11.1410472"><ele>739.0</ele><time>2026-04-16T16:13:20.241Z</time></trkpt><trkpt lat="43.9069641" lon="11.140959"><ele>739.0</ele><time>2026-04-16T16:13:29.268Z</time></trkpt><trkpt lat="43.9069274" lon="11.140885"><ele>739.0</ele><time>2026-04-16T16:13:37.219Z</time></trkpt><trkpt lat="43.9068996" lon="11.1408052"><ele>739.0</ele><time>2026-04-16T16:13:46.263Z</time></trkpt><trkpt lat="43.9068678" lon="11.1407232"><ele>739.0</ele><time>2026-04-16T16:13:55.247Z</time></trkpt><trkpt lat="43.9068251" lon="11.1406427"><ele>739.0</ele><time>2026-04-16T16:13:59.26Z</time></trkpt><trkpt lat="43.9067549" lon="11.1405778"><ele>739.0</ele><time>2026-04-16T16:14:02.263Z</time></trkpt><trkpt lat="43.9066579" lon="11.1404995"><ele>738.4285714285714</ele><time>2026-04-16T16:14:48.263Z</time></trkpt><trkpt lat="43.9067221" lon="11.1404696"><ele>737.8571428571429</ele><time>2026-04-16T16:15:32.259Z</time></trkpt><trkpt lat="43.9066735" lon="11.1404134"><ele>737.2857142857142</ele><time>2026-04-16T16:16:17.272Z</time></trkpt><trkpt lat="43.9066069" lon="11.1403932"><ele>736.7142857142858</ele><time>2026-04-16T16:16:28.26Z</time></trkpt><trkpt lat="43.9065505" lon="11.1403504"><ele>736.1428571428571</ele><time>2026-04-16T16:16:42.239Z</time></trkpt><trkpt lat="43.906513" lon="11.1402759"><ele>735.5714285714286</ele><time>2026-04-16T16:16:51.271Z</time></trkpt><trkpt lat="43.9065096" lon="11.1401884"><ele>735.0</ele><time>2026-04-16T16:17:00.272Z</time></trkpt><trkpt lat="43.9065126" lon="11.1400831"><ele>735.0</ele><time>2026-04-16T16:17:27.25Z</time></trkpt><trkpt lat="43.9064658" lon="11.1400163"><ele>735.0</ele><time>2026-04-16T16:17:46.26Z</time></trkpt><trkpt lat="43.9064096" lon="11.139963"><ele>735.0</ele><time>2026-04-16T16:17:57.264Z</time></trkpt><trkpt lat="43.9063511" lon="11.1399255"><ele>735.0</ele><time>2026-04-16T16:18:08.263Z</time></trkpt><trkpt lat="43.9062842" lon="11.1399088"><ele>735.0</ele><time>2026-04-16T16:18:15.259Z</time></trkpt><trkpt lat="43.9062223" lon="11.1398856"><ele>735.0</ele><time>2026-04-16T16:18:21.266Z</time></trkpt><trkpt lat="43.9061598" lon="11.1398724"><ele>735.0</ele><time>2026-04-16T16:18:28.26Z</time></trkpt><trkpt lat="43.9060972" lon="11.1398392"><ele>731.8571428571429</ele><time>2026-04-16T16:18:37.255Z</time></trkpt><trkpt lat="43.9060349" lon="11.1397976"><ele>728.7142857142858</ele><time>2026-04-16T16:18:48.262Z</time></trkpt><trkpt lat="43.9059718" lon="11.1397624"><ele>725.5714285714286</ele><time>2026-04-16T16:18:58.263Z</time></trkpt><trkpt lat="43.9059081" lon="11.1397522"><ele>722.4285714285714</ele><time>2026-04-16T16:19:06.239Z</time></trkpt><trkpt lat="43.9058519" lon="11.1397012"><ele>719.2857142857143</ele><time>2026-04-16T16:19:17.266Z</time></trkpt><trkpt lat="43.9057845" lon="11.1396908"><ele>716.1428571428571</ele><time>2026-04-16T16:19:25.261Z</time></trkpt><trkpt lat="43.9057198" lon="11.1396699"><ele>713.0</ele><time>2026-04-16T16:19:34.256Z</time></trkpt><trkpt lat="43.9056553" lon="11.1396281"><ele>713.0</ele><time>2026-04-16T16:19:43.26Z</time></trkpt><trkpt lat="43.9055897" lon="11.1395942"><ele>713.0</ele><time>2026-04-16T16:19:51.204Z</time></trkpt><trkpt lat="43.9055259" lon="11.1395674"><ele>713.0</ele><time>2026-04-16T16:19:59.263Z</time></trkpt><trkpt lat="43.9054595" lon="11.1395555"><ele>713.0</ele><time>2026-04-16T16:20:07.263Z</time></trkpt><trkpt lat="43.9053964" lon="11.1395537"><ele>713.0</ele><time>2026-04-16T16:20:14.208Z</time></trkpt><trkpt lat="43.9053388" lon="11.1395033"><ele>713.0</ele><time>2026-04-16T16:20:25.187Z</time></trkpt><trkpt lat="43.9052769" lon="11.1394609"><ele>713.0</ele><time>2026-04-16T16:20:34.244Z</time></trkpt><trkpt lat="43.9052073" lon="11.1394335"><ele>713.0</ele><time>2026-04-16T16:20:44.226Z</time></trkpt><trkpt lat="43.9051482" lon="11.1394005"><ele>713.0</ele><time>2026-04-16T16:20:51.262Z</time></trkpt><trkpt lat="43.9050907" lon="11.139353"><ele>713.0</ele><time>2026-04-16T16:20:59.263Z</time></trkpt><trkpt lat="43.9050324" lon="11.1393109"><ele>713.0</ele><time>2026-04-16T16:21:07.263Z</time></trkpt><trkpt lat="43.9049686" lon="11.139314"><ele>713.0</ele><time>2026-04-16T16:21:15.254Z</time></trkpt><trkpt lat="43.9049075" lon="11.1392927"><ele>713.0</ele><time>2026-04-16T16:21:22.204Z</time></trkpt><trkpt lat="43.9048641" lon="11.1392179"><ele>713.0</ele><time>2026-04-16T16:21:30.22Z</time></trkpt><trkpt lat="43.9048143" lon="11.1391624"><ele>711.5714285714286</ele><time>2026-04-16T16:21:40.24Z</time></trkpt><trkpt lat="43.9047718" lon="11.1390863"><ele>710.1428571428572</ele><time>2026-04-16T16:21:46.205Z</time></trkpt><trkpt lat="43.904709" lon="11.1390402"><ele>708.7142857142858</ele><time>2026-04-16T16:21:53.262Z</time></trkpt><trkpt lat="43.9046624" lon="11.1389758"><ele>707.2857142857142</ele><time>2026-04-16T16:22:02.181Z</time></trkpt><trkpt lat="43.9046123" lon="11.1389159"><ele>705.8571428571429</ele><time>2026-04-16T16:22:15.264Z</time></trkpt><trkpt lat="43.9045545" lon="11.1388791"><ele>704.4285714285714</ele><time>2026-04-16T16:22:22.221Z</time></trkpt><trkpt lat="43.904491" lon="11.1388533"><ele>703.0</ele><time>2026-04-16T16:22:31.181Z</time></trkpt><trkpt lat="43.9044296" lon="11.1388159"><ele>700.1428571428571</ele><time>2026-04-16T16:22:38.257Z</time></trkpt><trkpt lat="43.9043785" lon="11.1387593"><ele>697.2857142857143</ele><time>2026-04-16T16:22:46.263Z</time></trkpt><trkpt lat="43.9043412" lon="11.1386771"><ele>694.4285714285714</ele><time>2026-04-16T16:22:55.259Z</time></trkpt><trkpt lat="43.90432" lon="11.1385946"><ele>691.5714285714286</ele><time>2026-04-16T16:24:21.261Z</time></trkpt><trkpt lat="43.9042567" lon="11.1385883"><ele>688.7142857142857</ele><time>2026-04-16T16:25:11.257Z</time></trkpt><trkpt lat="43.9041935" lon="11.1385565"><ele>685.8571428571429</ele><time>2026-04-16T16:25:20.27Z</time></trkpt><trkpt lat="43.9041417" lon="11.1385012"><ele>683.0</ele><time>2026-04-16T16:25:30.263Z</time></trkpt><trkpt lat="43.9040989" lon="11.1384357"><ele>682.2857142857143</ele><time>2026-04-16T16:25:40.268Z</time></trkpt><trkpt lat="43.9040295" lon="11.1384478"><ele>681.5714285714286</ele><time>2026-04-16T16:25:47.263Z</time></trkpt><trkpt lat="43.9039998" lon="11.1383587"><ele>680.8571428571429</ele><time>2026-04-16T16:25:56.263Z</time></trkpt><trkpt lat="43.903955" lon="11.1382885"><ele>680.1428571428571</ele><time>2026-04-16T16:26:06.26Z</time></trkpt><trkpt lat="43.9038924" lon="11.1382584"><ele>679.4285714285714</ele><time>2026-04-16T16:26:14.261Z</time></trkpt><trkpt lat="43.9038311" lon="11.1382238"><ele>678.7142857142857</ele><time>2026-04-16T16:26:22.265Z</time></trkpt><trkpt lat="43.9037665" lon="11.1382021"><ele>678.0</ele><time>2026-04-16T16:26:30.256Z</time></trkpt><trkpt lat="43.9037024" lon="11.1381633"><ele>675.2857142857142</ele><time>2026-04-16T16:26:39.251Z</time></trkpt><trkpt lat="43.9036581" lon="11.1380981"><ele>672.5714285714287</ele><time>2026-04-16T16:26:50.254Z</time></trkpt><trkpt lat="43.9036179" lon="11.1380263"><ele>669.8571428571429</ele><time>2026-04-16T16:27:01.255Z</time></trkpt><trkpt lat="43.9035796" lon="11.1379546"><ele>667.1428571428571</ele><time>2026-04-16T16:27:09.26Z</time></trkpt><trkpt lat="43.9035335" lon="11.1378855"><ele>664.4285714285713</ele><time>2026-04-16T16:27:17.119Z</time></trkpt><trkpt lat="43.9034806" lon="11.1378247"><ele>661.7142857142858</ele><time>2026-04-16T16:27:27.259Z</time></trkpt><trkpt lat="43.9034212" lon="11.1377871"><ele>659.0</ele><time>2026-04-16T16:27:35.257Z</time></trkpt><trkpt lat="43.9033565" lon="11.1377429"><ele>658.2857142857143</ele><time>2026-04-16T16:27:43.262Z</time></trkpt><trkpt lat="43.9032977" lon="11.1377015"><ele>657.5714285714286</ele><time>2026-04-16T16:27:50.258Z</time></trkpt><trkpt lat="43.9032379" lon="11.1376556"><ele>656.8571428571429</ele><time>2026-04-16T16:27:59.267Z</time></trkpt><trkpt lat="43.9031925" lon="11.1375871"><ele>656.1428571428571</ele><time>2026-04-16T16:28:07.255Z</time></trkpt><trkpt lat="43.9031556" lon="11.1375053"><ele>655.4285714285714</ele><time>2026-04-16T16:28:14.261Z</time></trkpt><trkpt lat="43.9031104" lon="11.1374378"><ele>654.7142857142857</ele><time>2026-04-16T16:28:25.266Z</time></trkpt><trkpt lat="43.903074" lon="11.1373625"><ele>654.0</ele><time>2026-04-16T16:28:32.265Z</time></trkpt><trkpt lat="43.9030135" lon="11.1373127"><ele>651.0</ele><time>2026-04-16T16:28:38.261Z</time></trkpt><trkpt lat="43.9029682" lon="11.1372464"><ele>648.0</ele><time>2026-04-16T16:28:47.261Z</time></trkpt><trkpt lat="43.9029126" lon="11.1371926"><ele>645.0</ele><time>2026-04-16T16:28:55.165Z</time></trkpt><trkpt lat="43.9028546" lon="11.1371325"><ele>642.0</ele><time>2026-04-16T16:29:01.239Z</time></trkpt><trkpt lat="43.9028017" lon="11.137084"><ele>639.0</ele><time>2026-04-16T16:29:08.168Z</time></trkpt><trkpt lat="43.9027413" lon="11.1370309"><ele>636.0</ele><time>2026-04-16T16:29:16.26Z</time></trkpt><trkpt lat="43.9026756" lon="11.1370038"><ele>633.0</ele><time>2026-04-16T16:29:24.253Z</time></trkpt><trkpt lat="43.9026183" lon="11.1369624"><ele>632.7142857142857</ele><time>2026-04-16T16:29:33.256Z</time></trkpt><trkpt lat="43.902556" lon="11.1369234"><ele>632.4285714285714</ele><time>2026-04-16T16:29:41.264Z</time></trkpt><trkpt lat="43.9024903" lon="11.1368893"><ele>632.1428571428571</ele><time>2026-04-16T16:29:49.266Z</time></trkpt><trkpt lat="43.9024271" lon="11.1368619"><ele>631.8571428571429</ele><time>2026-04-16T16:29:55.263Z</time></trkpt><trkpt lat="43.9023742" lon="11.1368014"><ele>631.5714285714286</ele><time>2026-04-16T16:30:04.201Z</time></trkpt><trkpt lat="43.9023138" lon="11.1367672"><ele>631.2857142857143</ele><time>2026-04-16T16:30:11.2Z</time></trkpt><trkpt lat="43.9022681" lon="11.1366997"><ele>631.0</ele><time>2026-04-16T16:30:22.266Z</time></trkpt><trkpt lat="43.9022073" lon="11.136653"><ele>631.0</ele><time>2026-04-16T16:30:30.26Z</time></trkpt><trkpt lat="43.9021684" lon="11.1365746"><ele>631.0</ele><time>2026-04-16T16:30:38.256Z</time></trkpt><trkpt lat="43.9021146" lon="11.1365134"><ele>631.0</ele><time>2026-04-16T16:30:44.262Z</time></trkpt><trkpt lat="43.9020695" lon="11.1364522"><ele>631.0</ele><time>2026-04-16T16:30:54.139Z</time></trkpt><trkpt lat="43.9020239" lon="11.1363831"><ele>631.0</ele><time>2026-04-16T16:31:02.265Z</time></trkpt><trkpt lat="43.9019718" lon="11.1363124"><ele>631.0</ele><time>2026-04-16T16:31:08.264Z</time></trkpt><trkpt lat="43.90192" lon="11.1362591"><ele>631.0</ele><time>2026-04-16T16:31:15.262Z</time></trkpt><trkpt lat="43.9018647" lon="11.1361989"><ele>628.4285714285714</ele><time>2026-04-16T16:31:23.26Z</time></trkpt><trkpt lat="43.9018196" lon="11.1361369"><ele>625.8571428571428</ele><time>2026-04-16T16:31:29.259Z</time></trkpt><trkpt lat="43.9018063" lon="11.1360429"><ele>623.2857142857142</ele><time>2026-04-16T16:31:37.255Z</time></trkpt><trkpt lat="43.901761" lon="11.1359787"><ele>620.7142857142858</ele><time>2026-04-16T16:31:47.265Z</time></trkpt><trkpt lat="43.9016999" lon="11.135933"><ele>618.1428571428571</ele><time>2026-04-16T16:31:56.263Z</time></trkpt><trkpt lat="43.9016626" lon="11.1358558"><ele>615.5714285714286</ele><time>2026-04-16T16:32:07.248Z</time></trkpt><trkpt lat="43.9016161" lon="11.1357915"><ele>613.0</ele><time>2026-04-16T16:32:14.253Z</time></trkpt><trkpt lat="43.9015656" lon="11.1357372"><ele>609.5714285714286</ele><time>2026-04-16T16:32:22.259Z</time></trkpt><trkpt lat="43.9015398" lon="11.135657"><ele>606.1428571428571</ele><time>2026-04-16T16:32:36.255Z</time></trkpt><trkpt lat="43.9014913" lon="11.1355818"><ele>602.7142857142857</ele><time>2026-04-16T16:32:45.254Z</time></trkpt><trkpt lat="43.9014521" lon="11.1355067"><ele>599.2857142857142</ele><time>2026-04-16T16:32:52.266Z</time></trkpt><trkpt lat="43.901391" lon="11.1354573"><ele>595.8571428571428</ele><time>2026-04-16T16:33:00.257Z</time></trkpt><trkpt lat="43.9013343" lon="11.135404"><ele>592.4285714285714</ele><time>2026-04-16T16:33:09.254Z</time></trkpt><trkpt lat="43.9012623" lon="11.1353282"><ele>589.0</ele><time>2026-04-16T16:33:32.26Z</time></trkpt><trkpt lat="43.9012212" lon="11.1352593"><ele>589.0</ele><time>2026-04-16T16:33:42.251Z</time></trkpt><trkpt lat="43.9011917" lon="11.1351749"><ele>589.0</ele><time>2026-04-16T16:33:56.255Z</time></trkpt><trkpt lat="43.901151" lon="11.135103"><ele>589.0</ele><time>2026-04-16T16:34:11.24Z</time></trkpt><trkpt lat="43.9010932" lon="11.1350594"><ele>589.0</ele><time>2026-04-16T16:34:21.247Z</time></trkpt><trkpt lat="43.9010213" lon="11.1350421"><ele>589.0</ele><time>2026-04-16T16:34:40.233Z</time></trkpt><trkpt lat="43.9009397" lon="11.1350245"><ele>589.0</ele><time>2026-04-16T16:34:58.25Z</time></trkpt><trkpt lat="43.9009" lon="11.1349536"><ele>589.0</ele><time>2026-04-16T16:35:08.256Z</time></trkpt><trkpt lat="43.9008526" lon="11.1348956"><ele>586.8571428571429</ele><time>2026-04-16T16:35:19.242Z</time></trkpt><trkpt lat="43.9008202" lon="11.1348179"><ele>584.7142857142857</ele><time>2026-04-16T16:35:31.161Z</time></trkpt><trkpt lat="43.9007459" lon="11.1348134"><ele>582.5714285714286</ele><time>2026-04-16T16:35:49.234Z</time></trkpt><trkpt lat="43.9006875" lon="11.1348573"><ele>580.4285714285714</ele><time>2026-04-16T16:35:59.236Z</time></trkpt><trkpt lat="43.900619" lon="11.1348538"><ele>578.2857142857142</ele><time>2026-04-16T16:36:11.236Z</time></trkpt><trkpt lat="43.9005626" lon="11.1349019"><ele>576.1428571428571</ele><time>2026-04-16T16:36:19.242Z</time></trkpt><trkpt lat="43.9004973" lon="11.1348768"><ele>574.0</ele><time>2026-04-16T16:36:33.221Z</time></trkpt><trkpt lat="43.900447" lon="11.1348164"><ele>571.1428571428571</ele><time>2026-04-16T16:36:46.21Z</time></trkpt><trkpt lat="43.9003941" lon="11.1347616"><ele>568.2857142857142</ele><time>2026-04-16T16:36:59.196Z</time></trkpt><trkpt lat="43.9003285" lon="11.1348048"><ele>565.4285714285714</ele><time>2026-04-16T16:37:08.206Z</time></trkpt><trkpt lat="43.9002507" lon="11.1348297"><ele>562.5714285714286</ele><time>2026-04-16T16:37:19.21Z</time></trkpt><trkpt lat="43.9001909" lon="11.134795"><ele>559.7142857142857</ele><time>2026-04-16T16:37:27.209Z</time></trkpt><trkpt lat="43.9001279" lon="11.1348002"><ele>556.8571428571429</ele><time>2026-04-16T16:37:36.204Z</time></trkpt><trkpt lat="43.9000615" lon="11.1348206"><ele>554.0</ele><time>2026-04-16T16:37:43.214Z</time></trkpt><trkpt lat="43.9000141" lon="11.1348905"><ele>553.5714285714286</ele><time>2026-04-16T16:37:50.187Z</time></trkpt><trkpt lat="43.899953" lon="11.1349291"><ele>553.1428571428571</ele><time>2026-04-16T16:37:59.208Z</time></trkpt><trkpt lat="43.8999044" lon="11.1349866"><ele>552.7142857142857</ele><time>2026-04-16T16:38:06.197Z</time></trkpt><trkpt lat="43.8998343" lon="11.1350194"><ele>552.2857142857142</ele><time>2026-04-16T16:38:13.139Z</time></trkpt><trkpt lat="43.899765" lon="11.1350235"><ele>551.8571428571429</ele><time>2026-04-16T16:38:18.201Z</time></trkpt><trkpt lat="43.8997057" lon="11.1350564"><ele>551.4285714285713</ele><time>2026-04-16T16:38:26.209Z</time></trkpt><trkpt lat="43.8995989" lon="11.1350369"><ele>551.0</ele><time>2026-04-16T16:38:35.211Z</time></trkpt><trkpt lat="43.8995325" lon="11.1350476"><ele>550.9999999999999</ele><time>2026-04-16T16:38:40.206Z</time></trkpt><trkpt lat="43.8994591" lon="11.1350653"><ele>551.0</ele><time>2026-04-16T16:38:46.21Z</time></trkpt><trkpt lat="43.8993968" lon="11.1350245"><ele>551.0</ele><time>2026-04-16T16:38:53.206Z</time></trkpt><trkpt lat="43.8993087" lon="11.1350383"><ele>551.0</ele><time>2026-04-16T16:38:57.193Z</time></trkpt><trkpt lat="43.8992469" lon="11.1350052"><ele>551.0</ele><time>2026-04-16T16:39:01.198Z</time></trkpt><trkpt lat="43.8991899" lon="11.1349669"><ele>550.9999999999999</ele><time>2026-04-16T16:39:11.204Z</time></trkpt><trkpt lat="43.8991288" lon="11.1349363"><ele>551.0</ele><time>2026-04-16T16:39:20.205Z</time></trkpt><trkpt lat="43.8991112" lon="11.1348485"><ele>550.5714285714286</ele><time>2026-04-16T16:39:27.206Z</time></trkpt><trkpt lat="43.8990694" lon="11.1347666"><ele>550.1428571428571</ele><time>2026-04-16T16:39:34.2Z</time></trkpt><trkpt lat="43.8990258" lon="11.1347005"><ele>549.7142857142858</ele><time>2026-04-16T16:39:40.165Z</time></trkpt><trkpt lat="43.8989617" lon="11.1346676"><ele>549.2857142857142</ele><time>2026-04-16T16:39:45.212Z</time></trkpt><trkpt lat="43.8989016" lon="11.1346251"><ele>548.8571428571429</ele><time>2026-04-16T16:39:50.216Z</time></trkpt><trkpt lat="43.8988525" lon="11.1345629"><ele>548.4285714285714</ele><time>2026-04-16T16:39:56.223Z</time></trkpt><trkpt lat="43.8988074" lon="11.1344847"><ele>548.0</ele><time>2026-04-16T16:40:02.211Z</time></trkpt><trkpt lat="43.8987645" lon="11.1344116"><ele>548.0000000000001</ele><time>2026-04-16T16:40:08.208Z</time></trkpt><trkpt lat="43.8987089" lon="11.1343522"><ele>548.0</ele><time>2026-04-16T16:40:14.107Z</time></trkpt><trkpt lat="43.8986406" lon="11.1343236"><ele>548.0</ele><time>2026-04-16T16:40:22.106Z</time></trkpt><trkpt lat="43.8985755" lon="11.1342832"><ele>548.0</ele><time>2026-04-16T16:40:34.212Z</time></trkpt><trkpt lat="43.8985086" lon="11.1343025"><ele>548.0</ele><time>2026-04-16T16:40:41.143Z</time></trkpt><trkpt lat="43.8984745" lon="11.1343859"><ele>548.0000000000001</ele><time>2026-04-16T16:40:49.121Z</time></trkpt><trkpt lat="43.8984375" lon="11.134461"><ele>548.0</ele><time>2026-04-16T16:40:56.221Z</time></trkpt><trkpt lat="43.8983796" lon="11.1345106"><ele>548.4285714285714</ele><time>2026-04-16T16:41:03.207Z</time></trkpt><trkpt lat="43.8983166" lon="11.1345235"><ele>548.8571428571429</ele><time>2026-04-16T16:41:13.184Z</time></trkpt><trkpt lat="43.8982534" lon="11.1345325"><ele>549.2857142857142</ele><time>2026-04-16T16:41:22.182Z</time></trkpt><trkpt lat="43.8981891" lon="11.134542"><ele>549.7142857142858</ele><time>2026-04-16T16:41:30.209Z</time></trkpt><trkpt lat="43.898125" lon="11.1345318"><ele>550.1428571428571</ele><time>2026-04-16T16:41:39.195Z</time></trkpt><trkpt lat="43.8980526" lon="11.1345145"><ele>550.5714285714286</ele><time>2026-04-16T16:41:47.202Z</time></trkpt><trkpt lat="43.8979859" lon="11.1345343"><ele>551.0</ele><time>2026-04-16T16:41:54.2Z</time></trkpt><trkpt lat="43.8979236" lon="11.1345494"><ele>550.9999999999999</ele><time>2026-04-16T16:42:04.195Z</time></trkpt><trkpt lat="43.8978528" lon="11.1345856"><ele>551.0</ele><time>2026-04-16T16:42:11.208Z</time></trkpt><trkpt lat="43.8977847" lon="11.134573"><ele>551.0</ele><time>2026-04-16T16:42:17.147Z</time></trkpt><trkpt lat="43.8977295" lon="11.1345282"><ele>551.0</ele><time>2026-04-16T16:42:22.211Z</time></trkpt><trkpt lat="43.8976612" lon="11.1344626"><ele>551.0</ele><time>2026-04-16T16:42:28.208Z</time></trkpt><trkpt lat="43.8975936" lon="11.134464"><ele>550.9999999999999</ele><time>2026-04-16T16:42:36.202Z</time></trkpt><trkpt lat="43.8975682" lon="11.134545"><ele>551.0</ele><time>2026-04-16T16:42:49.194Z</time></trkpt><trkpt lat="43.8975523" lon="11.1346317"><ele>550.4285714285713</ele><time>2026-04-16T16:42:57.206Z</time></trkpt><trkpt lat="43.8975312" lon="11.1347207"><ele>549.8571428571429</ele><time>2026-04-16T16:43:05.205Z</time></trkpt><trkpt lat="43.8974765" lon="11.1347709"><ele>549.2857142857142</ele><time>2026-04-16T16:43:13.205Z</time></trkpt><trkpt lat="43.89742" lon="11.134811"><ele>548.7142857142857</ele><time>2026-04-16T16:43:20.206Z</time></trkpt><trkpt lat="43.8973523" lon="11.1348476"><ele>548.1428571428571</ele><time>2026-04-16T16:43:28.212Z</time></trkpt><trkpt lat="43.8972868" lon="11.1348733"><ele>547.5714285714286</ele><time>2026-04-16T16:43:36.21Z</time></trkpt><trkpt lat="43.8972423" lon="11.1349436"><ele>547.0</ele><time>2026-04-16T16:43:44.209Z</time></trkpt><trkpt lat="43.8971888" lon="11.1350013"><ele>547.0</ele><time>2026-04-16T16:43:50.188Z</time></trkpt><trkpt lat="43.897132" lon="11.1350637"><ele>547.0</ele><time>2026-04-16T16:43:57.208Z</time></trkpt><trkpt lat="43.8971003" lon="11.1351439"><ele>547.0</ele><time>2026-04-16T16:44:04.214Z</time></trkpt><trkpt lat="43.8970646" lon="11.1352271"><ele>547.0</ele><time>2026-04-16T16:44:16.213Z</time></trkpt><trkpt lat="43.8970356" lon="11.1353084"><ele>547.0</ele><time>2026-04-16T16:44:24.211Z</time></trkpt><trkpt lat="43.8969818" lon="11.1353539"><ele>547.0</ele><time>2026-04-16T16:44:33.207Z</time></trkpt><trkpt lat="43.8969113" lon="11.1353568"><ele>547.0</ele><time>2026-04-16T16:44:41.206Z</time></trkpt><trkpt lat="43.8968482" lon="11.1353618"><ele>547.0</ele><time>2026-04-16T16:44:47.208Z</time></trkpt><trkpt lat="43.8967852" lon="11.1353715"><ele>547.0</ele><time>2026-04-16T16:44:54.21Z</time></trkpt><trkpt lat="43.8967217" lon="11.1353984"><ele>547.0</ele><time>2026-04-16T16:45:05.186Z</time></trkpt><trkpt lat="43.8966767" lon="11.1354661"><ele>547.0</ele><time>2026-04-16T16:45:16.186Z</time></trkpt><trkpt lat="43.8966593" lon="11.1355604"><ele>547.0</ele><time>2026-04-16T16:45:25.079Z</time></trkpt><trkpt lat="43.8966842" lon="11.1356475"><ele>547.0</ele><time>2026-04-16T16:45:34.179Z</time></trkpt><trkpt lat="43.8967048" lon="11.1357345"><ele>547.0</ele><time>2026-04-16T16:45:41.179Z</time></trkpt><trkpt lat="43.8967245" lon="11.1358285"><ele>545.1428571428571</ele><time>2026-04-16T16:45:48.186Z</time></trkpt><trkpt lat="43.8967063" lon="11.1359139"><ele>543.2857142857142</ele><time>2026-04-16T16:45:57.18Z</time></trkpt><trkpt lat="43.8966875" lon="11.1360021"><ele>541.4285714285714</ele><time>2026-04-16T16:46:04.181Z</time></trkpt><trkpt lat="43.8966342" lon="11.1360542"><ele>539.5714285714286</ele><time>2026-04-16T16:46:15.175Z</time></trkpt><trkpt lat="43.8965835" lon="11.136121"><ele>537.7142857142858</ele><time>2026-04-16T16:46:23.108Z</time></trkpt><trkpt lat="43.8965363" lon="11.1361908"><ele>535.8571428571429</ele><time>2026-04-16T16:46:29.183Z</time></trkpt><trkpt lat="43.8965033" lon="11.1362806"><ele>534.0</ele><time>2026-04-16T16:46:36.177Z</time></trkpt><trkpt lat="43.8964893" lon="11.1363692"><ele>534.0000000000001</ele><time>2026-04-16T16:46:43.175Z</time></trkpt><trkpt lat="43.8964728" lon="11.1364636"><ele>534.0</ele><time>2026-04-16T16:46:49.176Z</time></trkpt><trkpt lat="43.8964626" lon="11.1365504"><ele>534.0</ele><time>2026-04-16T16:46:56.178Z</time></trkpt><trkpt lat="43.896469" lon="11.1366517"><ele>534.0</ele><time>2026-04-16T16:47:04.182Z</time></trkpt><trkpt lat="43.8964897" lon="11.1367452"><ele>534.0</ele><time>2026-04-16T16:47:11.183Z</time></trkpt><trkpt lat="43.896508" lon="11.1368451"><ele>534.0000000000001</ele><time>2026-04-16T16:47:17.187Z</time></trkpt><trkpt lat="43.8965109" lon="11.1369353"><ele>534.0</ele><time>2026-04-16T16:47:22.185Z</time></trkpt><trkpt lat="43.8965184" lon="11.1370323"><ele>533.0000000000001</ele><time>2026-04-16T16:47:28.1Z</time></trkpt><trkpt lat="43.896543" lon="11.1371139"><ele>532.0</ele><time>2026-04-16T16:47:34.174Z</time></trkpt><trkpt lat="43.8965616" lon="11.1372086"><ele>531.0</ele><time>2026-04-16T16:47:41.183Z</time></trkpt><trkpt lat="43.8965479" lon="11.1373141"><ele>530.0</ele><time>2026-04-16T16:47:47.179Z</time></trkpt><trkpt lat="43.8965596" lon="11.1374077"><ele>529.0</ele><time>2026-04-16T16:47:52.184Z</time></trkpt><trkpt lat="43.8965735" lon="11.137506"><ele>528.0000000000001</ele><time>2026-04-16T16:47:58.181Z</time></trkpt><trkpt lat="43.8965878" lon="11.1376001"><ele>527.0</ele><time>2026-04-16T16:48:04.171Z</time></trkpt><trkpt lat="43.8965677" lon="11.1376969"><ele>526.4285714285714</ele><time>2026-04-16T16:48:11.181Z</time></trkpt><trkpt lat="43.8965491" lon="11.1377842"><ele>525.8571428571429</ele><time>2026-04-16T16:48:16.128Z</time></trkpt><trkpt lat="43.896514" lon="11.1378651"><ele>525.2857142857142</ele><time>2026-04-16T16:48:22.188Z</time></trkpt><trkpt lat="43.8964997" lon="11.137954"><ele>524.7142857142858</ele><time>2026-04-16T16:48:28.179Z</time></trkpt><trkpt lat="43.8964718" lon="11.1380482"><ele>524.1428571428571</ele><time>2026-04-16T16:48:34.179Z</time></trkpt><trkpt lat="43.8964427" lon="11.1381326"><ele>523.5714285714286</ele><time>2026-04-16T16:48:39.183Z</time></trkpt><trkpt lat="43.8963956" lon="11.1382168"><ele>523.0</ele><time>2026-04-16T16:48:44.177Z</time></trkpt><trkpt lat="43.8963502" lon="11.1382898"><ele>522.7142857142857</ele><time>2026-04-16T16:48:49.179Z</time></trkpt><trkpt lat="43.8962979" lon="11.1383392"><ele>522.4285714285714</ele><time>2026-04-16T16:48:55.18Z</time></trkpt><trkpt lat="43.896244" lon="11.1384076"><ele>522.1428571428571</ele><time>2026-04-16T16:49:01.181Z</time></trkpt><trkpt lat="43.8961974" lon="11.1384786"><ele>521.8571428571429</ele><time>2026-04-16T16:49:07.178Z</time></trkpt><trkpt lat="43.8961504" lon="11.1385378"><ele>521.5714285714286</ele><time>2026-04-16T16:49:12.178Z</time></trkpt><trkpt lat="43.8960895" lon="11.1385907"><ele>521.2857142857142</ele><time>2026-04-16T16:49:18.187Z</time></trkpt><trkpt lat="43.8960658" lon="11.1386758"><ele>521.0</ele><time>2026-04-16T16:49:27.177Z</time></trkpt><trkpt lat="43.8960281" lon="11.1387654"><ele>521.0</ele><time>2026-04-16T16:49:34.104Z</time></trkpt><trkpt lat="43.896008" lon="11.1388648"><ele>521.0</ele><time>2026-04-16T16:49:41.185Z</time></trkpt><trkpt lat="43.8960462" lon="11.1389403"><ele>521.0</ele><time>2026-04-16T16:49:44.187Z</time></trkpt><trkpt lat="43.8960415" lon="11.1390329"><ele>521.0</ele><time>2026-04-16T16:49:51.184Z</time></trkpt><trkpt lat="43.8960281" lon="11.1391283"><ele>521.0</ele><time>2026-04-16T16:49:58.174Z</time></trkpt><trkpt lat="43.8960138" lon="11.1392195"><ele>521.0</ele><time>2026-04-16T16:50:05.172Z</time></trkpt><trkpt lat="43.8959866" lon="11.139302"><ele>521.0</ele><time>2026-04-16T16:50:14.179Z</time></trkpt><trkpt lat="43.8959749" lon="11.1393944"><ele>520.3333333333333</ele><time>2026-04-16T16:50:23.17Z</time></trkpt><trkpt lat="43.8959513" lon="11.1394796"><ele>519.6666666666666</ele><time>2026-04-16T16:50:30.148Z</time></trkpt><trkpt lat="43.8958884" lon="11.1395264"><ele>519.0</ele><time>2026-04-16T16:50:36.145Z</time></trkpt><trkpt lat="43.8957907" lon="11.1395171"><ele>518.3333333333334</ele><time>2026-04-16T16:50:45.175Z</time></trkpt><trkpt lat="43.8957255" lon="11.1395035"><ele>517.6666666666667</ele><time>2026-04-16T16:50:50.155Z</time></trkpt><trkpt lat="43.8957119" lon="11.1394142"><ele>517.0</ele><time>2026-04-16T16:51:02.117Z</time></trkpt><trkpt lat="43.895626" lon="11.1393996"><ele>517.0</ele><time>2026-04-16T16:51:07.171Z</time></trkpt><trkpt lat="43.8955718" lon="11.1393492"><ele>517.0</ele><time>2026-04-16T16:51:12.178Z</time></trkpt><trkpt lat="43.8955167" lon="11.1392942"><ele>517.0</ele><time>2026-04-16T16:51:18.169Z</time></trkpt><trkpt lat="43.8954656" lon="11.1392228"><ele>517.0</ele><time>2026-04-16T16:51:24.174Z</time></trkpt><trkpt lat="43.8954416" lon="11.1391379"><ele>517.0</ele><time>2026-04-16T16:51:29.151Z</time></trkpt><trkpt lat="43.8954144" lon="11.1390493"><ele>517.0</ele><time>2026-04-16T16:51:37.173Z</time></trkpt><trkpt lat="43.8953736" lon="11.1389818"><ele>517.0</ele><time>2026-04-16T16:51:43.179Z</time></trkpt><trkpt lat="43.8953326" lon="11.1389061"><ele>518.0</ele><time>2026-04-16T16:51:49.166Z</time></trkpt><trkpt lat="43.8952869" lon="11.1388316"><ele>519.0</ele><time>2026-04-16T16:51:54.175Z</time></trkpt><trkpt lat="43.8952533" lon="11.1387428"><ele>520.0</ele><time>2026-04-16T16:52:00.173Z</time></trkpt><trkpt lat="43.8952208" lon="11.1386545"><ele>521.0</ele><time>2026-04-16T16:52:05.165Z</time></trkpt><trkpt lat="43.8951906" lon="11.138572"><ele>522.0</ele><time>2026-04-16T16:52:10.145Z</time></trkpt><trkpt lat="43.895171" lon="11.1384777"><ele>523.0</ele><time>2026-04-16T16:52:15.157Z</time></trkpt><trkpt lat="43.8951528" lon="11.1383769"><ele>524.0</ele><time>2026-04-16T16:52:21.159Z</time></trkpt><trkpt lat="43.8951309" lon="11.1382771"><ele>524.7142857142858</ele><time>2026-04-16T16:52:27.157Z</time></trkpt><trkpt lat="43.8951055" lon="11.138196"><ele>525.4285714285714</ele><time>2026-04-16T16:52:32.151Z</time></trkpt><trkpt lat="43.8950879" lon="11.1381098"><ele>526.1428571428571</ele><time>2026-04-16T16:52:36.901Z</time></trkpt><trkpt lat="43.8950813" lon="11.1380219"><ele>526.8571428571429</ele><time>2026-04-16T16:52:42.158Z</time></trkpt><trkpt lat="43.8950662" lon="11.1379233"><ele>527.5714285714286</ele><time>2026-04-16T16:52:49.146Z</time></trkpt><trkpt lat="43.8950512" lon="11.137828"><ele>528.2857142857143</ele><time>2026-04-16T16:52:57.154Z</time></trkpt><trkpt lat="43.8950317" lon="11.1377341"><ele>529.0</ele><time>2026-04-16T16:53:03.152Z</time></trkpt><trkpt lat="43.8950117" lon="11.1376475"><ele>527.4285714285714</ele><time>2026-04-16T16:53:08.084Z</time></trkpt><trkpt lat="43.8949922" lon="11.1375625"><ele>525.8571428571429</ele><time>2026-04-16T16:53:13.148Z</time></trkpt><trkpt lat="43.8949772" lon="11.1374664"><ele>524.2857142857142</ele><time>2026-04-16T16:53:20.155Z</time></trkpt><trkpt lat="43.8949543" lon="11.1373807"><ele>522.7142857142858</ele><time>2026-04-16T16:53:25.152Z</time></trkpt><trkpt lat="43.8949001" lon="11.1373146"><ele>521.1428571428571</ele><time>2026-04-16T16:53:31.153Z</time></trkpt><trkpt lat="43.894842" lon="11.13727"><ele>519.5714285714286</ele><time>2026-04-16T16:53:37.152Z</time></trkpt><trkpt lat="43.8947893" lon="11.1372185"><ele>518.0</ele><time>2026-04-16T16:53:43.126Z</time></trkpt><trkpt lat="43.8947423" lon="11.1371567"><ele>518.0</ele><time>2026-04-16T16:53:49.148Z</time></trkpt><trkpt lat="43.8946907" lon="11.1370972"><ele>518.0</ele><time>2026-04-16T16:53:57.14Z</time></trkpt><trkpt lat="43.8946344" lon="11.1370493"><ele>518.0</ele><time>2026-04-16T16:54:06.152Z</time></trkpt><trkpt lat="43.8945744" lon="11.1370007"><ele>518.0</ele><time>2026-04-16T16:54:14.146Z</time></trkpt><trkpt lat="43.8945261" lon="11.1369403"><ele>518.0</ele><time>2026-04-16T16:54:19.148Z</time></trkpt><trkpt lat="43.8944901" lon="11.1368498"><ele>518.0</ele><time>2026-04-16T16:54:24.151Z</time></trkpt><trkpt lat="43.8944631" lon="11.1367648"><ele>518.0</ele><time>2026-04-16T16:54:29.151Z</time></trkpt><trkpt lat="43.8944457" lon="11.1366722"><ele>518.0</ele><time>2026-04-16T16:54:35.142Z</time></trkpt><trkpt lat="43.8944236" lon="11.1365845"><ele>518.0</ele><time>2026-04-16T16:54:40.144Z</time></trkpt><trkpt lat="43.8944056" lon="11.1364919"><ele>518.0</ele><time>2026-04-16T16:54:45.151Z</time></trkpt><trkpt lat="43.894373" lon="11.136416"><ele>518.0</ele><time>2026-04-16T16:54:52.143Z</time></trkpt><trkpt lat="43.8943259" lon="11.1363387"><ele>518.0</ele><time>2026-04-16T16:55:00.082Z</time></trkpt><trkpt lat="43.8942792" lon="11.1362685"><ele>518.0</ele><time>2026-04-16T16:55:06.148Z</time></trkpt><trkpt lat="43.894226" lon="11.1361999"><ele>518.0</ele><time>2026-04-16T16:55:12.145Z</time></trkpt><trkpt lat="43.8941692" lon="11.1361342"><ele>516.0</ele><time>2026-04-16T16:55:18.138Z</time></trkpt><trkpt lat="43.8941027" lon="11.1360867"><ele>514.0</ele><time>2026-04-16T16:55:22.159Z</time></trkpt><trkpt lat="43.8940449" lon="11.1360386"><ele>512.0</ele><time>2026-04-16T16:55:27.153Z</time></trkpt><trkpt lat="43.8939855" lon="11.1359873"><ele>510.0</ele><time>2026-04-16T16:55:35.16Z</time></trkpt><trkpt lat="43.8939185" lon="11.1359572"><ele>508.0</ele><time>2026-04-16T16:55:42.083Z</time></trkpt><trkpt lat="43.8938526" lon="11.1359206"><ele>506.0</ele><time>2026-04-16T16:55:49.153Z</time></trkpt><trkpt lat="43.8937982" lon="11.13585"><ele>504.0</ele><time>2026-04-16T16:55:56.147Z</time></trkpt><trkpt lat="43.8937449" lon="11.1357954"><ele>504.57142857142856</ele><time>2026-04-16T16:56:01.151Z</time></trkpt><trkpt lat="43.8937167" lon="11.1357093"><ele>505.1428571428571</ele><time>2026-04-16T16:56:07.142Z</time></trkpt><trkpt lat="43.8936885" lon="11.1356262"><ele>505.7142857142857</ele><time>2026-04-16T16:56:13.144Z</time></trkpt><trkpt lat="43.8936829" lon="11.1355383"><ele>506.2857142857143</ele><time>2026-04-16T16:56:19.148Z</time></trkpt><trkpt lat="43.8937066" lon="11.1354509"><ele>506.85714285714283</ele><time>2026-04-16T16:56:25.142Z</time></trkpt><trkpt lat="43.8937291" lon="11.1353593"><ele>507.42857142857144</ele><time>2026-04-16T16:56:32.143Z</time></trkpt><trkpt lat="43.8937451" lon="11.1352653"><ele>508.0</ele><time>2026-04-16T16:56:38.128Z</time></trkpt><trkpt lat="43.8937269" lon="11.1351805"><ele>508.0</ele><time>2026-04-16T16:56:44.14Z</time></trkpt><trkpt lat="43.8937309" lon="11.1350859"><ele>508.0</ele><time>2026-04-16T16:56:52.147Z</time></trkpt><trkpt lat="43.8937157" lon="11.1349996"><ele>508.0</ele><time>2026-04-16T16:57:02.156Z</time></trkpt><trkpt lat="43.8936571" lon="11.1349462"><ele>508.0</ele><time>2026-04-16T16:57:09.148Z</time></trkpt><trkpt lat="43.893602" lon="11.1348797"><ele>508.0</ele><time>2026-04-16T16:57:14.157Z</time></trkpt><trkpt lat="43.8935395" lon="11.1348217"><ele>508.0</ele><time>2026-04-16T16:57:19.155Z</time></trkpt><trkpt lat="43.8934832" lon="11.1347775"><ele>508.0</ele><time>2026-04-16T16:57:24.157Z</time></trkpt><trkpt lat="43.8934251" lon="11.1347419"><ele>507.8571428571429</ele><time>2026-04-16T16:57:33.157Z</time></trkpt><trkpt lat="43.8933548" lon="11.1347482"><ele>507.71428571428567</ele><time>2026-04-16T16:57:40.16Z</time></trkpt><trkpt lat="43.8932879" lon="11.1347687"><ele>507.57142857142856</ele><time>2026-04-16T16:57:46.16Z</time></trkpt><trkpt lat="43.8932269" lon="11.1348017"><ele>507.42857142857144</ele><time>2026-04-16T16:57:51.154Z</time></trkpt><trkpt lat="43.8931694" lon="11.1348583"><ele>507.28571428571433</ele><time>2026-04-16T16:57:57.155Z</time></trkpt><trkpt lat="43.8931137" lon="11.1349073"><ele>507.1428571428571</ele><time>2026-04-16T16:58:02.145Z</time></trkpt><trkpt lat="43.8930536" lon="11.1349453"><ele>507.0</ele><time>2026-04-16T16:58:07.123Z</time></trkpt><trkpt lat="43.8929895" lon="11.1349907"><ele>507.2857142857143</ele><time>2026-04-16T16:58:14.156Z</time></trkpt><trkpt lat="43.8929183" lon="11.1350081"><ele>507.57142857142856</ele><time>2026-04-16T16:58:19.153Z</time></trkpt><trkpt lat="43.8928449" lon="11.1350206"><ele>507.85714285714283</ele><time>2026-04-16T16:58:23.151Z</time></trkpt><trkpt lat="43.8927761" lon="11.1350335"><ele>508.1428571428571</ele><time>2026-04-16T16:58:27.158Z</time></trkpt><trkpt lat="43.8927128" lon="11.1350557"><ele>508.42857142857144</ele><time>2026-04-16T16:58:32.137Z</time></trkpt><trkpt lat="43.8926513" lon="11.1350809"><ele>508.71428571428567</ele><time>2026-04-16T16:58:38.155Z</time></trkpt><trkpt lat="43.8925882" lon="11.1350818"><ele>508.99999999999994</ele><time>2026-04-16T16:58:43.138Z</time></trkpt><trkpt lat="43.8925243" lon="11.1350744"><ele>508.99999999999994</ele><time>2026-04-16T16:58:48.159Z</time></trkpt><trkpt lat="43.8924516" lon="11.1350589"><ele>509.0</ele><time>2026-04-16T16:58:53.078Z</time></trkpt><trkpt lat="43.8923825" lon="11.1350499"><ele>508.99999999999994</ele><time>2026-04-16T16:58:58.154Z</time></trkpt><trkpt lat="43.8923109" lon="11.1350385"><ele>508.99999999999994</ele><time>2026-04-16T16:59:04.119Z</time></trkpt><trkpt lat="43.8922481" lon="11.1350176"><ele>509.0</ele><time>2026-04-16T16:59:09.154Z</time></trkpt><trkpt lat="43.8921849" lon="11.1349772"><ele>508.99999999999994</ele><time>2026-04-16T16:59:16.156Z</time></trkpt><trkpt lat="43.8921297" lon="11.1349314"><ele>508.99999999999994</ele><time>2026-04-16T16:59:21.16Z</time></trkpt><trkpt lat="43.8920848" lon="11.1348695"><ele>509.1428571428571</ele><time>2026-04-16T16:59:26.161Z</time></trkpt><trkpt lat="43.8920315" lon="11.1348094"><ele>509.2857142857143</ele><time>2026-04-16T16:59:32.155Z</time></trkpt><trkpt lat="43.8919793" lon="11.1347382"><ele>509.42857142857144</ele><time>2026-04-16T16:59:38.062Z</time></trkpt><trkpt lat="43.8919289" lon="11.134662"><ele>509.57142857142856</ele><time>2026-04-16T16:59:44.155Z</time></trkpt><trkpt lat="43.8918909" lon="11.1345791"><ele>509.7142857142858</ele><time>2026-04-16T16:59:50.159Z</time></trkpt><trkpt lat="43.8918549" lon="11.1344967"><ele>509.8571428571429</ele><time>2026-04-16T16:59:55.152Z</time></trkpt><trkpt lat="43.8918251" lon="11.1344093"><ele>510.0</ele><time>2026-04-16T17:00:00.153Z</time></trkpt><trkpt lat="43.8917891" lon="11.134315"><ele>510.0</ele><time>2026-04-16T17:00:05.154Z</time></trkpt><trkpt lat="43.8917432" lon="11.1342421"><ele>510.00000000000006</ele><time>2026-04-16T17:00:11.16Z</time></trkpt><trkpt lat="43.8916972" lon="11.1341807"><ele>510.0</ele><time>2026-04-16T17:00:16.06Z</time></trkpt><trkpt lat="43.8916527" lon="11.1341045"><ele>510.0</ele><time>2026-04-16T17:00:22.125Z</time></trkpt><trkpt lat="43.8916" lon="11.1340401"><ele>510.00000000000006</ele><time>2026-04-16T17:00:28.157Z</time></trkpt><trkpt lat="43.8915509" lon="11.1339849"><ele>510.0</ele><time>2026-04-16T17:00:33.125Z</time></trkpt><trkpt lat="43.8914948" lon="11.1339295"><ele>510.0</ele><time>2026-04-16T17:00:40.155Z</time></trkpt><trkpt lat="43.8914676" lon="11.1338496"><ele>508.8571428571429</ele><time>2026-04-16T17:00:45.155Z</time></trkpt><trkpt lat="43.8914504" lon="11.1337629"><ele>507.7142857142858</ele><time>2026-04-16T17:00:50.143Z</time></trkpt><trkpt lat="43.8914467" lon="11.1336693"><ele>506.57142857142856</ele><time>2026-04-16T17:00:57.154Z</time></trkpt><trkpt lat="43.8914453" lon="11.1335764"><ele>505.42857142857144</ele><time>2026-04-16T17:01:03.144Z</time></trkpt><trkpt lat="43.8914241" lon="11.1334832"><ele>504.2857142857143</ele><time>2026-04-16T17:01:10.162Z</time></trkpt><trkpt lat="43.891359" lon="11.1334542"><ele>503.1428571428571</ele><time>2026-04-16T17:01:19.159Z</time></trkpt><trkpt lat="43.8912874" lon="11.1334552"><ele>501.99999999999994</ele><time>2026-04-16T17:01:26.159Z</time></trkpt><trkpt lat="43.891224" lon="11.1334632"><ele>501.99999999999994</ele><time>2026-04-16T17:01:32.158Z</time></trkpt><trkpt lat="43.8911535" lon="11.1334611"><ele>502.0</ele><time>2026-04-16T17:01:39.152Z</time></trkpt><trkpt lat="43.8910837" lon="11.1334647"><ele>501.99999999999994</ele><time>2026-04-16T17:01:45.154Z</time></trkpt><trkpt lat="43.8910149" lon="11.1334972"><ele>501.99999999999994</ele><time>2026-04-16T17:01:51.161Z</time></trkpt><trkpt lat="43.8909527" lon="11.1335254"><ele>502.0</ele><time>2026-04-16T17:01:57.155Z</time></trkpt><trkpt lat="43.8908866" lon="11.1335129"><ele>501.99999999999994</ele><time>2026-04-16T17:02:03.156Z</time></trkpt><trkpt lat="43.8908354" lon="11.1334463"><ele>501.99999999999994</ele><time>2026-04-16T17:02:08.163Z</time></trkpt><trkpt lat="43.8907991" lon="11.133348"><ele>501.2857142857142</ele><time>2026-04-16T17:02:14.143Z</time></trkpt><trkpt lat="43.890752" lon="11.1332769"><ele>500.57142857142856</ele><time>2026-04-16T17:02:21.163Z</time></trkpt><trkpt lat="43.8906995" lon="11.1332234"><ele>499.85714285714283</ele><time>2026-04-16T17:02:29.161Z</time></trkpt><trkpt lat="43.8906343" lon="11.1331916"><ele>499.1428571428571</ele><time>2026-04-16T17:02:40.16Z</time></trkpt><trkpt lat="43.8905613" lon="11.1331723"><ele>498.42857142857144</ele><time>2026-04-16T17:02:55.164Z</time></trkpt><trkpt lat="43.8904974" lon="11.1332014"><ele>497.7142857142857</ele><time>2026-04-16T17:03:02.08Z</time></trkpt><trkpt lat="43.8904336" lon="11.1331727"><ele>497.0</ele><time>2026-04-16T17:03:08.163Z</time></trkpt><trkpt lat="43.8903684" lon="11.1331419"><ele>496.1428571428571</ele><time>2026-04-16T17:03:13.104Z</time></trkpt><trkpt lat="43.8903" lon="11.1331096"><ele>495.2857142857143</ele><time>2026-04-16T17:03:18.166Z</time></trkpt><trkpt lat="43.8902439" lon="11.1330543"><ele>494.42857142857144</ele><time>2026-04-16T17:03:23.16Z</time></trkpt><trkpt lat="43.8901904" lon="11.1329956"><ele>493.57142857142856</ele><time>2026-04-16T17:03:29.108Z</time></trkpt><trkpt lat="43.8901419" lon="11.1329326"><ele>492.71428571428567</ele><time>2026-04-16T17:03:35.16Z</time></trkpt><trkpt lat="43.8900896" lon="11.1328744"><ele>491.85714285714283</ele><time>2026-04-16T17:03:41.12Z</time></trkpt><trkpt lat="43.8900225" lon="11.1328353"><ele>491.0</ele><time>2026-04-16T17:03:48.169Z</time></trkpt><trkpt lat="43.8899554" lon="11.1328134"><ele>491.0</ele><time>2026-04-16T17:03:53.158Z</time></trkpt><trkpt lat="43.8898846" lon="11.1327811"><ele>490.99999999999994</ele><time>2026-04-16T17:03:58.146Z</time></trkpt><trkpt lat="43.8898305" lon="11.1327362"><ele>491.0</ele><time>2026-04-16T17:04:03.151Z</time></trkpt><trkpt lat="43.8897777" lon="11.1326783"><ele>491.0</ele><time>2026-04-16T17:04:08.156Z</time></trkpt><trkpt lat="43.8897227" lon="11.1326087"><ele>490.99999999999994</ele><time>2026-04-16T17:04:14.159Z</time></trkpt><trkpt lat="43.8896601" lon="11.1325592"><ele>491.0</ele><time>2026-04-16T17:04:20.16Z</time></trkpt><trkpt lat="43.8895928" lon="11.1325583"><ele>491.0</ele><time>2026-04-16T17:04:25.763Z</time></trkpt><trkpt lat="43.8895248" lon="11.1325728"><ele>491.0</ele><time>2026-04-16T17:04:32.16Z</time></trkpt><trkpt lat="43.8894529" lon="11.1325576"><ele>490.99999999999994</ele><time>2026-04-16T17:04:38.16Z</time></trkpt><trkpt lat="43.8893911" lon="11.1325216"><ele>491.0</ele><time>2026-04-16T17:04:49.154Z</time></trkpt><trkpt lat="43.8893354" lon="11.1324763"><ele>491.0</ele><time>2026-04-16T17:04:57.124Z</time></trkpt><trkpt lat="43.8892675" lon="11.1324681"><ele>490.99999999999994</ele><time>2026-04-16T17:05:03.158Z</time></trkpt><trkpt lat="43.8891979" lon="11.1324616"><ele>491.0</ele><time>2026-04-16T17:05:08.157Z</time></trkpt><trkpt lat="43.8891339" lon="11.1324462"><ele>491.0</ele><time>2026-04-16T17:05:13.149Z</time></trkpt><trkpt lat="43.8890726" lon="11.1324209"><ele>491.2857142857143</ele><time>2026-04-16T17:05:18.066Z</time></trkpt><trkpt lat="43.8890012" lon="11.1323967"><ele>491.57142857142856</ele><time>2026-04-16T17:05:23.099Z</time></trkpt><trkpt lat="43.8889314" lon="11.1323976"><ele>491.85714285714283</ele><time>2026-04-16T17:05:29.155Z</time></trkpt><trkpt lat="43.8888635" lon="11.1324144"><ele>492.1428571428571</ele><time>2026-04-16T17:05:35.145Z</time></trkpt><trkpt lat="43.8887979" lon="11.1324564"><ele>492.42857142857144</ele><time>2026-04-16T17:05:42.149Z</time></trkpt><trkpt lat="43.8887497" lon="11.1325201"><ele>492.71428571428567</ele><time>2026-04-16T17:05:48.147Z</time></trkpt><trkpt lat="43.8887156" lon="11.1326098"><ele>493.0</ele><time>2026-04-16T17:05:54.149Z</time></trkpt><trkpt lat="43.8886893" lon="11.1326901"><ele>493.0</ele><time>2026-04-16T17:06:00.153Z</time></trkpt><trkpt lat="43.8886472" lon="11.1327682"><ele>493.0</ele><time>2026-04-16T17:06:06.137Z</time></trkpt><trkpt lat="43.8885861" lon="11.1328187"><ele>493.0</ele><time>2026-04-16T17:06:11.143Z</time></trkpt><trkpt lat="43.8885245" lon="11.1328422"><ele>493.0</ele><time>2026-04-16T17:06:17.153Z</time></trkpt><trkpt lat="43.888462" lon="11.1328549"><ele>493.0</ele><time>2026-04-16T17:06:22.157Z</time></trkpt><trkpt lat="43.8883985" lon="11.1328631"><ele>493.0</ele><time>2026-04-16T17:06:28.15Z</time></trkpt><trkpt lat="43.88834" lon="11.1328982"><ele>493.0</ele><time>2026-04-16T17:06:33.146Z</time></trkpt><trkpt lat="43.8882704" lon="11.1329221"><ele>493.1428571428571</ele><time>2026-04-16T17:06:38.153Z</time></trkpt><trkpt lat="43.8882063" lon="11.1329417"><ele>493.28571428571433</ele><time>2026-04-16T17:06:43.156Z</time></trkpt><trkpt lat="43.8881378" lon="11.1329453"><ele>493.42857142857144</ele><time>2026-04-16T17:06:49.15Z</time></trkpt><trkpt lat="43.8880694" lon="11.1329148"><ele>493.57142857142856</ele><time>2026-04-16T17:06:55.157Z</time></trkpt><trkpt lat="43.8880058" lon="11.1328845"><ele>493.71428571428567</ele><time>2026-04-16T17:07:01.16Z</time></trkpt><trkpt lat="43.8879394" lon="11.1328507"><ele>493.8571428571429</ele><time>2026-04-16T17:07:07.161Z</time></trkpt><trkpt lat="43.887874" lon="11.1328257"><ele>494.0</ele><time>2026-04-16T17:07:13.162Z</time></trkpt><trkpt lat="43.8878084" lon="11.1328041"><ele>494.0</ele><time>2026-04-16T17:07:20.142Z</time></trkpt><trkpt lat="43.8877456" lon="11.1327544"><ele>494.0</ele><time>2026-04-16T17:07:26.156Z</time></trkpt><trkpt lat="43.8877091" lon="11.1326737"><ele>494.0</ele><time>2026-04-16T17:07:31.156Z</time></trkpt><trkpt lat="43.8876714" lon="11.1325884"><ele>494.0</ele><time>2026-04-16T17:07:37.154Z</time></trkpt><trkpt lat="43.8876355" lon="11.1324991"><ele>494.0</ele><time>2026-04-16T17:07:43.125Z</time></trkpt><trkpt lat="43.8875936" lon="11.1324317"><ele>494.0</ele><time>2026-04-16T17:07:48.157Z</time></trkpt><trkpt lat="43.8875328" lon="11.1324003"><ele>494.0</ele><time>2026-04-16T17:07:54.156Z</time></trkpt><trkpt lat="43.8874632" lon="11.1323742"><ele>492.7142857142857</ele><time>2026-04-16T17:08:00.151Z</time></trkpt><trkpt lat="43.887399" lon="11.1323396"><ele>491.42857142857144</ele><time>2026-04-16T17:08:05.15Z</time></trkpt><trkpt lat="43.8873366" lon="11.132284"><ele>490.14285714285717</ele><time>2026-04-16T17:08:10.101Z</time></trkpt><trkpt lat="43.8872853" lon="11.1322197"><ele>488.8571428571429</ele><time>2026-04-16T17:08:15.153Z</time></trkpt><trkpt lat="43.8872498" lon="11.1321364"><ele>487.57142857142856</ele><time>2026-04-16T17:08:21.162Z</time></trkpt><trkpt lat="43.8872151" lon="11.1320609"><ele>486.28571428571433</ele><time>2026-04-16T17:08:27.156Z</time></trkpt><trkpt lat="43.8871778" lon="11.1319873"><ele>485.00000000000006</ele><time>2026-04-16T17:08:32.154Z</time></trkpt><trkpt lat="43.8871161" lon="11.1319309"><ele>485.00000000000006</ele><time>2026-04-16T17:08:38.079Z</time></trkpt><trkpt lat="43.8870618" lon="11.1318819"><ele>485.0</ele><time>2026-04-16T17:08:44.153Z</time></trkpt><trkpt lat="43.8870016" lon="11.1318309"><ele>485.00000000000006</ele><time>2026-04-16T17:08:51.163Z</time></trkpt><trkpt lat="43.8869417" lon="11.1317992"><ele>485.00000000000006</ele><time>2026-04-16T17:08:57.155Z</time></trkpt><trkpt lat="43.8868764" lon="11.1317486"><ele>485.0</ele><time>2026-04-16T17:09:05.086Z</time></trkpt><trkpt lat="43.886817" lon="11.131718"><ele>485.00000000000006</ele><time>2026-04-16T17:09:10.154Z</time></trkpt><trkpt lat="43.8867569" lon="11.1316841"><ele>485.00000000000006</ele><time>2026-04-16T17:09:16.152Z</time></trkpt><trkpt lat="43.8866927" lon="11.1316665"><ele>485.00000000000006</ele><time>2026-04-16T17:09:21.156Z</time></trkpt><trkpt lat="43.8866257" lon="11.1316393"><ele>485.0</ele><time>2026-04-16T17:09:27.127Z</time></trkpt><trkpt lat="43.8865525" lon="11.1316324"><ele>485.00000000000006</ele><time>2026-04-16T17:09:33.167Z</time></trkpt><trkpt lat="43.8864865" lon="11.131635"><ele>485.00000000000006</ele><time>2026-04-16T17:09:39.162Z</time></trkpt><trkpt lat="43.8864236" lon="11.1316198"><ele>485.0</ele><time>2026-04-16T17:09:44.162Z</time></trkpt><trkpt lat="43.8863578" lon="11.1316051"><ele>485.00000000000006</ele><time>2026-04-16T17:09:50.164Z</time></trkpt><trkpt lat="43.8862915" lon="11.1315765"><ele>485.00000000000006</ele><time>2026-04-16T17:09:56.168Z</time></trkpt><trkpt lat="43.8862273" lon="11.1315352"><ele>483.4285714285715</ele><time>2026-04-16T17:10:02.16Z</time></trkpt><trkpt lat="43.8861572" lon="11.1315172"><ele>481.8571428571429</ele><time>2026-04-16T17:10:08.166Z</time></trkpt><trkpt lat="43.8860941" lon="11.1314589"><ele>480.2857142857143</ele><time>2026-04-16T17:10:14.062Z</time></trkpt><trkpt lat="43.8860345" lon="11.1314019"><ele>478.7142857142857</ele><time>2026-04-16T17:10:20.158Z</time></trkpt><trkpt lat="43.8859694" lon="11.1313588"><ele>477.1428571428571</ele><time>2026-04-16T17:10:27.146Z</time></trkpt><trkpt lat="43.8859013" lon="11.1313268"><ele>475.5714285714285</ele><time>2026-04-16T17:10:34.154Z</time></trkpt><trkpt lat="43.8858269" lon="11.1313207"><ele>473.99999999999994</ele><time>2026-04-16T17:10:40.158Z</time></trkpt><trkpt lat="43.8857609" lon="11.1313297"><ele>473.8571428571428</ele><time>2026-04-16T17:10:45.162Z</time></trkpt><trkpt lat="43.8856994" lon="11.1313772"><ele>473.71428571428567</ele><time>2026-04-16T17:10:52.168Z</time></trkpt><trkpt lat="43.8856381" lon="11.1314008"><ele>473.57142857142856</ele><time>2026-04-16T17:11:00.159Z</time></trkpt><trkpt lat="43.8855746" lon="11.1314208"><ele>473.4285714285714</ele><time>2026-04-16T17:11:06.155Z</time></trkpt><trkpt lat="43.8855101" lon="11.1314392"><ele>473.2857142857142</ele><time>2026-04-16T17:11:11.155Z</time></trkpt><trkpt lat="43.8854425" lon="11.1314285"><ele>473.14285714285717</ele><time>2026-04-16T17:11:17.164Z</time></trkpt><trkpt lat="43.8853797" lon="11.1314"><ele>473.0</ele><time>2026-04-16T17:11:23.165Z</time></trkpt><trkpt lat="43.8853158" lon="11.131357"><ele>473.0</ele><time>2026-04-16T17:11:31.16Z</time></trkpt><trkpt lat="43.8852507" lon="11.1313094"><ele>473.0</ele><time>2026-04-16T17:11:38.162Z</time></trkpt><trkpt lat="43.885198" lon="11.1312594"><ele>473.0</ele><time>2026-04-16T17:11:43.164Z</time></trkpt><trkpt lat="43.8851673" lon="11.1311749"><ele>473.0</ele><time>2026-04-16T17:11:48.161Z</time></trkpt><trkpt lat="43.8851221" lon="11.1311006"><ele>473.0</ele><time>2026-04-16T17:11:54.1Z</time></trkpt><trkpt lat="43.8850534" lon="11.1310726"><ele>473.0</ele><time>2026-04-16T17:12:02.159Z</time></trkpt><trkpt lat="43.8849834" lon="11.1310554"><ele>473.0</ele><time>2026-04-16T17:12:09.158Z</time></trkpt><trkpt lat="43.8849211" lon="11.1310366"><ele>471.8571428571429</ele><time>2026-04-16T17:12:15.154Z</time></trkpt><trkpt lat="43.8848555" lon="11.131022"><ele>470.71428571428567</ele><time>2026-04-16T17:12:20.125Z</time></trkpt><trkpt lat="43.8847855" lon="11.1310152"><ele>469.57142857142856</ele><time>2026-04-16T17:12:27.155Z</time></trkpt><trkpt lat="43.8847168" lon="11.1310313"><ele>468.42857142857144</ele><time>2026-04-16T17:12:33.159Z</time></trkpt><trkpt lat="43.8846471" lon="11.1310415"><ele>467.28571428571433</ele><time>2026-04-16T17:12:38.158Z</time></trkpt><trkpt lat="43.8845745" lon="11.1310469"><ele>466.1428571428571</ele><time>2026-04-16T17:12:44.119Z</time></trkpt><trkpt lat="43.8845077" lon="11.1310207"><ele>465.0</ele><time>2026-04-16T17:12:49.084Z</time></trkpt><trkpt lat="43.8844485" lon="11.1309898"><ele>465.0</ele><time>2026-04-16T17:12:52.152Z</time></trkpt><trkpt lat="43.8843847" lon="11.1309992"><ele>465.0</ele><time>2026-04-16T17:12:57.141Z</time></trkpt><trkpt lat="43.8843089" lon="11.1310021"><ele>465.0</ele><time>2026-04-16T17:13:04.157Z</time></trkpt><trkpt lat="43.8842455" lon="11.131007"><ele>465.0</ele><time>2026-04-16T17:13:15.119Z</time></trkpt><trkpt lat="43.8841742" lon="11.1310247"><ele>465.0</ele><time>2026-04-16T17:13:22.159Z</time></trkpt><trkpt lat="43.8841085" lon="11.1310224"><ele>465.0</ele><time>2026-04-16T17:13:31.158Z</time></trkpt><trkpt lat="43.8840443" lon="11.131013"><ele>465.0</ele><time>2026-04-16T17:13:38.159Z</time></trkpt><trkpt lat="43.8839729" lon="11.1310373"><ele>464.0</ele><time>2026-04-16T17:13:45.154Z</time></trkpt><trkpt lat="43.8838983" lon="11.1310523"><ele>463.0</ele><time>2026-04-16T17:13:51.663Z</time></trkpt><trkpt lat="43.8838376" lon="11.1310928"><ele>462.0</ele><time>2026-04-16T17:13:54.135Z</time></trkpt><trkpt lat="43.8837726" lon="11.131123"><ele>461.0</ele><time>2026-04-16T17:13:58.147Z</time></trkpt><trkpt lat="43.8837091" lon="11.1310824"><ele>460.0</ele><time>2026-04-16T17:14:06.139Z</time></trkpt><trkpt lat="43.883668" lon="11.1311747"><ele>459.0</ele><time>2026-04-16T17:14:12.152Z</time></trkpt><trkpt lat="43.883612" lon="11.1312216"><ele>458.0</ele><time>2026-04-16T17:14:19.162Z</time></trkpt><trkpt lat="43.8835568" lon="11.1312738"><ele>458.0</ele><time>2026-04-16T17:14:25.153Z</time></trkpt><trkpt lat="43.883499" lon="11.131314"><ele>458.0</ele><time>2026-04-16T17:14:30.062Z</time></trkpt><trkpt lat="43.8834443" lon="11.13136"><ele>458.0</ele><time>2026-04-16T17:14:35.068Z</time></trkpt><trkpt lat="43.8833888" lon="11.131405"><ele>458.0</ele><time>2026-04-16T17:14:40.063Z</time></trkpt><trkpt lat="43.8833335" lon="11.1314542"><ele>458.0</ele><time>2026-04-16T17:14:45.147Z</time></trkpt><trkpt lat="43.8832797" lon="11.1315019"><ele>458.0</ele><time>2026-04-16T17:14:50.15Z</time></trkpt><trkpt lat="43.8832096" lon="11.1315358"><ele>458.0</ele><time>2026-04-16T17:14:56.148Z</time></trkpt><trkpt lat="43.8831463" lon="11.1315633"><ele>459.1428571428571</ele><time>2026-04-16T17:15:02.147Z</time></trkpt><trkpt lat="43.8830859" lon="11.1316031"><ele>460.28571428571433</ele><time>2026-04-16T17:15:08.144Z</time></trkpt><trkpt lat="43.8830231" lon="11.1316349"><ele>461.42857142857144</ele><time>2026-04-16T17:15:14.152Z</time></trkpt><trkpt lat="43.8829589" lon="11.1316611"><ele>462.57142857142856</ele><time>2026-04-16T17:15:20.151Z</time></trkpt><trkpt lat="43.8828887" lon="11.1316892"><ele>463.71428571428567</ele><time>2026-04-16T17:15:26.15Z</time></trkpt><trkpt lat="43.8828204" lon="11.1317266"><ele>464.8571428571429</ele><time>2026-04-16T17:15:31.151Z</time></trkpt><trkpt lat="43.8827625" lon="11.1317697"><ele>466.0</ele><time>2026-04-16T17:15:40.147Z</time></trkpt><trkpt lat="43.8827011" lon="11.1317991"><ele>466.0</ele><time>2026-04-16T17:15:46.158Z</time></trkpt><trkpt lat="43.88264" lon="11.1318202"><ele>466.0</ele><time>2026-04-16T17:15:53.155Z</time></trkpt><trkpt lat="43.8825771" lon="11.1318383"><ele>466.0</ele><time>2026-04-16T17:16:03.155Z</time></trkpt><trkpt lat="43.8825122" lon="11.1318778"><ele>466.0</ele><time>2026-04-16T17:16:08.119Z</time></trkpt><trkpt lat="43.8824443" lon="11.1318916"><ele>466.0</ele><time>2026-04-16T17:16:13.157Z</time></trkpt><trkpt lat="43.8823798" lon="11.1318845"><ele>466.0</ele><time>2026-04-16T17:16:19.12Z</time></trkpt><trkpt lat="43.8823102" lon="11.131875"><ele>466.0</ele><time>2026-04-16T17:16:23.124Z</time></trkpt><trkpt lat="43.882243" lon="11.1318725"><ele>466.14285714285717</ele><time>2026-04-16T17:16:29.16Z</time></trkpt><trkpt lat="43.8821723" lon="11.1318548"><ele>466.2857142857142</ele><time>2026-04-16T17:16:35.163Z</time></trkpt><trkpt lat="43.8821017" lon="11.1318406"><ele>466.4285714285714</ele><time>2026-04-16T17:16:41.162Z</time></trkpt><trkpt lat="43.8820294" lon="11.131849"><ele>466.57142857142856</ele><time>2026-04-16T17:16:47.105Z</time></trkpt><trkpt lat="43.8819578" lon="11.1318667"><ele>466.71428571428567</ele><time>2026-04-16T17:16:53.165Z</time></trkpt><trkpt lat="43.8818921" lon="11.1318705"><ele>466.8571428571428</ele><time>2026-04-16T17:17:00.158Z</time></trkpt><trkpt lat="43.8818289" lon="11.1318687"><ele>466.99999999999994</ele><time>2026-04-16T17:17:06.159Z</time></trkpt><trkpt lat="43.8817634" lon="11.1318382"><ele>465.5714285714285</ele><time>2026-04-16T17:17:13.166Z</time></trkpt><trkpt lat="43.8817031" lon="11.1318002"><ele>464.1428571428571</ele><time>2026-04-16T17:17:19.166Z</time></trkpt><trkpt lat="43.8816372" lon="11.1317993"><ele>462.7142857142857</ele><time>2026-04-16T17:17:26.103Z</time></trkpt><trkpt lat="43.8815741" lon="11.1318006"><ele>461.2857142857143</ele><time>2026-04-16T17:17:33.159Z</time></trkpt><trkpt lat="43.8815125" lon="11.131826"><ele>459.8571428571429</ele><time>2026-04-16T17:17:41.157Z</time></trkpt><trkpt lat="43.8814623" lon="11.1319021"><ele>458.4285714285715</ele><time>2026-04-16T17:17:49.178Z</time></trkpt><trkpt lat="43.8814314" lon="11.1319941"><ele>457.00000000000006</ele><time>2026-04-16T17:17:56.176Z</time></trkpt><trkpt lat="43.8813995" lon="11.1320753"><ele>457.00000000000006</ele><time>2026-04-16T17:18:05.175Z</time></trkpt><trkpt lat="43.8813647" lon="11.1321572"><ele>457.0</ele><time>2026-04-16T17:18:12.168Z</time></trkpt><trkpt lat="43.8813465" lon="11.1322425"><ele>457.00000000000006</ele><time>2026-04-16T17:18:19.169Z</time></trkpt><trkpt lat="43.8813152" lon="11.1323226"><ele>457.00000000000006</ele><time>2026-04-16T17:18:26.124Z</time></trkpt><trkpt lat="43.8812785" lon="11.1323937"><ele>457.0</ele><time>2026-04-16T17:18:35.166Z</time></trkpt><trkpt lat="43.8812079" lon="11.1323763"><ele>457.00000000000006</ele><time>2026-04-16T17:18:44.172Z</time></trkpt><trkpt lat="43.8811418" lon="11.1323507"><ele>457.00000000000006</ele><time>2026-04-16T17:18:52.138Z</time></trkpt><trkpt lat="43.8810799" lon="11.1323335"><ele>457.00000000000006</ele><time>2026-04-16T17:18:59.174Z</time></trkpt><trkpt lat="43.8810131" lon="11.1323317"><ele>457.0</ele><time>2026-04-16T17:19:05.167Z</time></trkpt><trkpt lat="43.8809444" lon="11.1323028"><ele>457.00000000000006</ele><time>2026-04-16T17:19:13.175Z</time></trkpt><trkpt lat="43.8808736" lon="11.1323098"><ele>457.00000000000006</ele><time>2026-04-16T17:19:19.164Z</time></trkpt><trkpt lat="43.8807987" lon="11.1323109"><ele>457.0</ele><time>2026-04-16T17:19:29.16Z</time></trkpt><trkpt lat="43.8807367" lon="11.1322933"><ele>457.00000000000006</ele><time>2026-04-16T17:19:34.167Z</time></trkpt><trkpt lat="43.8806727" lon="11.1322561"><ele>457.00000000000006</ele><time>2026-04-16T17:19:40.167Z</time></trkpt><trkpt lat="43.8806062" lon="11.13225"><ele>455.1428571428572</ele><time>2026-04-16T17:20:59.157Z</time></trkpt><trkpt lat="43.8805621" lon="11.1323134"><ele>453.28571428571433</ele><time>2026-04-16T17:21:08.155Z</time></trkpt><trkpt lat="43.8805497" lon="11.1324044"><ele>451.42857142857144</ele><time>2026-04-16T17:21:16.16Z</time></trkpt><trkpt lat="43.88058" lon="11.1324882"><ele>449.5714285714286</ele><time>2026-04-16T17:21:22.16Z</time></trkpt><trkpt lat="43.8805845" lon="11.1325882"><ele>447.7142857142858</ele><time>2026-04-16T17:21:29.165Z</time></trkpt><trkpt lat="43.8805768" lon="11.1326842"><ele>445.85714285714283</ele><time>2026-04-16T17:21:36.156Z</time></trkpt><trkpt lat="43.8805655" lon="11.132774"><ele>444.0</ele><time>2026-04-16T17:21:42.105Z</time></trkpt><trkpt lat="43.8805678" lon="11.1328632"><ele>443.1666666666667</ele><time>2026-04-16T17:21:47.158Z</time></trkpt><trkpt lat="43.8805776" lon="11.1329592"><ele>442.33333333333337</ele><time>2026-04-16T17:21:52.156Z</time></trkpt><trkpt lat="43.8805846" lon="11.1330546"><ele>441.5</ele><time>2026-04-16T17:21:58.16Z</time></trkpt><trkpt lat="43.8806028" lon="11.1331514"><ele>440.6666666666667</ele><time>2026-04-16T17:22:04.166Z</time></trkpt><trkpt lat="43.8806129" lon="11.1332568"><ele>439.83333333333337</ele><time>2026-04-16T17:22:10.166Z</time></trkpt><trkpt lat="43.8805941" lon="11.1334268"><ele>439.0</ele><time>2026-04-16T17:22:22.152Z</time></trkpt><trkpt lat="43.8805318" lon="11.1333928"><ele>437.83333333333337</ele><time>2026-04-16T17:22:28.156Z</time></trkpt><trkpt lat="43.8804312" lon="11.133411"><ele>436.6666666666667</ele><time>2026-04-16T17:22:41.154Z</time></trkpt><trkpt lat="43.8803602" lon="11.1334005"><ele>435.5</ele><time>2026-04-16T17:22:46.16Z</time></trkpt><trkpt lat="43.8802914" lon="11.1333852"><ele>434.33333333333337</ele><time>2026-04-16T17:22:53.158Z</time></trkpt><trkpt lat="43.8802237" lon="11.1333662"><ele>433.1666666666667</ele><time>2026-04-16T17:22:58.138Z</time></trkpt><trkpt lat="43.8801552" lon="11.1333372"><ele>432.0</ele><time>2026-04-16T17:23:03.166Z</time></trkpt><trkpt lat="43.88009" lon="11.1332838"><ele>430.85714285714283</ele><time>2026-04-16T17:23:09.162Z</time></trkpt><trkpt lat="43.8800236" lon="11.1332388"><ele>429.71428571428567</ele><time>2026-04-16T17:23:14.155Z</time></trkpt><trkpt lat="43.8799668" lon="11.1331981"><ele>428.57142857142856</ele><time>2026-04-16T17:23:21.161Z</time></trkpt><trkpt lat="43.8798862" lon="11.1331777"><ele>427.42857142857144</ele><time>2026-04-16T17:23:28.148Z</time></trkpt><trkpt lat="43.879831" lon="11.1331251"><ele>426.2857142857143</ele><time>2026-04-16T17:23:30.159Z</time></trkpt><trkpt lat="43.8797666" lon="11.1330927"><ele>425.14285714285717</ele><time>2026-04-16T17:23:36.137Z</time></trkpt><trkpt lat="43.8797029" lon="11.1330913"><ele>424.0</ele><time>2026-04-16T17:23:43.146Z</time></trkpt><trkpt lat="43.8796346" lon="11.1330979"><ele>424.0</ele><time>2026-04-16T17:23:52.154Z</time></trkpt><trkpt lat="43.8795665" lon="11.1330748"><ele>424.0</ele><time>2026-04-16T17:24:00.151Z</time></trkpt><trkpt lat="43.8795016" lon="11.1330567"><ele>424.0</ele><time>2026-04-16T17:24:06.155Z</time></trkpt><trkpt lat="43.879439" lon="11.1330439"><ele>424.0</ele><time>2026-04-16T17:24:13.157Z</time></trkpt><trkpt lat="43.879374" lon="11.1330368"><ele>424.0</ele><time>2026-04-16T17:24:20.156Z</time></trkpt><trkpt lat="43.8793079" lon="11.1330164"><ele>424.0</ele><time>2026-04-16T17:24:25.151Z</time></trkpt><trkpt lat="43.8792388" lon="11.1329882"><ele>424.0</ele><time>2026-04-16T17:24:30.162Z</time></trkpt><trkpt lat="43.8791703" lon="11.1329751"><ele>422.42857142857144</ele><time>2026-04-16T17:24:35.124Z</time></trkpt><trkpt lat="43.8791033" lon="11.1329327"><ele>420.85714285714283</ele><time>2026-04-16T17:24:42.155Z</time></trkpt><trkpt lat="43.8790371" lon="11.1328828"><ele>419.2857142857143</ele><time>2026-04-16T17:24:48.144Z</time></trkpt><trkpt lat="43.8789686" lon="11.1329013"><ele>417.7142857142857</ele><time>2026-04-16T17:24:55.155Z</time></trkpt><trkpt lat="43.8789037" lon="11.1328843"><ele>416.1428571428571</ele><time>2026-04-16T17:25:02.154Z</time></trkpt><trkpt lat="43.8788368" lon="11.1328825"><ele>414.57142857142856</ele><time>2026-04-16T17:25:08.152Z</time></trkpt><trkpt lat="43.8787689" lon="11.132899"><ele>413.0</ele><time>2026-04-16T17:25:16.162Z</time></trkpt><trkpt lat="43.8786952" lon="11.1328998"><ele>413.0</ele><time>2026-04-16T17:25:23.165Z</time></trkpt><trkpt lat="43.8786336" lon="11.1329243"><ele>413.0</ele><time>2026-04-16T17:25:28.123Z</time></trkpt><trkpt lat="43.8785627" lon="11.1329202"><ele>413.0</ele><time>2026-04-16T17:25:36.158Z</time></trkpt><trkpt lat="43.878478" lon="11.1328409"><ele>413.0</ele><time>2026-04-16T17:26:05.152Z</time></trkpt><trkpt lat="43.8784111" lon="11.1328453"><ele>413.0</ele><time>2026-04-16T17:26:08.156Z</time></trkpt><trkpt lat="43.8783481" lon="11.1328634"><ele>413.0</ele><time>2026-04-16T17:26:14.119Z</time></trkpt><trkpt lat="43.8782765" lon="11.1328548"><ele>413.0</ele><time>2026-04-16T17:26:19.156Z</time></trkpt><trkpt lat="43.8782152" lon="11.1328167"><ele>411.49999999999994</ele><time>2026-04-16T17:26:26.16Z</time></trkpt><trkpt lat="43.8781616" lon="11.1327473"><ele>410.0</ele><time>2026-04-16T17:26:31.106Z</time></trkpt><trkpt lat="43.8781407" lon="11.1326488"><ele>408.5</ele><time>2026-04-16T17:26:35.156Z</time></trkpt><trkpt lat="43.8781115" lon="11.1325707"><ele>407.0</ele><time>2026-04-16T17:26:48.154Z</time></trkpt><trkpt lat="43.8780411" lon="11.1325315"><ele>405.49999999999994</ele><time>2026-04-16T17:26:56.157Z</time></trkpt><trkpt lat="43.8779475" lon="11.1325148"><ele>404.0</ele><time>2026-04-16T17:27:00.148Z</time></trkpt><trkpt lat="43.8778768" lon="11.1325294"><ele>404.0</ele><time>2026-04-16T17:27:05.08Z</time></trkpt><trkpt lat="43.8778086" lon="11.1325003"><ele>404.0</ele><time>2026-04-16T17:27:13.155Z</time></trkpt><trkpt lat="43.8777426" lon="11.1324817"><ele>404.0</ele><time>2026-04-16T17:27:18.157Z</time></trkpt><trkpt lat="43.877701" lon="11.1324135"><ele>404.0</ele><time>2026-04-16T17:27:22.163Z</time></trkpt><trkpt lat="43.8776585" lon="11.1323306"><ele>404.0</ele><time>2026-04-16T17:27:27.119Z</time></trkpt><trkpt lat="43.8776101" lon="11.1322594"><ele>404.0</ele><time>2026-04-16T17:27:35.157Z</time></trkpt><trkpt lat="43.877569" lon="11.1321759"><ele>404.0</ele><time>2026-04-16T17:27:41.17Z</time></trkpt><trkpt lat="43.8775499" lon="11.1320858"><ele>401.0</ele><time>2026-04-16T17:27:47.1Z</time></trkpt><trkpt lat="43.8774958" lon="11.1320329"><ele>398.0</ele><time>2026-04-16T17:27:53.108Z</time></trkpt><trkpt lat="43.8774429" lon="11.1319851"><ele>395.0</ele><time>2026-04-16T17:27:57.157Z</time></trkpt><trkpt lat="43.8774272" lon="11.1318751"><ele>392.0</ele><time>2026-04-16T17:28:07.172Z</time></trkpt><trkpt lat="43.8773597" lon="11.1318498"><ele>389.0</ele><time>2026-04-16T17:28:19.167Z</time></trkpt><trkpt lat="43.8772996" lon="11.1318897"><ele>386.0</ele><time>2026-04-16T17:28:28.17Z</time></trkpt><trkpt lat="43.8772359" lon="11.1319082"><ele>383.0</ele><time>2026-04-16T17:28:35.164Z</time></trkpt><trkpt lat="43.8771753" lon="11.1319397"><ele>383.0</ele><time>2026-04-16T17:28:41.163Z</time></trkpt><trkpt lat="43.8771076" lon="11.1319666"><ele>383.0</ele><time>2026-04-16T17:28:47.078Z</time></trkpt><trkpt lat="43.8770557" lon="11.1320204"><ele>383.0</ele><time>2026-04-16T17:28:54.177Z</time></trkpt><trkpt lat="43.8769692" lon="11.132173"><ele>383.0</ele><time>2026-04-16T17:29:11.156Z</time></trkpt><trkpt lat="43.876952" lon="11.1322591"><ele>383.0</ele><time>2026-04-16T17:29:12.173Z</time></trkpt><trkpt lat="43.8769366" lon="11.1323552"><ele>383.0</ele><time>2026-04-16T17:29:18.157Z</time></trkpt><trkpt lat="43.8769091" lon="11.1324343"><ele>383.7142857142857</ele><time>2026-04-16T17:29:25.166Z</time></trkpt><trkpt lat="43.876911" lon="11.1325264"><ele>384.42857142857144</ele><time>2026-04-16T17:29:31.161Z</time></trkpt><trkpt lat="43.8769131" lon="11.1326211"><ele>385.1428571428571</ele><time>2026-04-16T17:29:38.163Z</time></trkpt><trkpt lat="43.8769032" lon="11.1327084"><ele>385.8571428571429</ele><time>2026-04-16T17:29:44.083Z</time></trkpt><trkpt lat="43.8769" lon="11.1328014"><ele>386.5714285714286</ele><time>2026-04-16T17:29:51.172Z</time></trkpt><trkpt lat="43.8768726" lon="11.1328823"><ele>387.2857142857143</ele><time>2026-04-16T17:29:57.167Z</time></trkpt><trkpt lat="43.8768151" lon="11.1329354"><ele>388.0</ele><time>2026-04-16T17:30:03.163Z</time></trkpt><trkpt lat="43.8767641" lon="11.1329958"><ele>386.2857142857143</ele><time>2026-04-16T17:30:08.164Z</time></trkpt><trkpt lat="43.8767166" lon="11.1330626"><ele>384.5714285714286</ele><time>2026-04-16T17:30:14.167Z</time></trkpt><trkpt lat="43.87667" lon="11.1331252"><ele>382.8571428571429</ele><time>2026-04-16T17:30:20.168Z</time></trkpt><trkpt lat="43.8766267" lon="11.133189"><ele>381.1428571428571</ele><time>2026-04-16T17:30:25.163Z</time></trkpt><trkpt lat="43.8765704" lon="11.1332485"><ele>379.42857142857144</ele><time>2026-04-16T17:30:31.164Z</time></trkpt><trkpt lat="43.8765122" lon="11.1333041"><ele>377.7142857142857</ele><time>2026-04-16T17:30:36.17Z</time></trkpt><trkpt lat="43.8764586" lon="11.1333576"><ele>376.0</ele><time>2026-04-16T17:30:42.177Z</time></trkpt><trkpt lat="43.8764236" lon="11.1334418"><ele>376.0</ele><time>2026-04-16T17:30:49.096Z</time></trkpt><trkpt lat="43.8763698" lon="11.1334891"><ele>376.0</ele><time>2026-04-16T17:30:55.167Z</time></trkpt><trkpt lat="43.8763219" lon="11.133554"><ele>376.0</ele><time>2026-04-16T17:31:02.187Z</time></trkpt><trkpt lat="43.8762661" lon="11.1335952"><ele>376.0</ele><time>2026-04-16T17:31:07.168Z</time></trkpt><trkpt lat="43.8762273" lon="11.1336677"><ele>376.0</ele><time>2026-04-16T17:31:29.17Z</time></trkpt><trkpt lat="43.8761501" lon="11.1336862"><ele>376.0</ele><time>2026-04-16T17:31:33.172Z</time></trkpt><trkpt lat="43.8760894" lon="11.133735"><ele>376.0</ele><time>2026-04-16T17:31:42.175Z</time></trkpt><trkpt lat="43.8760153" lon="11.1337607"><ele>376.0</ele><time>2026-04-16T17:31:48.172Z</time></trkpt><trkpt lat="43.8759502" lon="11.1337305"><ele>376.0</ele><time>2026-04-16T17:31:52.17Z</time></trkpt><trkpt lat="43.8758846" lon="11.1337167"><ele>376.0</ele><time>2026-04-16T17:31:56.703Z</time></trkpt><trkpt lat="43.8758117" lon="11.1337105"><ele>376.0</ele><time>2026-04-16T17:32:02.17Z</time></trkpt><trkpt lat="43.8757489" lon="11.1337021"><ele>376.0</ele><time>2026-04-16T17:32:06.163Z</time></trkpt><trkpt lat="43.875683" lon="11.1337152"><ele>376.0</ele><time>2026-04-16T17:32:10.174Z</time></trkpt><trkpt lat="43.8756116" lon="11.1337251"><ele>376.0</ele><time>2026-04-16T17:32:15.102Z</time></trkpt><trkpt lat="43.8755425" lon="11.1337137"><ele>375.85714285714283</ele><time>2026-04-16T17:32:22.17Z</time></trkpt><trkpt lat="43.8754738" lon="11.1337067"><ele>375.71428571428567</ele><time>2026-04-16T17:32:30.105Z</time></trkpt><trkpt lat="43.8754141" lon="11.1336776"><ele>375.57142857142856</ele><time>2026-04-16T17:32:36.177Z</time></trkpt><trkpt lat="43.8753476" lon="11.133648"><ele>375.42857142857144</ele><time>2026-04-16T17:32:42.184Z</time></trkpt><trkpt lat="43.8752794" lon="11.1336493"><ele>375.2857142857143</ele><time>2026-04-16T17:32:48.182Z</time></trkpt><trkpt lat="43.8752083" lon="11.1336755"><ele>375.14285714285717</ele><time>2026-04-16T17:32:53.177Z</time></trkpt><trkpt lat="43.8751368" lon="11.1337059"><ele>375.0</ele><time>2026-04-16T17:32:58.175Z</time></trkpt><trkpt lat="43.8750709" lon="11.1336876"><ele>374.2857142857143</ele><time>2026-04-16T17:33:02.137Z</time></trkpt><trkpt lat="43.8750014" lon="11.1336795"><ele>373.57142857142856</ele><time>2026-04-16T17:33:08.181Z</time></trkpt><trkpt lat="43.8749334" lon="11.1336648"><ele>372.85714285714283</ele><time>2026-04-16T17:33:14.183Z</time></trkpt><trkpt lat="43.874866" lon="11.1336635"><ele>372.1428571428571</ele><time>2026-04-16T17:33:21.178Z</time></trkpt><trkpt lat="43.8748127" lon="11.133714"><ele>371.42857142857144</ele><time>2026-04-16T17:33:26.12Z</time></trkpt><trkpt lat="43.8747539" lon="11.1337771"><ele>370.71428571428567</ele><time>2026-04-16T17:33:34.168Z</time></trkpt><trkpt lat="43.8746854" lon="11.1338148"><ele>370.0</ele><time>2026-04-16T17:33:39.17Z</time></trkpt><trkpt lat="43.8746268" lon="11.1338745"><ele>369.99999999999994</ele><time>2026-04-16T17:33:44.17Z</time></trkpt><trkpt lat="43.8745647" lon="11.1339288"><ele>370.0</ele><time>2026-04-16T17:33:49.177Z</time></trkpt><trkpt lat="43.8745076" lon="11.1339667"><ele>370.0</ele><time>2026-04-16T17:33:54.108Z</time></trkpt><trkpt lat="43.8744576" lon="11.1340286"><ele>370.0</ele><time>2026-04-16T17:34:00.175Z</time></trkpt><trkpt lat="43.8743979" lon="11.1340629"><ele>370.0</ele><time>2026-04-16T17:34:05.181Z</time></trkpt><trkpt lat="43.8743479" lon="11.1341365"><ele>369.99999999999994</ele><time>2026-04-16T17:34:13.186Z</time></trkpt><trkpt lat="43.8743077" lon="11.1342243"><ele>370.0</ele><time>2026-04-16T17:34:19.183Z</time></trkpt><trkpt lat="43.8742642" lon="11.1342974"><ele>369.71428571428567</ele><time>2026-04-16T17:34:24.184Z</time></trkpt><trkpt lat="43.8742152" lon="11.1343563"><ele>369.42857142857144</ele><time>2026-04-16T17:34:31.168Z</time></trkpt><trkpt lat="43.8742031" lon="11.1344465"><ele>369.1428571428571</ele><time>2026-04-16T17:34:34.172Z</time></trkpt><trkpt lat="43.8741836" lon="11.134545"><ele>368.85714285714283</ele><time>2026-04-16T17:34:39.174Z</time></trkpt><trkpt lat="43.8741917" lon="11.1346361"><ele>368.57142857142856</ele><time>2026-04-16T17:34:49.184Z</time></trkpt><trkpt lat="43.8741849" lon="11.1347386"><ele>368.2857142857143</ele><time>2026-04-16T17:34:55.186Z</time></trkpt><trkpt lat="43.8741987" lon="11.134835"><ele>368.0</ele><time>2026-04-16T17:35:03.124Z</time></trkpt><trkpt lat="43.8742097" lon="11.1349237"><ele>368.8571428571429</ele><time>2026-04-16T17:35:10.173Z</time></trkpt><trkpt lat="43.8742318" lon="11.135007"><ele>369.71428571428567</ele><time>2026-04-16T17:35:15.167Z</time></trkpt><trkpt lat="43.8742912" lon="11.1350399"><ele>370.57142857142856</ele><time>2026-04-16T17:35:26.165Z</time></trkpt><trkpt lat="43.8742648" lon="11.1351768"><ele>371.42857142857144</ele><time>2026-04-16T17:35:31.17Z</time></trkpt><trkpt lat="43.8742783" lon="11.1352637"><ele>372.28571428571433</ele><time>2026-04-16T17:35:36.172Z</time></trkpt><trkpt lat="43.8742945" lon="11.1353659"><ele>373.1428571428571</ele><time>2026-04-16T17:35:42.18Z</time></trkpt><trkpt lat="43.8742978" lon="11.1354535"><ele>374.0</ele><time>2026-04-16T17:35:48.163Z</time></trkpt><trkpt lat="43.8742966" lon="11.1355486"><ele>374.0</ele><time>2026-04-16T17:35:53.171Z</time></trkpt><trkpt lat="43.8743057" lon="11.1356366"><ele>374.0</ele><time>2026-04-16T17:35:58.109Z</time></trkpt><trkpt lat="43.8743251" lon="11.1357329"><ele>374.0</ele><time>2026-04-16T17:36:05.175Z</time></trkpt><trkpt lat="43.8743178" lon="11.1358297"><ele>374.0</ele><time>2026-04-16T17:36:09.17Z</time></trkpt><trkpt lat="43.8743115" lon="11.1359181"><ele>374.0</ele><time>2026-04-16T17:36:13.103Z</time></trkpt><trkpt lat="43.8743123" lon="11.1360134"><ele>374.0</ele><time>2026-04-16T17:36:18.173Z</time></trkpt><trkpt lat="43.8743133" lon="11.1361172"><ele>374.0</ele><time>2026-04-16T17:36:24.168Z</time></trkpt><trkpt lat="43.8743047" lon="11.1362155"><ele>374.1428571428571</ele><time>2026-04-16T17:36:31.152Z</time></trkpt><trkpt lat="43.8743189" lon="11.1363117"><ele>374.28571428571433</ele><time>2026-04-16T17:36:35.064Z</time></trkpt><trkpt lat="43.8743303" lon="11.1364014"><ele>374.42857142857144</ele><time>2026-04-16T17:36:42.161Z</time></trkpt><trkpt lat="43.8743492" lon="11.1364922"><ele>374.57142857142856</ele><time>2026-04-16T17:36:48.128Z</time></trkpt><trkpt lat="43.8743731" lon="11.1365879"><ele>374.71428571428567</ele><time>2026-04-16T17:36:53.16Z</time></trkpt><trkpt lat="43.8743872" lon="11.1366782"><ele>374.8571428571429</ele><time>2026-04-16T17:37:00.162Z</time></trkpt><trkpt lat="43.8743898" lon="11.136771"><ele>375.0</ele><time>2026-04-16T17:37:07.159Z</time></trkpt><trkpt lat="43.8743644" lon="11.1368563"><ele>371.0</ele><time>2026-04-16T17:37:12.155Z</time></trkpt><trkpt lat="43.8743764" lon="11.1369526"><ele>371.0</ele><time>2026-04-16T17:37:15.083Z</time></trkpt><trkpt lat="43.8743635" lon="11.1370496"><ele>371.0</ele><time>2026-04-16T17:37:19.158Z</time></trkpt><trkpt lat="43.8743077" lon="11.1371121"><ele>371.0</ele><time>2026-04-16T17:37:25.159Z</time></trkpt></trkseg></trk></gpx>